Darstellungsparameter: Aktuell verwendete Einstellungen:
Skalierung der Graphiken ... ?
xyx+y,   Skalierungsfaktor:      Skalierung: Modus: x, Faktor: 1
Darstellungszeitraum ... ?
Vom - - bis: - -   Zeitraum: 03.08.2008 - 02.11.2008
Min/Max/Avg-Anzeige ... ?
Zeige MMA aktuell
Zeige MMA Monat
Zeige MMA alles
Zeige --A aktuell
Zeige --A Monat
Zeige --A alles
Keine MMA-Anzeige
MMA:
Average (ber die Originaldaten)
MMA-Basis: 17.04.2019 - 19.05.2019
Quicknavigation für Darstellung... ?
Tage:      1T, 2T, 3T, 5T -1T -2T -3T -5T +1T +2T +3T +5T
Wochen: 1W, 2W, 3W -1W -2W -3W +1W +2W +3W
Monate: 1M, 3M, 6M -1M -3M -6M +1M +3M +6M
Jahre:    1J, 3J, 5J, 10J -1J -3J -5J -10J +1J +3J +5J +10J
Nutze für die Darstellung ... ?
Originaldaten oder Mittelwerte auf ...
Stundenbasis Tagesbasis Wochenbasis
Monatsbasis Jahresbasis      Datenbasis: Original-Daten
Darstellen als:
Statistik (Auto) Statistik J:M      Darstellung:
Zur Graphik,    zurück zur Übersicht aller Sensoren.
 
Tabellarische Datenbersicht: ?
 
Sensor: Nr:Datum:Temp:Abs-Feuchte:Windchill:Wind:
Aussen-T/F 1 03-08-2008 00:05:03 20.4 C 11.14 g/m*3 20.4 C 0 km/h
2 03-08-2008 00:35:03 19 C 12.06 g/m*3 19 C 0 km/h
3 03-08-2008 01:05:02 19.2 C 12.2 g/m*3 19.2 C 0 km/h
4 03-08-2008 01:35:03 19.6 C 11.99 g/m*3 19.6 C 0 km/h
5 03-08-2008 02:05:02 18.4 C 13.05 g/m*3 18.4 C 0 km/h
6 03-08-2008 02:35:03 18.4 C 13.68 g/m*3 18.4 C 0 km/h
7 03-08-2008 03:06:03 18.2 C 13.68 g/m*3 18.2 C 0 km/h
8 03-08-2008 03:36:02 18.2 C 13.68 g/m*3 18.2 C 0 km/h
9 03-08-2008 04:06:02 17.7 C 12.98 g/m*3 17.7 C 0 km/h
10 03-08-2008 04:36:02 17.6 C 13.05 g/m*3 17.6 C 0 km/h
11 03-08-2008 05:06:01 17.3 C 12.96 g/m*3 17.3 C 0 km/h
12 03-08-2008 05:36:01 17.5 C 13.27 g/m*3 17.5 C 0 km/h
13 03-08-2008 06:06:03 17.5 C 13.27 g/m*3 17.5 C 0 km/h
14 03-08-2008 06:36:03 17.5 C 13.27 g/m*3 17.5 C 0 km/h
15 03-08-2008 07:06:02 17.7 C 12.82 g/m*3 17.7 C 0 km/h
16 03-08-2008 07:36:02 17.8 C 11.99 g/m*3 17.8 C 0 km/h
17 03-08-2008 08:06:02 17.9 C 10.84 g/m*3 17.9 C 0 km/h
18 03-08-2008 08:36:02 18.3 C 10.79 g/m*3 18.3 C 0 km/h
19 03-08-2008 09:06:02 19 C 10.1 g/m*3 19 C 0 km/h
20 03-08-2008 09:36:02 19.5 C 10.41 g/m*3 19.5 C 0 km/h
21 03-08-2008 10:06:02 20.1 C 9.91 g/m*3 20.1 C 0 km/h
22 03-08-2008 10:36:02 21.1 C 9.95 g/m*3 21.1 C 0 km/h
23 03-08-2008 11:06:01 22 C 9.7 g/m*3 22 C 0 km/h
24 03-08-2008 11:36:01 23.6 C 9.57 g/m*3 23.6 C 0 km/h
25 03-08-2008 12:00:01 22.6 C 9.24 g/m*3 22.6 C 0 km/h
Sensor: Nr:Datum:Temp:Abs-Feuchte:Windchill:Wind:
Aussen-T/F 26 03-08-2008 12:12:02 22.6 C 9.04 g/m*3 22.6 C 0 km/h
27 03-08-2008 12:24:01 22.5 C 8.99 g/m*3 22.5 C 0 km/h
28 03-08-2008 12:36:02 23 C 8.84 g/m*3 23 C 0 km/h
29 03-08-2008 12:48:02 23.1 C 9.1 g/m*3 23.1 C 0 km/h
30 03-08-2008 13:00:02 23.4 C 9.04 g/m*3 23.4 C 0 km/h
31 03-08-2008 13:12:01 23.3 C 9.62 g/m*3 23.3 C 0 km/h
32 03-08-2008 13:24:02 23.2 C 9.15 g/m*3 23.2 C 0 km/h
33 03-08-2008 13:36:02 24.6 C 9.23 g/m*3 24.6 C 0 km/h
34 03-08-2008 13:48:02 26.7 C 8.86 g/m*3 26.7 C 0 km/h
35 03-08-2008 14:00:02 26.5 C 9.01 g/m*3 26.5 C 0 km/h
36 03-08-2008 14:12:02 26.7 C 8.86 g/m*3 26.7 C 0 km/h
37 03-08-2008 14:24:01 26.2 C 9.11 g/m*3 26.2 C 0 km/h
38 03-08-2008 14:36:02 27.2 C 9.11 g/m*3 27.2 C 0 km/h
39 03-08-2008 14:48:02 27.1 C 8.8 g/m*3 27.1 C 0 km/h
40 03-08-2008 15:00:03 27.4 C 8.95 g/m*3 27.4 C 0 km/h
41 03-08-2008 15:12:02 27.6 C 8.78 g/m*3 27.6 C 0 km/h
42 03-08-2008 15:24:03 26.9 C 8.7 g/m*3 26.9 C 0 km/h
43 03-08-2008 15:36:03 27 C 9.01 g/m*3 27 C 0 km/h
44 03-08-2008 15:48:02 27.3 C 9.16 g/m*3 27.3 C 0 km/h
45 03-08-2008 16:00:02 27.7 C 9.36 g/m*3 27.7 C 0 km/h
46 03-08-2008 16:12:02 27.9 C 9.2 g/m*3 27.9 C 0 km/h
47 03-08-2008 16:24:02 28 C 8.97 g/m*3 28 C 0 km/h
48 03-08-2008 16:36:01 27.2 C 9.11 g/m*3 27.2 C 0 km/h
49 03-08-2008 16:48:02 27.2 C 9.11 g/m*3 27.2 C 0 km/h
50 03-08-2008 17:00:02 28 C 8.97 g/m*3 28 C 0 km/h
Sensor: Nr:Datum:Temp:Abs-Feuchte:Windchill:Wind:
Aussen-T/F 51 03-08-2008 17:12:03 28 C 8.7 g/m*3 28 C 0 km/h
52 03-08-2008 17:48:02 28.4 C 8.62 g/m*3 28.4 C 0 km/h
53 03-08-2008 18:00:02 28.4 C 8.9 g/m*3 28.4 C 0 km/h
54 03-08-2008 18:12:03 28.8 C 8.81 g/m*3 28.8 C 0 km/h
55 03-08-2008 18:24:03 27.5 C 8.73 g/m*3 27.5 C 0 km/h
56 03-08-2008 18:36:02 27.2 C 8.85 g/m*3 27.2 C 0 km/h
57 03-08-2008 18:48:02 27.3 C 9.16 g/m*3 27.3 C 0 km/h
58 03-08-2008 19:00:02 27.1 C 9.06 g/m*3 27.1 C 0 km/h
59 03-08-2008 19:12:02 27.3 C 9.16 g/m*3 27.3 C 0 km/h
60 03-08-2008 19:24:02 26.6 C 9.31 g/m*3 26.6 C 0 km/h
61 03-08-2008 19:36:02 26.1 C 9.3 g/m*3 26.1 C 0 km/h
62 03-08-2008 19:48:02 25.8 C 9.63 g/m*3 25.8 C 0 km/h
63 03-08-2008 20:00:03 25.7 C 9.58 g/m*3 25.7 C 0 km/h
64 03-08-2008 20:12:02 25.3 C 9.83 g/m*3 25.3 C 0 km/h
65 03-08-2008 20:24:02 25 C 9.67 g/m*3 25 C 0 km/h
66 03-08-2008 20:36:02 24.8 C 10.02 g/m*3 24.8 C 0 km/h
67 03-08-2008 20:48:02 24.7 C 10.19 g/m*3 24.7 C 0 km/h
68 03-08-2008 21:00:02 24.5 C 10.3 g/m*3 24.5 C 0 km/h
69 03-08-2008 21:12:02 24.3 C 10.4 g/m*3 24.3 C 0 km/h
70 03-08-2008 21:24:02 24.1 C 10.94 g/m*3 24.1 C 0 km/h
71 03-08-2008 21:36:03 23.6 C 11.27 g/m*3 23.6 C 0 km/h
72 03-08-2008 21:48:02 22.6 C 12.46 g/m*3 22.6 C 0 km/h
73 03-08-2008 22:00:02 22.7 C 12.32 g/m*3 22.7 C 0 km/h
74 03-08-2008 22:12:03 22.9 C 12.06 g/m*3 22.9 C 0 km/h
75 03-08-2008 22:24:02 22.7 C 11.92 g/m*3 22.7 C 0 km/h
Sensor: Nr:Datum:Temp:Abs-Feuchte:Windchill:Wind:
Aussen-T/F 76 03-08-2008 22:37:04 22.6 C 11.85 g/m*3 22.6 C 0 km/h
77 03-08-2008 22:49:04 22.5 C 11.98 g/m*3 22.5 C 0 km/h
78 03-08-2008 23:01:05 22.2 C 11.98 g/m*3 22.2 C 0 km/h
79 03-08-2008 23:13:05 22.1 C 11.91 g/m*3 22.1 C 0 km/h
80 03-08-2008 23:25:05 22 C 12.23 g/m*3 22 C 0 km/h
81 03-08-2008 23:37:05 21.8 C 12.28 g/m*3 21.8 C 0 km/h
82 03-08-2008 23:49:05 21.9 C 12.35 g/m*3 21.9 C 0 km/h
83 04-08-2008 00:01:05 21.8 C 12.28 g/m*3 21.8 C 0 km/h
84 04-08-2008 00:13:05 21.8 C 12.28 g/m*3 21.8 C 0 km/h
85 04-08-2008 00:25:05 21.6 C 12.33 g/m*3 21.6 C 0 km/h
86 04-08-2008 00:37:05 21.3 C 12.3 g/m*3 21.3 C 0 km/h
87 04-08-2008 00:49:05 21.3 C 12.3 g/m*3 21.3 C 0 km/h
88 04-08-2008 01:01:05 21.6 C 12.14 g/m*3 21.6 C 0 km/h
89 04-08-2008 01:13:05 21.8 C 11.9 g/m*3 21.8 C 0 km/h
90 04-08-2008 01:25:05 22.1 C 11.91 g/m*3 22.1 C 0 km/h
91 04-08-2008 01:37:05 22.6 C 11.85 g/m*3 22.6 C 0 km/h
92 04-08-2008 01:49:05 22.9 C 11.65 g/m*3 22.9 C 0 km/h
93 04-08-2008 02:01:05 23.1 C 11.37 g/m*3 23.1 C 0 km/h
94 04-08-2008 02:13:05 23.3 C 11.29 g/m*3 23.3 C 0 km/h
95 04-08-2008 02:25:05 23.4 C 11.14 g/m*3 23.4 C 0 km/h
96 04-08-2008 02:37:05 23.5 C 11.21 g/m*3 23.5 C 0 km/h
97 04-08-2008 02:49:06 23.4 C 11.14 g/m*3 23.4 C 0 km/h
98 04-08-2008 03:01:06 23.3 C 11.29 g/m*3 23.3 C 0 km/h
99 04-08-2008 03:13:06 23.2 C 11.23 g/m*3 23.2 C 0 km/h
100 04-08-2008 03:25:06 23 C 11.3 g/m*3 23 C 0 km/h
Sensor: Nr:Datum:Temp:Abs-Feuchte:Windchill:Wind:
Aussen-T/F 101 04-08-2008 03:37:06 22.9 C 11.44 g/m*3 22.9 C 0 km/h
102 04-08-2008 03:49:06 21.5 C 12.63 g/m*3 21.5 C 0 km/h
103 04-08-2008 04:01:06 19.8 C 13.84 g/m*3 19.8 C 0 km/h
104 04-08-2008 04:13:06 19.5 C 14.1 g/m*3 19.5 C 0 km/h
105 04-08-2008 04:25:06 19.4 C 14.18 g/m*3 19.4 C 0 km/h
106 04-08-2008 04:37:06 19.1 C 13.93 g/m*3 19.1 C 0 km/h
107 04-08-2008 04:49:06 19.2 C 13.36 g/m*3 19.2 C 0 km/h
108 04-08-2008 05:01:06 18.9 C 13.28 g/m*3 18.9 C 0 km/h
109 04-08-2008 05:13:06 18.8 C 13.53 g/m*3 18.8 C 0 km/h
110 04-08-2008 05:25:06 18.4 C 13.21 g/m*3 18.4 C 0 km/h
111 04-08-2008 05:37:06 17.9 C 12.83 g/m*3 17.9 C 0 km/h
112 04-08-2008 05:49:06 17.7 C 12.82 g/m*3 17.7 C 0 km/h
113 04-08-2008 06:01:06 17.6 C 12.9 g/m*3 17.6 C 0 km/h
114 04-08-2008 06:13:06 17.5 C 12.97 g/m*3 17.5 C 0 km/h
115 04-08-2008 06:25:06 17.2 C 12.89 g/m*3 17.2 C 0 km/h
116 04-08-2008 06:37:06 16.9 C 12.8 g/m*3 16.9 C 0 km/h
117 04-08-2008 06:49:06 16.8 C 12.72 g/m*3 16.8 C 0 km/h
118 04-08-2008 07:01:07 16.6 C 12.71 g/m*3 16.6 C 0 km/h
119 04-08-2008 07:13:07 16.3 C 12.49 g/m*3 16.3 C 0 km/h
120 04-08-2008 07:25:07 16.4 C 12.56 g/m*3 16.4 C 0 km/h
121 04-08-2008 07:37:07 16.5 C 12.64 g/m*3 16.5 C 0 km/h
122 04-08-2008 07:49:07 16.5 C 12.64 g/m*3 16.5 C 0 km/h
123 04-08-2008 08:01:07 17 C 12.73 g/m*3 17 C 0 km/h
124 04-08-2008 08:13:07 17.2 C 12.59 g/m*3 17.2 C 0 km/h
125 04-08-2008 08:25:07 17.4 C 12.6 g/m*3 17.4 C 0 km/h
Sensor: Nr:Datum:Temp:Abs-Feuchte:Windchill:Wind:
Aussen-T/F 126 04-08-2008 08:37:07 17.9 C 12.98 g/m*3 17.9 C 0 km/h
127 04-08-2008 08:49:07 18.1 C 12.98 g/m*3 18.1 C 0 km/h
128 04-08-2008 09:01:07 18 C 12.75 g/m*3 18 C 0 km/h
129 04-08-2008 09:13:07 17.9 C 12.67 g/m*3 17.9 C 0 km/h
130 04-08-2008 09:25:04 18.1 C 12.36 g/m*3 18.1 C 0 km/h
131 04-08-2008 09:37:04 18.6 C 12.73 g/m*3 18.6 C 0 km/h
132 04-08-2008 09:49:02 19.1 C 12.62 g/m*3 19.1 C 0 km/h
133 04-08-2008 10:01:02 19.1 C 11.8 g/m*3 19.1 C 0 km/h
134 04-08-2008 10:13:02 19 C 11.41 g/m*3 19 C 0 km/h
135 04-08-2008 10:25:01 19.4 C 11.85 g/m*3 19.4 C 0 km/h
136 04-08-2008 10:37:02 19.9 C 11.34 g/m*3 19.9 C 0 km/h
137 04-08-2008 10:49:02 20.4 C 10.08 g/m*3 20.4 C 0 km/h
138 04-08-2008 11:01:03 20.7 C 9.9 g/m*3 20.7 C 0 km/h
139 04-08-2008 11:13:03 20.8 C 9.42 g/m*3 20.8 C 0 km/h
140 04-08-2008 11:25:02 21.4 C 9.19 g/m*3 21.4 C 0 km/h
141 04-08-2008 11:37:02 21.8 C 9.4 g/m*3 21.8 C 0 km/h
142 04-08-2008 11:49:02 22 C 8.73 g/m*3 22 C 0 km/h
143 04-08-2008 12:01:02 22.6 C 8.84 g/m*3 22.6 C 0 km/h
144 04-08-2008 12:13:02 22.9 C 8.38 g/m*3 22.9 C 0 km/h
145 04-08-2008 12:25:02 23.7 C 7.91 g/m*3 23.7 C 0 km/h
146 04-08-2008 12:37:02 23.1 C 7.65 g/m*3 23.1 C 0 km/h
147 04-08-2008 12:49:02 23.4 C 7.57 g/m*3 23.4 C 0 km/h
148 04-08-2008 13:01:02 24.4 C 7.12 g/m*3 24.4 C 0 km/h
149 04-08-2008 13:13:02 24 C 6.74 g/m*3 24 C 0 km/h
150 04-08-2008 13:25:02 24 C 6.53 g/m*3 24 C 0 km/h
Sensor: Nr:Datum:Temp:Abs-Feuchte:Windchill:Wind:
Aussen-T/F 151 04-08-2008 13:37:02 24.5 C 6.94 g/m*3 24.5 C 0 km/h
152 04-08-2008 13:49:03 24.8 C 6.37 g/m*3 24.8 C 0 km/h
153 04-08-2008 14:01:03 25.7 C 6.46 g/m*3 25.7 C 0 km/h
154 04-08-2008 14:13:03 25.4 C 7.06 g/m*3 25.4 C 0 km/h
155 04-08-2008 14:25:03 24.8 C 7.97 g/m*3 24.8 C 0 km/h
156 04-08-2008 14:37:02 24.4 C 8.23 g/m*3 24.4 C 0 km/h
157 04-08-2008 14:49:02 25.3 C 7.26 g/m*3 25.3 C 0 km/h
158 04-08-2008 15:01:01 25.2 C 6.52 g/m*3 25.2 C 0 km/h
159 04-08-2008 15:13:01 24.7 C 6.34 g/m*3 24.7 C 0 km/h
160 04-08-2008 15:25:02 25.1 C 6.48 g/m*3 25.1 C 0 km/h
161 04-08-2008 15:37:01 25.9 C 6.29 g/m*3 25.9 C 0 km/h
162 04-08-2008 15:49:02 27.1 C 5.69 g/m*3 27.1 C 0 km/h
163 04-08-2008 16:01:02 26.2 C 5.66 g/m*3 26.2 C 0 km/h
164 04-08-2008 16:13:02 26.9 C 5.63 g/m*3 26.9 C 0 km/h
165 04-08-2008 16:25:02 26.8 C 5.6 g/m*3 26.8 C 0 km/h
166 04-08-2008 16:37:02 25.8 C 5.3 g/m*3 25.8 C 0 km/h
167 04-08-2008 16:49:03 26.3 C 6.19 g/m*3 26.3 C 0 km/h
168 04-08-2008 17:01:02 27.2 C 5.99 g/m*3 27.2 C 0 km/h
169 04-08-2008 17:13:02 26.3 C 6.19 g/m*3 26.3 C 0 km/h
170 04-08-2008 17:25:03 26.7 C 5.57 g/m*3 26.7 C 0 km/h
171 04-08-2008 17:37:02 26.2 C 5.42 g/m*3 26.2 C 0 km/h
172 04-08-2008 17:49:02 26.3 C 5.2 g/m*3 26.3 C 0 km/h
173 04-08-2008 18:01:02 26.5 C 5.51 g/m*3 26.5 C 0 km/h
174 04-08-2008 18:13:02 26.6 C 5.54 g/m*3 26.6 C 0 km/h
175 04-08-2008 18:25:02 25.9 C 5.57 g/m*3 25.9 C 0 km/h
Sensor: Nr:Datum:Temp:Abs-Feuchte:Windchill:Wind:
Aussen-T/F 176 04-08-2008 18:37:02 26.1 C 5.63 g/m*3 26.1 C 0 km/h
177 04-08-2008 18:49:01 25.7 C 5.99 g/m*3 25.7 C 0 km/h
178 04-08-2008 19:01:02 26 C 5.6 g/m*3 26 C 0 km/h
179 04-08-2008 19:13:02 25.9 C 6.29 g/m*3 25.9 C 0 km/h
180 04-08-2008 19:25:01 26.1 C 6.12 g/m*3 26.1 C 0 km/h
181 04-08-2008 19:37:02 26.1 C 5.88 g/m*3 26.1 C 0 km/h
182 04-08-2008 19:49:02 25.4 C 5.89 g/m*3 25.4 C 0 km/h
183 04-08-2008 20:01:02 24.5 C 5.82 g/m*3 24.5 C 0 km/h
184 04-08-2008 20:13:02 23.9 C 6.06 g/m*3 23.9 C 0 km/h
185 04-08-2008 20:25:02 23.4 C 6.1 g/m*3 23.4 C 0 km/h
186 04-08-2008 20:37:02 23.1 C 6.41 g/m*3 23.1 C 0 km/h
187 04-08-2008 20:49:02 22.5 C 6.99 g/m*3 22.5 C 0 km/h
188 04-08-2008 21:01:01 21.8 C 6.91 g/m*3 21.8 C 0 km/h
189 04-08-2008 21:13:01 21.5 C 7.17 g/m*3 21.5 C 0 km/h
190 04-08-2008 21:25:02 21 C 7.14 g/m*3 21 C 0 km/h
191 04-08-2008 21:37:01 20.6 C 7.16 g/m*3 20.6 C 0 km/h
192 04-08-2008 21:49:03 20.4 C 7.25 g/m*3 20.4 C 0 km/h
193 04-08-2008 22:01:02 20.3 C 7.39 g/m*3 20.3 C 0 km/h
194 04-08-2008 22:13:02 19.9 C 7.56 g/m*3 19.9 C 0 km/h
195 04-08-2008 22:25:03 19.5 C 7.55 g/m*3 19.5 C 0 km/h
196 04-08-2008 22:38:13 19.3 C 7.8 g/m*3 19.3 C 0 km/h
197 04-08-2008 22:50:13 19.2 C 7.75 g/m*3 19.2 C 0 km/h
198 04-08-2008 23:02:13 19.2 C 7.91 g/m*3 19.2 C 0 km/h
199 04-08-2008 23:14:13 19.3 C 7.8 g/m*3 19.3 C 0 km/h
200 04-08-2008 23:26:13 19.1 C 8.03 g/m*3 19.1 C 0 km/h
Sensor: Nr:Datum:Temp:Abs-Feuchte:Windchill:Wind:
Aussen-T/F 201 04-08-2008 23:38:13 18.9 C 8.1 g/m*3 18.9 C 0 km/h
202 04-08-2008 23:50:13 18.5 C 8.23 g/m*3 18.5 C 0 km/h
203 05-08-2008 00:02:13 18.4 C 8.18 g/m*3 18.4 C 0 km/h
204 05-08-2008 00:14:14 18.2 C 8.24 g/m*3 18.2 C 0 km/h
205 05-08-2008 00:26:14 18.1 C 8.34 g/m*3 18.1 C 0 km/h
206 05-08-2008 00:38:14 17.7 C 8.75 g/m*3 17.7 C 0 km/h
207 05-08-2008 00:50:14 17.4 C 8.6 g/m*3 17.4 C 0 km/h
208 05-08-2008 01:02:14 17.2 C 8.64 g/m*3 17.2 C 0 km/h
209 05-08-2008 01:14:14 16.8 C 8.86 g/m*3 16.8 C 0 km/h
210 05-08-2008 01:26:14 16.6 C 8.76 g/m*3 16.6 C 0 km/h
211 05-08-2008 01:38:14 16.4 C 8.93 g/m*3 16.4 C 0 km/h
212 05-08-2008 01:50:14 16.2 C 8.96 g/m*3 16.2 C 0 km/h
213 05-08-2008 02:02:14 16 C 8.99 g/m*3 16 C 0 km/h
214 05-08-2008 02:14:14 15.8 C 9.02 g/m*3 15.8 C 0 km/h
215 05-08-2008 02:26:14 15.6 C 8.91 g/m*3 15.6 C 0 km/h
216 05-08-2008 02:38:14 15.5 C 9.12 g/m*3 15.5 C 0 km/h
217 05-08-2008 02:50:14 15.4 C 8.8 g/m*3 15.4 C 0 km/h
218 05-08-2008 03:02:14 15.2 C 8.44 g/m*3 15.2 C 0 km/h
219 05-08-2008 03:14:14 15.3 C 8.62 g/m*3 15.3 C 0 km/h
220 05-08-2008 03:26:14 15.1 C 8.39 g/m*3 15.1 C 0 km/h
221 05-08-2008 03:38:14 15 C 8.59 g/m*3 15 C 0 km/h
222 05-08-2008 03:50:14 14.8 C 8.74 g/m*3 14.8 C 0 km/h
223 05-08-2008 04:02:14 14.7 C 8.56 g/m*3 14.7 C 0 km/h
224 05-08-2008 04:14:14 14.7 C 8.18 g/m*3 14.7 C 0 km/h
225 05-08-2008 04:26:15 14.5 C 8.58 g/m*3 14.5 C 0 km/h
Sensor: Nr:Datum:Temp:Abs-Feuchte:Windchill:Wind:
Aussen-T/F 226 05-08-2008 04:38:15 14.2 C 8.55 g/m*3 14.2 C 0 km/h
227 05-08-2008 04:50:15 14.2 C 8.43 g/m*3 14.2 C 0 km/h
228 05-08-2008 05:02:15 14.1 C 8.25 g/m*3 14.1 C 0 km/h
229 05-08-2008 05:14:15 14 C 8.32 g/m*3 14 C 0 km/h
230 05-08-2008 05:26:15 13.9 C 8.63 g/m*3 13.9 C 0 km/h
231 05-08-2008 05:38:15 13.7 C 8.64 g/m*3 13.7 C 0 km/h
232 05-08-2008 05:50:15 13.5 C 8.54 g/m*3 13.5 C 0 km/h
233 05-08-2008 06:02:15 13.5 C 8.54 g/m*3 13.5 C 0 km/h
234 05-08-2008 06:14:15 13.4 C 8.6 g/m*3 13.4 C 0 km/h
235 05-08-2008 06:26:15 13.4 C 8.6 g/m*3 13.4 C 0 km/h
236 05-08-2008 06:38:15 13.4 C 8.6 g/m*3 13.4 C 0 km/h
237 05-08-2008 06:50:15 13.5 C 8.66 g/m*3 13.5 C 0 km/h
238 05-08-2008 07:02:15 13.6 C 8.71 g/m*3 13.6 C 0 km/h
239 05-08-2008 07:14:15 13.7 C 8.76 g/m*3 13.7 C 0 km/h
240 05-08-2008 07:26:15 13.9 C 8.75 g/m*3 13.9 C 0 km/h
241 05-08-2008 07:38:15 14.2 C 8.67 g/m*3 14.2 C 0 km/h
242 05-08-2008 07:50:15 14.4 C 8.53 g/m*3 14.4 C 0 km/h
243 05-08-2008 08:02:15 14.6 C 8.63 g/m*3 14.6 C 0 km/h
244 05-08-2008 08:14:15 14.8 C 8.61 g/m*3 14.8 C 0 km/h
245 05-08-2008 08:26:15 15 C 8.46 g/m*3 15 C 0 km/h
246 05-08-2008 08:38:03 15.4 C 8.54 g/m*3 15.4 C 0 km/h
247 05-08-2008 08:50:03 15.6 C 8.38 g/m*3 15.6 C 0 km/h
248 05-08-2008 09:02:03 15.7 C 8.56 g/m*3 15.7 C 0 km/h
249 05-08-2008 09:14:03 16.1 C 8.5 g/m*3 16.1 C 0 km/h
250 05-08-2008 09:26:02 16.4 C 8.51 g/m*3 16.4 C 0 km/h
Sensor: Nr:Datum:Temp:Abs-Feuchte:Windchill:Wind:
Aussen-T/F 251 05-08-2008 09:38:02 16.8 C 8.58 g/m*3 16.8 C 0 km/h
252 05-08-2008 09:50:02 17.2 C 8.49 g/m*3 17.2 C 0 km/h
253 05-08-2008 10:02:03 17.9 C 8.7 g/m*3 17.9 C 0 km/h
254 05-08-2008 10:14:03 18 C 8.45 g/m*3 18 C 0 km/h
255 05-08-2008 10:26:02 18.4 C 8.49 g/m*3 18.4 C 0 km/h
256 05-08-2008 10:38:03 19.1 C 8.52 g/m*3 19.1 C 0 km/h
257 05-08-2008 10:50:03 19.8 C 8.37 g/m*3 19.8 C 0 km/h
258 05-08-2008 11:02:02 20.1 C 8.17 g/m*3 20.1 C 0 km/h
259 05-08-2008 11:14:03 20.5 C 8.19 g/m*3 20.5 C 0 km/h
260 05-08-2008 11:26:02 21.1 C 8.29 g/m*3 21.1 C 0 km/h
261 05-08-2008 11:38:03 22.7 C 7.88 g/m*3 22.7 C 0 km/h
262 05-08-2008 11:50:02 22.2 C 8.05 g/m*3 22.2 C 0 km/h
263 05-08-2008 12:02:02 22.7 C 8.28 g/m*3 22.7 C 0 km/h
264 05-08-2008 12:14:02 23.8 C 7.96 g/m*3 23.8 C 0 km/h
265 05-08-2008 12:26:02 24 C 7.83 g/m*3 24 C 0 km/h
266 05-08-2008 12:38:02 24.5 C 7.83 g/m*3 24.5 C 0 km/h
267 05-08-2008 12:50:01 24.3 C 7.52 g/m*3 24.3 C 0 km/h
268 05-08-2008 13:02:03 24.8 C 7.28 g/m*3 24.8 C 0 km/h
269 05-08-2008 13:14:03 24.6 C 7.2 g/m*3 24.6 C 0 km/h
270 05-08-2008 13:26:02 24.4 C 7.34 g/m*3 24.4 C 0 km/h
271 05-08-2008 13:38:02 25 C 7.37 g/m*3 25 C 0 km/h
272 05-08-2008 13:50:01 25.2 C 7.45 g/m*3 25.2 C 0 km/h
273 05-08-2008 14:02:02 25.9 C 7.51 g/m*3 25.9 C 0 km/h
274 05-08-2008 14:14:02 26.5 C 7.01 g/m*3 26.5 C 0 km/h
275 05-08-2008 14:26:02 26.9 C 6.65 g/m*3 26.9 C 0 km/h
Sensor: Nr:Datum:Temp:Abs-Feuchte:Windchill:Wind:
Aussen-T/F 276 05-08-2008 14:38:02 26.8 C 6.87 g/m*3 26.8 C 0 km/h
277 05-08-2008 14:50:01 27.5 C 6.61 g/m*3 27.5 C 0 km/h
278 05-08-2008 15:02:02 26.9 C 6.65 g/m*3 26.9 C 0 km/h
279 05-08-2008 15:14:02 26.7 C 6.58 g/m*3 26.7 C 0 km/h
280 05-08-2008 15:26:02 26.2 C 7.14 g/m*3 26.2 C 0 km/h
281 05-08-2008 15:38:01 25.8 C 7.22 g/m*3 25.8 C 0 km/h
282 05-08-2008 15:50:01 26.3 C 7.18 g/m*3 26.3 C 0 km/h
283 05-08-2008 16:02:02 26.6 C 7.05 g/m*3 26.6 C 0 km/h
284 05-08-2008 16:14:02 26.6 C 7.3 g/m*3 26.6 C 0 km/h
285 05-08-2008 16:26:01 27.6 C 7.18 g/m*3 27.6 C 0 km/h
286 05-08-2008 16:38:02 28.5 C 6.99 g/m*3 28.5 C 0 km/h
287 05-08-2008 16:50:02 28.6 C 7.03 g/m*3 28.6 C 0 km/h
288 05-08-2008 17:02:02 29.1 C 6.35 g/m*3 29.1 C 0 km/h
289 05-08-2008 17:14:02 29.6 C 6.53 g/m*3 29.6 C 0 km/h
290 05-08-2008 17:26:02 27.9 C 6.76 g/m*3 27.9 C 0 km/h
291 05-08-2008 17:38:02 27.2 C 6.77 g/m*3 27.2 C 0 km/h
292 05-08-2008 17:50:02 28.3 C 6.91 g/m*3 28.3 C 0 km/h
293 05-08-2008 18:02:02 28.8 C 6.53 g/m*3 28.8 C 0 km/h
294 05-08-2008 18:14:02 27.1 C 6.47 g/m*3 27.1 C 0 km/h
295 05-08-2008 18:26:02 26.7 C 7.59 g/m*3 26.7 C 0 km/h
296 05-08-2008 18:38:02 26.6 C 8.05 g/m*3 26.6 C 0 km/h
297 05-08-2008 18:50:02 26.2 C 7.88 g/m*3 26.2 C 0 km/h
298 05-08-2008 19:02:01 25.8 C 7.7 g/m*3 25.8 C 0 km/h
299 05-08-2008 19:14:01 25.9 C 7.99 g/m*3 25.9 C 0 km/h
300 05-08-2008 19:26:02 25.6 C 8.09 g/m*3 25.6 C 0 km/h
Sensor: Nr:Datum:Temp:Abs-Feuchte:Windchill:Wind:
Aussen-T/F 301 05-08-2008 19:38:01 25.1 C 8.33 g/m*3 25.1 C 0 km/h
302 05-08-2008 19:50:01 24.7 C 8.37 g/m*3 24.7 C 0 km/h
303 05-08-2008 20:02:02 24.7 C 8.37 g/m*3 24.7 C 0 km/h
304 05-08-2008 20:14:02 24.1 C 8.1 g/m*3 24.1 C 0 km/h
305 05-08-2008 20:26:02 23.5 C 8.25 g/m*3 23.5 C 0 km/h
306 05-08-2008 20:38:01 22.9 C 8.58 g/m*3 22.9 C 0 km/h
307 05-08-2008 20:50:02 22.4 C 8.34 g/m*3 22.4 C 0 km/h
308 05-08-2008 21:02:03 21.9 C 8.68 g/m*3 21.9 C 0 km/h
309 05-08-2008 21:14:03 21.5 C 8.67 g/m*3 21.5 C 0 km/h
310 05-08-2008 21:26:03 21.2 C 8.52 g/m*3 21.2 C 0 km/h
311 05-08-2008 21:38:02 21 C 8.43 g/m*3 21 C 0 km/h
312 05-08-2008 21:50:03 20.9 C 9.11 g/m*3 20.9 C 0 km/h
313 05-08-2008 22:02:02 21 C 8.98 g/m*3 21 C 0 km/h
314 05-08-2008 22:14:02 20.8 C 9.05 g/m*3 20.8 C 0 km/h
315 05-08-2008 22:26:03 20.6 C 9.13 g/m*3 20.6 C 0 km/h
316 05-08-2008 22:39:03 20.3 C 9.15 g/m*3 20.3 C 0 km/h
317 05-08-2008 22:51:03 20 C 8.81 g/m*3 20 C 0 km/h
318 05-08-2008 23:03:03 19.9 C 8.93 g/m*3 19.9 C 0 km/h
319 05-08-2008 23:15:03 19.5 C 8.89 g/m*3 19.5 C 0 km/h
320 05-08-2008 23:27:03 19.3 C 8.79 g/m*3 19.3 C 0 km/h
321 05-08-2008 23:39:03 19.2 C 9.07 g/m*3 19.2 C 0 km/h
322 05-08-2008 23:51:03 18.9 C 9.23 g/m*3 18.9 C 0 km/h
323 06-08-2008 00:03:04 18.9 C 9.23 g/m*3 18.9 C 0 km/h
324 06-08-2008 00:15:04 18.7 C 9.13 g/m*3 18.7 C 0 km/h
325 06-08-2008 00:27:04 18.7 C 9.29 g/m*3 18.7 C 0 km/h
Sensor: Nr:Datum:Temp:Abs-Feuchte:Windchill:Wind:
Aussen-T/F 326 06-08-2008 00:39:04 18.6 C 9.39 g/m*3 18.6 C 0 km/h
327 06-08-2008 00:51:04 18.4 C 9.28 g/m*3 18.4 C 0 km/h
328 06-08-2008 01:03:04 18.3 C 9.22 g/m*3 18.3 C 0 km/h
329 06-08-2008 01:15:04 18.1 C 9.43 g/m*3 18.1 C 0 km/h
330 06-08-2008 01:27:04 17.9 C 9.47 g/m*3 17.9 C 0 km/h
331 06-08-2008 01:39:04 17.9 C 9.62 g/m*3 17.9 C 0 km/h
332 06-08-2008 01:51:04 17.7 C 9.66 g/m*3 17.7 C 0 km/h
333 06-08-2008 02:03:04 17.6 C 9.6 g/m*3 17.6 C 0 km/h
334 06-08-2008 02:15:04 17.5 C 9.54 g/m*3 17.5 C 0 km/h
335 06-08-2008 02:27:04 17.4 C 9.48 g/m*3 17.4 C 0 km/h
336 06-08-2008 02:39:04 17.5 C 9.69 g/m*3 17.5 C 0 km/h
337 06-08-2008 02:51:04 17.6 C 9.6 g/m*3 17.6 C 0 km/h
338 06-08-2008 03:03:04 17.4 C 9.63 g/m*3 17.4 C 0 km/h
339 06-08-2008 03:15:04 17 C 9.41 g/m*3 17 C 0 km/h
340 06-08-2008 03:27:04 16.8 C 9.72 g/m*3 16.8 C 0 km/h
341 06-08-2008 03:39:04 16.7 C 9.81 g/m*3 16.7 C 0 km/h
342 06-08-2008 03:51:05 16.6 C 9.75 g/m*3 16.6 C 0 km/h
343 06-08-2008 04:03:05 16.6 C 9.75 g/m*3 16.6 C 0 km/h
344 06-08-2008 04:15:05 16.6 C 9.75 g/m*3 16.6 C 0 km/h
345 06-08-2008 04:27:05 16.4 C 9.77 g/m*3 16.4 C 0 km/h
346 06-08-2008 04:39:05 16.2 C 9.79 g/m*3 16.2 C 0 km/h
347 06-08-2008 04:51:05 16 C 9.81 g/m*3 16 C 0 km/h
348 06-08-2008 05:03:05 15.9 C 9.89 g/m*3 15.9 C 0 km/h
349 06-08-2008 05:15:05 15.7 C 9.77 g/m*3 15.7 C 0 km/h
350 06-08-2008 05:27:05 15.6 C 9.84 g/m*3 15.6 C 0 km/h
Sensor: Nr:Datum:Temp:Abs-Feuchte:Windchill:Wind:
Aussen-T/F 351 06-08-2008 05:39:05 15.4 C 9.72 g/m*3 15.4 C 0 km/h
352 06-08-2008 05:51:05 15.3 C 9.79 g/m*3 15.3 C 0 km/h
353 06-08-2008 06:03:05 15.2 C 9.73 g/m*3 15.2 C 0 km/h
354 06-08-2008 06:15:05 15.2 C 9.99 g/m*3 15.2 C 0 km/h
355 06-08-2008 06:27:05 15.1 C 9.93 g/m*3 15.1 C 0 km/h
356 06-08-2008 06:39:05 14.9 C 9.94 g/m*3 14.9 C 0 km/h
357 06-08-2008 06:51:02 14.9 C 9.94 g/m*3 14.9 C 0 km/h
358 06-08-2008 07:03:01 15.2 C 10.12 g/m*3 15.2 C 0 km/h
359 06-08-2008 07:15:02 15.3 C 10.19 g/m*3 15.3 C 0 km/h
360 06-08-2008 07:27:02 15.5 C 10.31 g/m*3 15.5 C 0 km/h
361 06-08-2008 07:39:01 15.6 C 10.24 g/m*3 15.6 C 0 km/h
362 06-08-2008 07:51:02 15.8 C 10.36 g/m*3 15.8 C 0 km/h
363 06-08-2008 08:03:01 15.9 C 10.29 g/m*3 15.9 C 0 km/h
364 06-08-2008 08:15:02 16.2 C 10.34 g/m*3 16.2 C 0 km/h
365 06-08-2008 08:27:02 16.4 C 10.33 g/m*3 16.4 C 0 km/h
366 06-08-2008 08:39:01 16.6 C 10.45 g/m*3 16.6 C 0 km/h
367 06-08-2008 08:51:01 16.9 C 10.36 g/m*3 16.9 C 0 km/h
368 06-08-2008 09:03:01 17.3 C 10.16 g/m*3 17.3 C 0 km/h
369 06-08-2008 09:15:02 17.8 C 10.47 g/m*3 17.8 C 0 km/h
370 06-08-2008 09:27:02 18.3 C 10.32 g/m*3 18.3 C 0 km/h
371 06-08-2008 09:39:01 18.9 C 10.69 g/m*3 18.9 C 0 km/h
372 06-08-2008 09:51:01 19.3 C 10.62 g/m*3 19.3 C 0 km/h
373 06-08-2008 10:03:01 20 C 10.54 g/m*3 20 C 0 km/h
374 06-08-2008 10:15:01 20.9 C 10.56 g/m*3 20.9 C 0 km/h
375 06-08-2008 10:27:01 21.7 C 10.11 g/m*3 21.7 C 0 km/h
Sensor: Nr:Datum:Temp:Abs-Feuchte:Windchill:Wind:
Aussen-T/F 376 06-08-2008 10:39:01 22.2 C 10.01 g/m*3 22.2 C 0 km/h
377 06-08-2008 10:51:01 23.2 C 9.98 g/m*3 23.2 C 0 km/h
378 06-08-2008 11:03:02 23.7 C 10.27 g/m*3 23.7 C 0 km/h
379 06-08-2008 11:15:01 24.3 C 9.52 g/m*3 24.3 C 0 km/h
380 06-08-2008 11:27:01 25.1 C 9.26 g/m*3 25.1 C 0 km/h
381 06-08-2008 11:39:02 25.8 C 9.39 g/m*3 25.8 C 0 km/h
382 06-08-2008 11:51:02 26.1 C 9.06 g/m*3 26.1 C 0 km/h
383 06-08-2008 12:03:02 26.9 C 9.47 g/m*3 26.9 C 0 km/h
384 06-08-2008 12:15:01 27.1 C 8.8 g/m*3 27.1 C 0 km/h
385 06-08-2008 12:27:01 27.6 C 9.04 g/m*3 27.6 C 0 km/h
386 06-08-2008 12:39:02 28.1 C 8.75 g/m*3 28.1 C 0 km/h
387 06-08-2008 12:51:02 27.8 C 8.61 g/m*3 27.8 C 0 km/h
388 06-08-2008 13:03:02 28.9 C 8.86 g/m*3 28.9 C 0 km/h
389 06-08-2008 13:15:02 30 C 8.19 g/m*3 30 C 0 km/h
390 06-08-2008 13:27:02 30.6 C 8.14 g/m*3 30.6 C 0 km/h
391 06-08-2008 13:39:02 30.6 C 7.83 g/m*3 30.6 C 0 km/h
392 06-08-2008 13:51:02 30.9 C 7.96 g/m*3 30.9 C 0 km/h
393 06-08-2008 14:03:01 31 C 8 g/m*3 31 C 0 km/h
394 06-08-2008 14:15:02 31.1 C 8.04 g/m*3 31.1 C 0 km/h
395 06-08-2008 14:27:02 30.7 C 8.5 g/m*3 30.7 C 0 km/h
396 06-08-2008 14:39:02 31.3 C 7.81 g/m*3 31.3 C 0 km/h
397 06-08-2008 14:51:02 31.5 C 7.56 g/m*3 31.5 C 0 km/h
398 06-08-2008 15:03:02 32.1 C 7.47 g/m*3 32.1 C 0 km/h
399 06-08-2008 15:15:02 32.3 C 6.86 g/m*3 32.3 C 0 km/h
400 06-08-2008 15:27:03 32 C 7.09 g/m*3 32 C 0 km/h
Sensor: Nr:Datum:Temp:Abs-Feuchte:Windchill:Wind:
Aussen-T/F 401 06-08-2008 15:39:02 32.5 C 6.93 g/m*3 32.5 C 0 km/h
402 06-08-2008 15:51:02 32.7 C 7.01 g/m*3 32.7 C 0 km/h
403 06-08-2008 16:03:02 33 C 7.12 g/m*3 33 C 0 km/h
404 06-08-2008 16:15:02 33.2 C 7.2 g/m*3 33.2 C 0 km/h
405 06-08-2008 16:27:02 33.5 C 7.31 g/m*3 33.5 C 0 km/h
406 06-08-2008 16:39:02 33.6 C 7.35 g/m*3 33.6 C 0 km/h
407 06-08-2008 16:51:02 33.7 C 7.39 g/m*3 33.7 C 0 km/h
408 06-08-2008 17:03:02 33.9 C 7.46 g/m*3 33.9 C 0 km/h
409 06-08-2008 17:15:02 33.9 C 7.46 g/m*3 33.9 C 0 km/h
410 06-08-2008 17:27:02 33.6 C 7.35 g/m*3 33.6 C 0 km/h
411 06-08-2008 17:39:02 33.7 C 7.39 g/m*3 33.7 C 0 km/h
412 06-08-2008 17:51:02 33.8 C 7.43 g/m*3 33.8 C 0 km/h
413 06-08-2008 18:03:02 34 C 7.5 g/m*3 34 C 0 km/h
414 06-08-2008 18:15:02 34.2 C 7.58 g/m*3 34.2 C 0 km/h
415 06-08-2008 18:27:02 33.9 C 7.46 g/m*3 33.9 C 0 km/h
416 06-08-2008 18:39:02 34 C 7.5 g/m*3 34 C 0 km/h
417 06-08-2008 18:51:02 33.9 C 7.46 g/m*3 33.9 C 0 km/h
418 06-08-2008 19:03:01 33.9 C 7.46 g/m*3 33.9 C 0 km/h
419 06-08-2008 19:15:02 33.3 C 7.23 g/m*3 33.3 C 0 km/h
420 06-08-2008 19:27:02 33.3 C 7.59 g/m*3 33.3 C 0 km/h
421 06-08-2008 19:39:02 32.7 C 7.36 g/m*3 32.7 C 0 km/h
422 06-08-2008 19:51:02 31.6 C 8.59 g/m*3 31.6 C 0 km/h
423 06-08-2008 20:03:02 30.6 C 9.4 g/m*3 30.6 C 0 km/h
424 06-08-2008 20:15:02 30.1 C 9.45 g/m*3 30.1 C 0 km/h
425 06-08-2008 20:27:03 29.5 C 9.44 g/m*3 29.5 C 0 km/h
Sensor: Nr:Datum:Temp:Abs-Feuchte:Windchill:Wind:
Aussen-T/F 426 06-08-2008 20:39:02 28.9 C 9.43 g/m*3 28.9 C 0 km/h
427 06-08-2008 20:51:02 28.4 C 9.45 g/m*3 28.4 C 0 km/h
428 06-08-2008 21:03:02 27.8 C 9.15 g/m*3 27.8 C 0 km/h
429 06-08-2008 21:15:03 27.3 C 9.16 g/m*3 27.3 C 0 km/h
430 06-08-2008 21:27:03 27 C 9.01 g/m*3 27 C 0 km/h
431 06-08-2008 21:39:02 26.7 C 9.11 g/m*3 26.7 C 0 km/h
432 06-08-2008 21:51:01 26.6 C 9.31 g/m*3 26.6 C 0 km/h
433 06-08-2008 22:03:01 26.6 C 9.06 g/m*3 26.6 C 0 km/h
434 06-08-2008 22:15:01 26.4 C 9.21 g/m*3 26.4 C 0 km/h
435 06-08-2008 22:27:01 26 C 9.49 g/m*3 26 C 0 km/h
436 06-08-2008 22:40:02 25.8 C 9.39 g/m*3 25.8 C 0 km/h
437 06-08-2008 22:52:02 25.6 C 9.28 g/m*3 25.6 C 0 km/h
438 06-08-2008 23:04:02 25.1 C 9.26 g/m*3 25.1 C 0 km/h
439 06-08-2008 23:16:02 24.8 C 9.79 g/m*3 24.8 C 0 km/h
440 06-08-2008 23:28:02 24.5 C 10.07 g/m*3 24.5 C 0 km/h
441 06-08-2008 23:40:02 24.1 C 9.85 g/m*3 24.1 C 0 km/h
442 06-08-2008 23:52:02 24 C 10.01 g/m*3 24 C 0 km/h
443 07-08-2008 00:04:02 23.7 C 9.84 g/m*3 23.7 C 0 km/h
444 07-08-2008 00:16:02 23.6 C 10.21 g/m*3 23.6 C 0 km/h
445 07-08-2008 00:28:02 23.3 C 10.25 g/m*3 23.3 C 0 km/h
446 07-08-2008 00:40:02 23 C 10.28 g/m*3 23 C 0 km/h
447 07-08-2008 00:52:02 22.7 C 10.51 g/m*3 22.7 C 0 km/h
448 07-08-2008 01:04:02 22.5 C 10.59 g/m*3 22.5 C 0 km/h
449 07-08-2008 01:16:02 22.3 C 10.66 g/m*3 22.3 C 0 km/h
450 07-08-2008 01:28:02 22.1 C 10.74 g/m*3 22.1 C 0 km/h
Sensor: Nr:Datum:Temp:Abs-Feuchte:Windchill:Wind:
Aussen-T/F 451 07-08-2008 01:40:02 21.9 C 11 g/m*3 21.9 C 0 km/h
452 07-08-2008 01:52:03 21.7 C 11.06 g/m*3 21.7 C 0 km/h
453 07-08-2008 02:04:03 21.4 C 11.06 g/m*3 21.4 C 0 km/h
454 07-08-2008 02:16:03 21.3 C 11 g/m*3 21.3 C 0 km/h
455 07-08-2008 02:28:03 21.1 C 11.06 g/m*3 21.1 C 0 km/h
456 07-08-2008 02:40:03 20.9 C 11.29 g/m*3 20.9 C 0 km/h
457 07-08-2008 02:52:03 20.7 C 11.34 g/m*3 20.7 C 0 km/h
458 07-08-2008 03:04:03 20.6 C 11.28 g/m*3 20.6 C 0 km/h
459 07-08-2008 03:16:03 20.4 C 11.14 g/m*3 20.4 C 0 km/h
460 07-08-2008 03:28:03 20.3 C 11.26 g/m*3 20.3 C 0 km/h
461 07-08-2008 03:40:03 20.3 C 11.26 g/m*3 20.3 C 0 km/h
462 07-08-2008 03:52:03 20.2 C 11.19 g/m*3 20.2 C 0 km/h
463 07-08-2008 04:04:03 19.9 C 11.34 g/m*3 19.9 C 0 km/h
464 07-08-2008 04:16:03 19.7 C 11.38 g/m*3 19.7 C 0 km/h
465 07-08-2008 04:28:03 19.6 C 11.31 g/m*3 19.6 C 0 km/h
466 07-08-2008 04:40:03 19.4 C 11.35 g/m*3 19.4 C 0 km/h
467 07-08-2008 04:52:03 19.3 C 11.44 g/m*3 19.3 C 0 km/h
468 07-08-2008 05:04:03 19.3 C 11.44 g/m*3 19.3 C 0 km/h
469 07-08-2008 05:16:03 19.1 C 11.47 g/m*3 19.1 C 0 km/h
470 07-08-2008 05:28:03 18.8 C 11.6 g/m*3 18.8 C 0 km/h
471 07-08-2008 05:40:03 18.8 C 11.6 g/m*3 18.8 C 0 km/h
472 07-08-2008 05:52:04 18.6 C 11.62 g/m*3 18.6 C 0 km/h
473 07-08-2008 06:04:04 18.6 C 11.62 g/m*3 18.6 C 0 km/h
474 07-08-2008 06:16:04 18.5 C 11.71 g/m*3 18.5 C 0 km/h
475 07-08-2008 06:28:04 18.4 C 11.64 g/m*3 18.4 C 0 km/h
Sensor: Nr:Datum:Temp:Abs-Feuchte:Windchill:Wind:
Aussen-T/F 476 07-08-2008 06:40:04 18.3 C 11.57 g/m*3 18.3 C 0 km/h
477 07-08-2008 06:52:04 18.5 C 11.87 g/m*3 18.5 C 0 km/h
478 07-08-2008 07:04:03 18.7 C 12.01 g/m*3 18.7 C 0 km/h
479 07-08-2008 07:16:02 18.8 C 11.92 g/m*3 18.8 C 0 km/h
480 07-08-2008 07:28:02 18.6 C 11.94 g/m*3 18.6 C 0 km/h
481 07-08-2008 07:40:02 18.8 C 12.08 g/m*3 18.8 C 0 km/h
482 07-08-2008 07:52:02 19.1 C 11.97 g/m*3 19.1 C 0 km/h
483 07-08-2008 08:04:02 19.2 C 12.04 g/m*3 19.2 C 0 km/h
484 07-08-2008 08:16:02 19.6 C 12.15 g/m*3 19.6 C 0 km/h
485 07-08-2008 08:28:02 19.9 C 12.2 g/m*3 19.9 C 0 km/h
486 07-08-2008 08:40:02 20.3 C 12.14 g/m*3 20.3 C 0 km/h
487 07-08-2008 08:52:02 20.9 C 12.38 g/m*3 20.9 C 0 km/h
488 07-08-2008 09:04:02 21.6 C 12.52 g/m*3 21.6 C 0 km/h
489 07-08-2008 09:16:02 22.5 C 12.58 g/m*3 22.5 C 0 km/h
490 07-08-2008 09:28:02 23 C 12.33 g/m*3 23 C 0 km/h
491 07-08-2008 09:40:02 23.7 C 12.62 g/m*3 23.7 C 0 km/h
492 07-08-2008 09:52:03 24.2 C 12.54 g/m*3 24.2 C 0 km/h
493 07-08-2008 10:04:02 24.7 C 12.22 g/m*3 24.7 C 0 km/h
494 07-08-2008 10:16:02 25.3 C 11.47 g/m*3 25.3 C 0 km/h
495 07-08-2008 10:28:02 26.2 C 11.32 g/m*3 26.2 C 0 km/h
496 07-08-2008 10:40:02 26.8 C 11.45 g/m*3 26.8 C 0 km/h
497 07-08-2008 10:52:02 27.2 C 11.19 g/m*3 27.2 C 0 km/h
498 07-08-2008 11:04:02 27.4 C 11.31 g/m*3 27.4 C 0 km/h
499 07-08-2008 11:16:02 28 C 11.42 g/m*3 28 C 0 km/h
500 07-08-2008 11:28:02 28.3 C 11.06 g/m*3 28.3 C 0 km/h
Sensor: Nr:Datum:Temp:Abs-Feuchte:Windchill:Wind:
Aussen-T/F 501 07-08-2008 11:40:02 28.3 C 11.33 g/m*3 28.3 C 0 km/h
502 07-08-2008 11:52:02 28.7 C 10.74 g/m*3 28.7 C 0 km/h
503 07-08-2008 12:04:02 29.1 C 10.69 g/m*3 29.1 C 0 km/h
504 07-08-2008 12:16:02 29.1 C 10.69 g/m*3 29.1 C 0 km/h
505 07-08-2008 12:28:02 28.7 C 10.74 g/m*3 28.7 C 0 km/h
506 07-08-2008 12:40:02 29.3 C 10.51 g/m*3 29.3 C 0 km/h
507 07-08-2008 12:52:02 29.9 C 10.56 g/m*3 29.9 C 0 km/h
508 07-08-2008 13:04:02 30.4 C 10.54 g/m*3 30.4 C 0 km/h
509 07-08-2008 13:16:02 30.6 C 10.02 g/m*3 30.6 C 0 km/h
510 07-08-2008 13:28:02 30.4 C 10.23 g/m*3 30.4 C 0 km/h
511 07-08-2008 13:40:02 29.6 C 10.09 g/m*3 29.6 C 0 km/h
512 07-08-2008 13:52:01 29.8 C 10.5 g/m*3 29.8 C 0 km/h
513 07-08-2008 14:04:02 29.4 C 10.57 g/m*3 29.4 C 0 km/h
514 07-08-2008 14:16:01 29.8 C 10.5 g/m*3 29.8 C 0 km/h
515 07-08-2008 14:28:01 28.8 C 10.51 g/m*3 28.8 C 0 km/h
516 07-08-2008 14:40:02 28.1 C 10.39 g/m*3 28.1 C 0 km/h
517 07-08-2008 14:52:02 28.4 C 10.56 g/m*3 28.4 C 0 km/h
518 07-08-2008 15:04:02 28 C 10.33 g/m*3 28 C 0 km/h
519 07-08-2008 15:16:02 28.2 C 10.72 g/m*3 28.2 C 0 km/h
520 07-08-2008 15:28:02 28.5 C 10.34 g/m*3 28.5 C 0 km/h
521 07-08-2008 15:40:02 29.2 C 9.87 g/m*3 29.2 C 0 km/h
522 07-08-2008 15:52:01 29.1 C 9.24 g/m*3 29.1 C 0 km/h
523 07-08-2008 16:04:02 29.3 C 9.63 g/m*3 29.3 C 0 km/h
524 07-08-2008 16:16:01 28.7 C 9.89 g/m*3 28.7 C 0 km/h
525 07-08-2008 16:28:01 29.3 C 9.63 g/m*3 29.3 C 0 km/h
Sensor: Nr:Datum:Temp:Abs-Feuchte:Windchill:Wind:
Aussen-T/F 526 07-08-2008 16:40:02 29.4 C 9.39 g/m*3 29.4 C 0 km/h
527 07-08-2008 16:52:02 30.4 C 9.3 g/m*3 30.4 C 0 km/h
528 07-08-2008 17:04:01 30.7 C 9.13 g/m*3 30.7 C 0 km/h
529 07-08-2008 17:16:02 30.1 C 8.84 g/m*3 30.1 C 0 km/h
530 07-08-2008 17:28:02 29.4 C 8.81 g/m*3 29.4 C 0 km/h
531 07-08-2008 17:40:01 29.4 C 8.81 g/m*3 29.4 C 0 km/h
532 07-08-2008 17:52:02 28.7 C 8.48 g/m*3 28.7 C 0 km/h
533 07-08-2008 18:04:01 30.1 C 8.54 g/m*3 30.1 C 0 km/h
534 07-08-2008 18:16:02 29.9 C 8.14 g/m*3 29.9 C 0 km/h
535 07-08-2008 18:28:03 28.8 C 8.52 g/m*3 28.8 C 0 km/h
536 07-08-2008 18:40:01 28.6 C 8.71 g/m*3 28.6 C 0 km/h
537 07-08-2008 18:52:02 28.5 C 8.66 g/m*3 28.5 C 0 km/h
538 07-08-2008 19:04:01 28.3 C 8.57 g/m*3 28.3 C 0 km/h
539 07-08-2008 19:16:02 27.7 C 8.56 g/m*3 27.7 C 0 km/h
540 07-08-2008 19:28:02 27.1 C 8.54 g/m*3 27.1 C 0 km/h
541 07-08-2008 19:40:01 26.9 C 8.96 g/m*3 26.9 C 0 km/h
542 07-08-2008 19:52:02 26.6 C 9.06 g/m*3 26.6 C 0 km/h
543 07-08-2008 20:04:02 26.7 C 9.11 g/m*3 26.7 C 0 km/h
544 07-08-2008 20:16:02 27.2 C 8.85 g/m*3 27.2 C 0 km/h
545 07-08-2008 20:28:02 26.1 C 8.81 g/m*3 26.1 C 0 km/h
546 07-08-2008 20:40:02 25.4 C 8.71 g/m*3 25.4 C 0 km/h
547 07-08-2008 20:52:02 24.8 C 8.42 g/m*3 24.8 C 0 km/h
548 07-08-2008 21:04:02 24.6 C 8.33 g/m*3 24.6 C 0 km/h
549 07-08-2008 21:16:02 24.3 C 8.41 g/m*3 24.3 C 0 km/h
550 07-08-2008 21:28:02 24 C 8.49 g/m*3 24 C 0 km/h
Sensor: Nr:Datum:Temp:Abs-Feuchte:Windchill:Wind:
Aussen-T/F 551 07-08-2008 21:40:02 23.7 C 8.77 g/m*3 23.7 C 0 km/h
552 07-08-2008 21:52:02 23.4 C 8.83 g/m*3 23.4 C 0 km/h
553 07-08-2008 22:04:02 23.3 C 8.78 g/m*3 23.3 C 0 km/h
554 07-08-2008 22:17:02 23.3 C 8.57 g/m*3 23.3 C 0 km/h
555 07-08-2008 22:29:02 23.1 C 8.27 g/m*3 23.1 C 0 km/h
556 07-08-2008 22:41:02 23 C 8.43 g/m*3 23 C 0 km/h
557 07-08-2008 22:53:02 20.4 C 10.79 g/m*3 20.4 C 0 km/h
558 07-08-2008 23:05:02 19.2 C 12.7 g/m*3 19.2 C 0 km/h
559 07-08-2008 23:17:02 18.5 C 12.82 g/m*3 18.5 C 0 km/h
560 07-08-2008 23:29:01 17.9 C 12.67 g/m*3 17.9 C 0 km/h
561 07-08-2008 23:41:01 17.8 C 12.9 g/m*3 17.8 C 0 km/h
562 07-08-2008 23:53:02 17.9 C 12.98 g/m*3 17.9 C 0 km/h
563 08-08-2008 00:05:02 18.2 C 13.06 g/m*3 18.2 C 0 km/h
564 08-08-2008 00:17:02 18.2 C 12.9 g/m*3 18.2 C 0 km/h
565 08-08-2008 00:29:02 17.9 C 12.67 g/m*3 17.9 C 0 km/h
566 08-08-2008 00:41:02 17.8 C 12.6 g/m*3 17.8 C 0 km/h
567 08-08-2008 00:53:03 17.7 C 12.52 g/m*3 17.7 C 0 km/h
568 08-08-2008 01:05:03 17.6 C 12.45 g/m*3 17.6 C 0 km/h
569 08-08-2008 01:17:03 17.6 C 12.45 g/m*3 17.6 C 0 km/h
570 08-08-2008 01:41:03 17.7 C 12.37 g/m*3 17.7 C 0 km/h
571 08-08-2008 01:53:03 17.7 C 12.37 g/m*3 17.7 C 0 km/h
572 08-08-2008 02:05:03 17.7 C 12.22 g/m*3 17.7 C 0 km/h
573 08-08-2008 02:29:03 17.8 C 12.45 g/m*3 17.8 C 0 km/h
574 08-08-2008 02:41:04 17.7 C 12.37 g/m*3 17.7 C 0 km/h
575 08-08-2008 02:53:04 17.7 C 12.37 g/m*3 17.7 C 0 km/h
Sensor: Nr:Datum:Temp:Abs-Feuchte:Windchill:Wind:
Aussen-T/F 576 08-08-2008 03:05:34 17.6 C 12.3 g/m*3 17.6 C 0 km/h
577 08-08-2008 03:17:34 17.7 C 12.37 g/m*3 17.7 C 0 km/h
578 08-08-2008 03:29:34 17.7 C 12.37 g/m*3 17.7 C 0 km/h
579 08-08-2008 03:41:04 17.7 C 12.37 g/m*3 17.7 C 0 km/h
580 08-08-2008 03:53:05 17.8 C 12.29 g/m*3 17.8 C 0 km/h
581 08-08-2008 04:05:05 18.1 C 12.05 g/m*3 18.1 C 0 km/h
582 08-08-2008 04:17:35 18 C 11.83 g/m*3 18 C 0 km/h
583 08-08-2008 04:29:35 17.9 C 11.76 g/m*3 17.9 C 0 km/h
584 08-08-2008 04:41:02 17.9 C 11.6 g/m*3 17.9 C 0 km/h
585 08-08-2008 04:53:02 17.7 C 11.47 g/m*3 17.7 C 0 km/h
586 08-08-2008 05:05:02 17.7 C 11.47 g/m*3 17.7 C 0 km/h
587 08-08-2008 05:17:02 17.7 C 11.47 g/m*3 17.7 C 0 km/h
588 08-08-2008 05:29:01 17.6 C 11.55 g/m*3 17.6 C 0 km/h
589 08-08-2008 05:41:01 17.7 C 11.47 g/m*3 17.7 C 0 km/h
590 08-08-2008 05:53:02 17.7 C 11.32 g/m*3 17.7 C 0 km/h
591 08-08-2008 06:05:02 17.6 C 11.25 g/m*3 17.6 C 0 km/h
592 08-08-2008 06:17:02 17.7 C 11.16 g/m*3 17.7 C 0 km/h
593 08-08-2008 06:29:02 17.8 C 11.23 g/m*3 17.8 C 0 km/h
594 08-08-2008 06:41:02 17.7 C 11.47 g/m*3 17.7 C 0 km/h
595 08-08-2008 06:53:33 17.1 C 11.65 g/m*3 17.1 C 0 km/h
596 08-08-2008 07:05:33 17.2 C 11.72 g/m*3 17.2 C 0 km/h
597 08-08-2008 07:17:33 17.7 C 11.62 g/m*3 17.7 C 0 km/h
598 08-08-2008 07:29:33 18 C 11.21 g/m*3 18 C 0 km/h
599 08-08-2008 07:41:33 17.7 C 11.16 g/m*3 17.7 C 0 km/h
600 08-08-2008 07:53:33 16.6 C 11.72 g/m*3 16.6 C 0 km/h
Sensor: Nr:Datum:Temp:Abs-Feuchte:Windchill:Wind:
Aussen-T/F 601 08-08-2008 08:17:34 16.3 C 11.93 g/m*3 16.3 C 0 km/h
602 08-08-2008 08:29:34 16.6 C 12.29 g/m*3 16.6 C 0 km/h
603 08-08-2008 08:41:34 16.9 C 12.37 g/m*3 16.9 C 0 km/h
604 08-08-2008 09:05:34 17 C 11.72 g/m*3 17 C 0 km/h
605 08-08-2008 09:17:34 17 C 11.87 g/m*3 17 C 0 km/h
606 08-08-2008 09:29:34 16.8 C 11.87 g/m*3 16.8 C 0 km/h
607 08-08-2008 09:41:03 17.2 C 12.15 g/m*3 17.2 C 0 km/h
608 08-08-2008 09:53:03 17.5 C 12.08 g/m*3 17.5 C 0 km/h
609 08-08-2008 10:05:03 17.7 C 11.92 g/m*3 17.7 C 0 km/h
610 08-08-2008 10:17:02 17.7 C 11.62 g/m*3 17.7 C 0 km/h
611 08-08-2008 10:29:02 17.8 C 11.84 g/m*3 17.8 C 0 km/h
612 08-08-2008 10:41:02 18.2 C 11.81 g/m*3 18.2 C 0 km/h
613 08-08-2008 10:53:02 18.5 C 11.55 g/m*3 18.5 C 0 km/h
614 08-08-2008 11:05:02 18.8 C 11.76 g/m*3 18.8 C 0 km/h
615 08-08-2008 11:17:03 19.4 C 11.85 g/m*3 19.4 C 0 km/h
616 08-08-2008 11:29:03 20.3 C 11.78 g/m*3 20.3 C 0 km/h
617 08-08-2008 11:41:02 20.9 C 11.47 g/m*3 20.9 C 0 km/h
618 08-08-2008 11:53:02 21.9 C 11 g/m*3 21.9 C 0 km/h
619 08-08-2008 12:05:02 21.7 C 10.68 g/m*3 21.7 C 0 km/h
620 08-08-2008 12:17:03 21.4 C 10.87 g/m*3 21.4 C 0 km/h
621 08-08-2008 12:29:03 21.7 C 11.06 g/m*3 21.7 C 0 km/h
622 08-08-2008 12:41:02 16.9 C 10.64 g/m*3 16.9 C 0 km/h
623 08-08-2008 12:53:02 16 C 11.44 g/m*3 16 C 0 km/h
624 08-08-2008 13:05:02 17.8 C 13.2 g/m*3 17.8 C 0 km/h
625 08-08-2008 13:17:02 19.2 C 13.85 g/m*3 19.2 C 0 km/h
Sensor: Nr:Datum:Temp:Abs-Feuchte:Windchill:Wind:
Aussen-T/F 626 08-08-2008 13:29:02 20.9 C 13.11 g/m*3 20.9 C 0 km/h
627 08-08-2008 13:41:02 21.8 C 12.28 g/m*3 21.8 C 0 km/h
628 08-08-2008 13:53:01 20.8 C 13.04 g/m*3 20.8 C 0 km/h
629 08-08-2008 14:05:02 20.4 C 13.27 g/m*3 20.4 C 0 km/h
630 08-08-2008 14:17:02 20.3 C 14.07 g/m*3 20.3 C 0 km/h
631 08-08-2008 14:29:02 21.1 C 13.82 g/m*3 21.1 C 0 km/h
632 08-08-2008 14:41:02 22 C 13.78 g/m*3 22 C 0 km/h
633 08-08-2008 14:53:02 22.7 C 12.73 g/m*3 22.7 C 0 km/h
634 08-08-2008 15:05:02 21.7 C 12.02 g/m*3 21.7 C 0 km/h
635 08-08-2008 15:17:02 19.2 C 11.71 g/m*3 19.2 C 0 km/h
636 08-08-2008 15:29:03 20 C 12.96 g/m*3 20 C 0 km/h
637 08-08-2008 15:41:03 21.9 C 11.77 g/m*3 21.9 C 0 km/h
638 08-08-2008 15:53:03 22.1 C 11.52 g/m*3 22.1 C 0 km/h
639 08-08-2008 16:05:03 21.1 C 9.58 g/m*3 21.1 C 0 km/h
640 08-08-2008 16:17:02 21.1 C 9.95 g/m*3 21.1 C 0 km/h
641 08-08-2008 16:29:02 22.7 C 9.7 g/m*3 22.7 C 0 km/h
642 08-08-2008 16:41:02 22.1 C 9.17 g/m*3 22.1 C 0 km/h
643 08-08-2008 16:53:01 21.6 C 9.48 g/m*3 21.6 C 0 km/h
644 08-08-2008 17:05:01 21.8 C 9.21 g/m*3 21.8 C 0 km/h
645 08-08-2008 17:17:01 21.8 C 9.4 g/m*3 21.8 C 0 km/h
646 08-08-2008 17:29:01 21.4 C 9.19 g/m*3 21.4 C 0 km/h
647 08-08-2008 17:41:01 19.7 C 9.85 g/m*3 19.7 C 0 km/h
648 08-08-2008 17:53:02 18.7 C 11.05 g/m*3 18.7 C 0 km/h
649 08-08-2008 18:05:02 18.9 C 11.66 g/m*3 18.9 C 0 km/h
650 08-08-2008 18:17:02 19.5 C 11.24 g/m*3 19.5 C 0 km/h
Sensor: Nr:Datum:Temp:Abs-Feuchte:Windchill:Wind:
Aussen-T/F 651 08-08-2008 18:29:02 19.5 C 10.74 g/m*3 19.5 C 0 km/h
652 08-08-2008 18:41:02 19.4 C 10.51 g/m*3 19.4 C 0 km/h
653 08-08-2008 18:53:28 19.3 C 10.28 g/m*3 19.3 C 0 km/h
654 08-08-2008 19:05:02 19.4 C 10.34 g/m*3 19.4 C 0 km/h
655 08-08-2008 19:17:03 19.4 C 10.34 g/m*3 19.4 C 0 km/h
656 08-08-2008 19:29:03 19.3 C 10.28 g/m*3 19.3 C 0 km/h
657 08-08-2008 19:41:03 19.3 C 10.12 g/m*3 19.3 C 0 km/h
658 08-08-2008 19:53:02 19.3 C 10.12 g/m*3 19.3 C 0 km/h
659 08-08-2008 20:05:03 19 C 10.27 g/m*3 19 C 0 km/h
660 08-08-2008 20:17:02 17.8 C 11.08 g/m*3 17.8 C 0 km/h
661 08-08-2008 20:29:02 17.5 C 11.18 g/m*3 17.5 C 0 km/h
662 08-08-2008 20:41:03 16.8 C 11.58 g/m*3 16.8 C 0 km/h
663 08-08-2008 20:53:02 16.5 C 11.8 g/m*3 16.5 C 0 km/h
664 08-08-2008 21:05:02 16.4 C 12 g/m*3 16.4 C 0 km/h
665 08-08-2008 21:17:02 16.3 C 12.07 g/m*3 16.3 C 0 km/h
666 08-08-2008 21:29:01 16.3 C 12.21 g/m*3 16.3 C 0 km/h
667 08-08-2008 21:41:01 16.5 C 12.22 g/m*3 16.5 C 0 km/h
668 08-08-2008 21:54:01 16.6 C 12.15 g/m*3 16.6 C 0 km/h
669 08-08-2008 22:06:01 16.7 C 12.08 g/m*3 16.7 C 0 km/h
670 08-08-2008 22:18:01 16.7 C 11.94 g/m*3 16.7 C 0 km/h
671 08-08-2008 22:30:01 16.8 C 11.87 g/m*3 16.8 C 0 km/h
672 08-08-2008 22:42:01 16.4 C 11.58 g/m*3 16.4 C 0 km/h
673 08-08-2008 22:54:01 16.1 C 11.93 g/m*3 16.1 C 0 km/h
674 08-08-2008 23:06:01 16 C 11.99 g/m*3 16 C 0 km/h
675 08-08-2008 23:18:01 16 C 12.13 g/m*3 16 C 0 km/h
Sensor: Nr:Datum:Temp:Abs-Feuchte:Windchill:Wind:
Aussen-T/F 676 08-08-2008 23:30:02 16.1 C 12.34 g/m*3 16.1 C 0 km/h
677 08-08-2008 23:42:02 16.2 C 12.41 g/m*3 16.2 C 0 km/h
678 08-08-2008 23:54:02 16.1 C 12.2 g/m*3 16.1 C 0 km/h
679 09-08-2008 00:06:02 16 C 11.99 g/m*3 16 C 0 km/h
680 09-08-2008 00:18:02 16.1 C 12.06 g/m*3 16.1 C 0 km/h
681 09-08-2008 00:30:02 16.2 C 12 g/m*3 16.2 C 0 km/h
682 09-08-2008 00:42:02 16.2 C 11.86 g/m*3 16.2 C 0 km/h
683 09-08-2008 00:54:02 16.1 C 11.65 g/m*3 16.1 C 0 km/h
684 09-08-2008 01:06:02 15.9 C 11.51 g/m*3 15.9 C 0 km/h
685 09-08-2008 01:18:02 15.7 C 11.37 g/m*3 15.7 C 0 km/h
686 09-08-2008 01:30:02 15.4 C 11.3 g/m*3 15.4 C 0 km/h
687 09-08-2008 01:42:02 15.1 C 11.09 g/m*3 15.1 C 0 km/h
688 09-08-2008 01:54:02 14.9 C 11.22 g/m*3 14.9 C 0 km/h
689 09-08-2008 02:06:02 14.9 C 11.22 g/m*3 14.9 C 0 km/h
690 09-08-2008 02:18:02 14.7 C 11.08 g/m*3 14.7 C 0 km/h
691 09-08-2008 02:30:02 14.5 C 10.94 g/m*3 14.5 C 0 km/h
692 09-08-2008 02:42:02 14.5 C 10.94 g/m*3 14.5 C 0 km/h
693 09-08-2008 02:54:02 14.4 C 10.88 g/m*3 14.4 C 0 km/h
694 09-08-2008 03:06:02 14.4 C 10.88 g/m*3 14.4 C 0 km/h
695 09-08-2008 03:18:03 14.5 C 10.7 g/m*3 14.5 C 0 km/h
696 09-08-2008 03:30:03 14.5 C 10.32 g/m*3 14.5 C 0 km/h
697 09-08-2008 03:42:03 14.4 C 10.26 g/m*3 14.4 C 0 km/h
698 09-08-2008 03:54:03 14.4 C 10.26 g/m*3 14.4 C 0 km/h
699 09-08-2008 04:06:03 14.5 C 10.45 g/m*3 14.5 C 0 km/h
700 09-08-2008 04:18:03 14.5 C 10.45 g/m*3 14.5 C 0 km/h
Sensor: Nr:Datum:Temp:Abs-Feuchte:Windchill:Wind:
Aussen-T/F 701 09-08-2008 04:30:03 14.5 C 10.57 g/m*3 14.5 C 0 km/h
702 09-08-2008 04:42:03 14.6 C 10.64 g/m*3 14.6 C 0 km/h
703 09-08-2008 04:54:03 14.6 C 10.64 g/m*3 14.6 C 0 km/h
704 09-08-2008 05:06:03 14.7 C 10.58 g/m*3 14.7 C 0 km/h
705 09-08-2008 05:18:03 14.6 C 10.51 g/m*3 14.6 C 0 km/h
706 09-08-2008 05:30:03 14.6 C 10.51 g/m*3 14.6 C 0 km/h
707 09-08-2008 05:42:03 14.6 C 10.39 g/m*3 14.6 C 0 km/h
708 09-08-2008 05:54:03 14.7 C 10.2 g/m*3 14.7 C 0 km/h
709 09-08-2008 06:06:03 14.7 C 10.07 g/m*3 14.7 C 0 km/h
710 09-08-2008 06:18:03 14.9 C 9.81 g/m*3 14.9 C 0 km/h
711 09-08-2008 06:30:03 14.9 C 9.69 g/m*3 14.9 C 0 km/h
712 09-08-2008 06:42:03 14.9 C 9.69 g/m*3 14.9 C 0 km/h
713 09-08-2008 06:54:03 15 C 9.87 g/m*3 15 C 0 km/h
714 09-08-2008 07:06:03 15 C 9.75 g/m*3 15 C 0 km/h
715 09-08-2008 07:18:04 14.9 C 9.43 g/m*3 14.9 C 0 km/h
716 09-08-2008 07:30:04 14.8 C 9.37 g/m*3 14.8 C 0 km/h
717 09-08-2008 07:42:04 15 C 9.36 g/m*3 15 C 0 km/h
718 09-08-2008 07:54:04 15.1 C 9.29 g/m*3 15.1 C 0 km/h
719 09-08-2008 08:06:02 14.7 C 9.19 g/m*3 14.7 C 0 km/h
720 09-08-2008 08:18:02 14.7 C 9.44 g/m*3 14.7 C 0 km/h
721 09-08-2008 08:30:02 15.1 C 9.42 g/m*3 15.1 C 0 km/h
722 09-08-2008 08:42:01 15.7 C 9.1 g/m*3 15.7 C 0 km/h
723 09-08-2008 08:54:02 16.2 C 9.38 g/m*3 16.2 C 0 km/h
724 09-08-2008 09:06:02 16.3 C 9.02 g/m*3 16.3 C 0 km/h
725 09-08-2008 09:18:02 16.3 C 9.43 g/m*3 16.3 C 0 km/h
Sensor: Nr:Datum:Temp:Abs-Feuchte:Windchill:Wind:
Aussen-T/F 726 09-08-2008 09:30:02 16.8 C 9.72 g/m*3 16.8 C 0 km/h
727 09-08-2008 09:42:02 17.1 C 9.17 g/m*3 17.1 C 0 km/h
728 09-08-2008 09:54:02 16.6 C 9.04 g/m*3 16.6 C 0 km/h
729 09-08-2008 10:06:02 17.6 C 8.85 g/m*3 17.6 C 0 km/h
730 09-08-2008 10:18:01 17.9 C 8.09 g/m*3 17.9 C 0 km/h
731 09-08-2008 10:30:01 18.1 C 7.73 g/m*3 18.1 C 0 km/h
732 09-08-2008 10:42:02 18.5 C 7.91 g/m*3 18.5 C 0 km/h
733 09-08-2008 10:54:02 18.6 C 6.84 g/m*3 18.6 C 0 km/h
734 09-08-2008 11:06:02 19 C 7.66 g/m*3 19 C 0 km/h
735 09-08-2008 11:18:02 20.2 C 6.64 g/m*3 20.2 C 0 km/h
736 09-08-2008 11:30:02 19.9 C 7.22 g/m*3 19.9 C 0 km/h
737 09-08-2008 11:42:02 20.4 C 6.72 g/m*3 20.4 C 0 km/h
738 09-08-2008 11:54:02 20.7 C 6.48 g/m*3 20.7 C 0 km/h
739 09-08-2008 12:06:01 20.9 C 6.19 g/m*3 20.9 C 0 km/h
740 09-08-2008 12:18:02 21.9 C 6.18 g/m*3 21.9 C 0 km/h
741 09-08-2008 12:30:02 22.5 C 6.19 g/m*3 22.5 C 0 km/h
742 09-08-2008 12:42:01 21.5 C 6.03 g/m*3 21.5 C 0 km/h
743 09-08-2008 12:54:02 22.3 C 5.73 g/m*3 22.3 C 0 km/h
744 09-08-2008 13:06:01 22.4 C 5.56 g/m*3 22.4 C 0 km/h
745 09-08-2008 13:18:02 23.1 C 5.37 g/m*3 23.1 C 0 km/h
746 09-08-2008 13:30:02 23.5 C 5.29 g/m*3 23.5 C 0 km/h
747 09-08-2008 13:42:01 23.5 C 5.5 g/m*3 23.5 C 0 km/h
748 09-08-2008 13:54:03 22.9 C 5.11 g/m*3 22.9 C 0 km/h
749 09-08-2008 14:06:02 23.2 C 5.61 g/m*3 23.2 C 0 km/h
750 09-08-2008 14:18:03 23 C 5.34 g/m*3 23 C 0 km/h
Sensor: Nr:Datum:Temp:Abs-Feuchte:Windchill:Wind:
Aussen-T/F 751 09-08-2008 14:30:03 23.2 C 5.2 g/m*3 23.2 C 0 km/h
752 09-08-2008 14:42:02 24.4 C 5.56 g/m*3 24.4 C 0 km/h
753 09-08-2008 14:54:02 25.2 C 5.12 g/m*3 25.2 C 0 km/h
754 09-08-2008 15:06:03 24.3 C 5.53 g/m*3 24.3 C 0 km/h
755 09-08-2008 15:18:03 24.9 C 5.72 g/m*3 24.9 C 0 km/h
756 09-08-2008 15:30:03 25.6 C 5.48 g/m*3 25.6 C 0 km/h
757 09-08-2008 15:42:03 26.1 C 5.63 g/m*3 26.1 C 0 km/h
758 09-08-2008 15:54:02 26.1 C 5.39 g/m*3 26.1 C 0 km/h
759 09-08-2008 16:06:03 25.9 C 5.33 g/m*3 25.9 C 0 km/h
760 09-08-2008 16:18:02 25.9 C 6.05 g/m*3 25.9 C 0 km/h
761 09-08-2008 16:30:02 25.4 C 5.65 g/m*3 25.4 C 0 km/h
762 09-08-2008 16:42:03 24.8 C 5.92 g/m*3 24.8 C 0 km/h
763 09-08-2008 16:54:03 24.8 C 5.92 g/m*3 24.8 C 0 km/h
764 09-08-2008 17:06:02 26.3 C 5.94 g/m*3 26.3 C 0 km/h
765 09-08-2008 17:18:02 26.4 C 5.48 g/m*3 26.4 C 0 km/h
766 09-08-2008 17:30:02 25.4 C 5.89 g/m*3 25.4 C 0 km/h
767 09-08-2008 17:42:02 24.9 C 5.95 g/m*3 24.9 C 0 km/h
768 09-08-2008 17:54:01 26 C 6.09 g/m*3 26 C 0 km/h
769 09-08-2008 18:06:02 26.2 C 6.15 g/m*3 26.2 C 0 km/h
770 09-08-2008 18:18:01 25.2 C 6.05 g/m*3 25.2 C 0 km/h
771 09-08-2008 18:30:01 25 C 6.22 g/m*3 25 C 0 km/h
772 09-08-2008 18:42:02 25.9 C 6.29 g/m*3 25.9 C 0 km/h
773 09-08-2008 18:54:01 25.8 C 6.74 g/m*3 25.8 C 0 km/h
774 09-08-2008 19:06:02 25.3 C 6.79 g/m*3 25.3 C 0 km/h
775 09-08-2008 19:18:02 24.9 C 7.1 g/m*3 24.9 C 0 km/h
Sensor: Nr:Datum:Temp:Abs-Feuchte:Windchill:Wind:
Aussen-T/F 776 09-08-2008 19:30:02 23.9 C 7.14 g/m*3 23.9 C 0 km/h
777 09-08-2008 19:42:01 23.8 C 7.1 g/m*3 23.8 C 0 km/h
778 09-08-2008 19:54:01 23.3 C 7.32 g/m*3 23.3 C 0 km/h
779 09-08-2008 20:06:02 22.9 C 7.56 g/m*3 22.9 C 0 km/h
780 09-08-2008 20:18:01 22.3 C 7.7 g/m*3 22.3 C 0 km/h
781 09-08-2008 20:30:01 21.6 C 7.78 g/m*3 21.6 C 0 km/h
782 09-08-2008 20:42:02 21 C 7.69 g/m*3 21 C 0 km/h
783 09-08-2008 20:54:02 20.7 C 8.1 g/m*3 20.7 C 0 km/h
784 09-08-2008 21:06:02 20 C 7.95 g/m*3 20 C 0 km/h
785 09-08-2008 21:18:02 19.9 C 8.25 g/m*3 19.9 C 0 km/h
786 09-08-2008 21:30:02 19.8 C 8.2 g/m*3 19.8 C 0 km/h
787 09-08-2008 21:42:02 19.6 C 8.27 g/m*3 19.6 C 0 km/h
788 09-08-2008 21:54:02 19.5 C 8.39 g/m*3 19.5 C 0 km/h
789 09-08-2008 22:06:01 19.3 C 8.63 g/m*3 19.3 C 0 km/h
790 09-08-2008 22:18:02 19 C 8.8 g/m*3 19 C 0 km/h
791 09-08-2008 22:30:02 19 C 8.8 g/m*3 19 C 0 km/h
792 09-08-2008 22:42:01 18.9 C 9.23 g/m*3 18.9 C 0 km/h
793 09-08-2008 22:54:02 18.9 C 9.23 g/m*3 18.9 C 0 km/h
794 09-08-2008 23:06:01 18.8 C 9.34 g/m*3 18.8 C 0 km/h
795 09-08-2008 23:18:02 18.7 C 9.13 g/m*3 18.7 C 0 km/h
796 09-08-2008 23:30:02 18.4 C 9.28 g/m*3 18.4 C 0 km/h
797 09-08-2008 23:43:02 18.2 C 9.33 g/m*3 18.2 C 0 km/h
798 09-08-2008 23:55:02 18 C 9.37 g/m*3 18 C 0 km/h
799 10-08-2008 00:07:02 17.8 C 9.56 g/m*3 17.8 C 0 km/h
800 10-08-2008 00:19:02 17.7 C 9.51 g/m*3 17.7 C 0 km/h
Sensor: Nr:Datum:Temp:Abs-Feuchte:Windchill:Wind:
Aussen-T/F 801 10-08-2008 00:31:02 17.7 C 9.51 g/m*3 17.7 C 0 km/h
802 10-08-2008 00:43:02 17.9 C 9.77 g/m*3 17.9 C 0 km/h
803 10-08-2008 00:55:02 17.9 C 9.77 g/m*3 17.9 C 0 km/h
804 10-08-2008 01:07:02 18 C 9.68 g/m*3 18 C 0 km/h
805 10-08-2008 01:19:02 18.1 C 9.73 g/m*3 18.1 C 0 km/h
806 10-08-2008 01:31:02 17.9 C 9.77 g/m*3 17.9 C 0 km/h
807 10-08-2008 01:43:02 17.9 C 9.92 g/m*3 17.9 C 0 km/h
808 10-08-2008 01:55:02 18 C 9.83 g/m*3 18 C 0 km/h
809 10-08-2008 02:07:02 17.9 C 10.08 g/m*3 17.9 C 0 km/h
810 10-08-2008 02:19:02 17.7 C 10.11 g/m*3 17.7 C 0 km/h
811 10-08-2008 02:31:02 18 C 10.14 g/m*3 18 C 0 km/h
812 10-08-2008 02:43:02 18.1 C 9.73 g/m*3 18.1 C 0 km/h
813 10-08-2008 02:55:02 18.3 C 9.85 g/m*3 18.3 C 0 km/h
814 10-08-2008 03:07:02 18.3 C 9.69 g/m*3 18.3 C 0 km/h
815 10-08-2008 03:19:03 18.2 C 9.79 g/m*3 18.2 C 0 km/h
816 10-08-2008 03:31:03 18.2 C 9.79 g/m*3 18.2 C 0 km/h
817 10-08-2008 03:43:03 18.2 C 9.64 g/m*3 18.2 C 0 km/h
818 10-08-2008 03:55:03 17.7 C 10.11 g/m*3 17.7 C 0 km/h
819 10-08-2008 04:07:03 17.6 C 10.2 g/m*3 17.6 C 0 km/h
820 10-08-2008 04:19:03 18 C 9.68 g/m*3 18 C 0 km/h
821 10-08-2008 04:31:03 17.9 C 9.77 g/m*3 17.9 C 0 km/h
822 10-08-2008 04:43:03 18 C 9.68 g/m*3 18 C 0 km/h
823 10-08-2008 04:55:03 18 C 9.68 g/m*3 18 C 0 km/h
824 10-08-2008 05:07:03 18 C 9.68 g/m*3 18 C 0 km/h
825 10-08-2008 05:19:03 17.9 C 9.47 g/m*3 17.9 C 0 km/h
Sensor: Nr:Datum:Temp:Abs-Feuchte:Windchill:Wind:
Aussen-T/F 826 10-08-2008 05:31:03 17.9 C 9.47 g/m*3 17.9 C 0 km/h
827 10-08-2008 05:43:03 17.9 C 9.47 g/m*3 17.9 C 0 km/h
828 10-08-2008 05:55:03 18.2 C 9.33 g/m*3 18.2 C 0 km/h
829 10-08-2008 06:07:03 18.2 C 9.33 g/m*3 18.2 C 0 km/h
830 10-08-2008 06:19:03 18.2 C 9.17 g/m*3 18.2 C 0 km/h
831 10-08-2008 06:31:03 18.1 C 9.27 g/m*3 18.1 C 0 km/h
832 10-08-2008 06:43:03 17.5 C 9.99 g/m*3 17.5 C 0 km/h
833 10-08-2008 06:55:03 17.7 C 10.26 g/m*3 17.7 C 0 km/h
834 10-08-2008 07:07:04 17.9 C 10.08 g/m*3 17.9 C 0 km/h
835 10-08-2008 07:19:04 18.1 C 9.89 g/m*3 18.1 C 0 km/h
836 10-08-2008 07:31:04 18.1 C 9.89 g/m*3 18.1 C 0 km/h
837 10-08-2008 07:43:04 18.4 C 9.75 g/m*3 18.4 C 0 km/h
838 10-08-2008 07:55:04 18.8 C 9.66 g/m*3 18.8 C 0 km/h
839 10-08-2008 08:07:04 19.2 C 9.07 g/m*3 19.2 C 0 km/h
840 10-08-2008 08:19:04 19.4 C 9.01 g/m*3 19.4 C 0 km/h
841 10-08-2008 08:31:04 19.5 C 9.06 g/m*3 19.5 C 0 km/h
842 10-08-2008 08:43:04 19.7 C 9 g/m*3 19.7 C 0 km/h
843 10-08-2008 08:55:04 19.9 C 8.93 g/m*3 19.9 C 0 km/h
844 10-08-2008 09:07:02 19.9 C 9.11 g/m*3 19.9 C 0 km/h
845 10-08-2008 09:19:02 20.2 C 9.09 g/m*3 20.2 C 0 km/h
846 10-08-2008 09:31:02 20.2 C 8.92 g/m*3 20.2 C 0 km/h
847 10-08-2008 09:43:02 20.3 C 8.97 g/m*3 20.3 C 0 km/h
848 10-08-2008 09:55:02 20.1 C 9.04 g/m*3 20.1 C 0 km/h
849 10-08-2008 10:07:02 20 C 9.16 g/m*3 20 C 0 km/h
850 10-08-2008 10:19:02 19.9 C 9.79 g/m*3 19.9 C 0 km/h
Sensor: Nr:Datum:Temp:Abs-Feuchte:Windchill:Wind:
Aussen-T/F 851 10-08-2008 10:31:02 19.5 C 9.9 g/m*3 19.5 C 0 km/h
852 10-08-2008 10:43:02 19.6 C 10.13 g/m*3 19.6 C 0 km/h
853 10-08-2008 10:55:02 20 C 10.02 g/m*3 20 C 0 km/h
854 10-08-2008 11:07:02 20 C 9.68 g/m*3 20 C 0 km/h
855 10-08-2008 11:19:02 19 C 10.27 g/m*3 19 C 0 km/h
856 10-08-2008 11:31:02 18.8 C 10.79 g/m*3 18.8 C 0 km/h
857 10-08-2008 11:43:02 18.5 C 10.44 g/m*3 18.5 C 0 km/h
858 10-08-2008 11:58:02 19.3 C 10.12 g/m*3 19.3 C 0 km/h
859 10-08-2008 12:10:01 19.6 C 9.96 g/m*3 19.6 C 0 km/h
860 10-08-2008 12:22:02 20 C 9.68 g/m*3 20 C 0 km/h
861 10-08-2008 12:34:01 20.7 C 9.9 g/m*3 20.7 C 0 km/h
862 10-08-2008 12:46:02 20.9 C 9.29 g/m*3 20.9 C 0 km/h
863 10-08-2008 12:58:02 21.2 C 9.27 g/m*3 21.2 C 0 km/h
864 10-08-2008 13:10:02 21.5 C 8.86 g/m*3 21.5 C 0 km/h
865 10-08-2008 13:22:02 21.1 C 9.03 g/m*3 21.1 C 0 km/h
866 10-08-2008 13:34:02 21.5 C 9.05 g/m*3 21.5 C 0 km/h
867 10-08-2008 13:46:02 22.3 C 8.49 g/m*3 22.3 C 0 km/h
868 10-08-2008 13:58:02 22.8 C 8.33 g/m*3 22.8 C 0 km/h
869 10-08-2008 14:10:02 22.6 C 8.24 g/m*3 22.6 C 0 km/h
870 10-08-2008 14:22:02 22.4 C 8.14 g/m*3 22.4 C 0 km/h
871 10-08-2008 14:34:02 21.6 C 8.91 g/m*3 21.6 C 0 km/h
872 10-08-2008 14:46:02 20.7 C 9.54 g/m*3 20.7 C 0 km/h
873 10-08-2008 14:58:02 21.5 C 10.18 g/m*3 21.5 C 0 km/h
874 10-08-2008 15:10:01 22.6 C 9.24 g/m*3 22.6 C 0 km/h
875 10-08-2008 15:22:02 22.7 C 9.5 g/m*3 22.7 C 0 km/h
Sensor: Nr:Datum:Temp:Abs-Feuchte:Windchill:Wind:
Aussen-T/F 876 10-08-2008 15:34:01 22.6 C 9.84 g/m*3 22.6 C 0 km/h
877 10-08-2008 15:46:02 22.2 C 8.83 g/m*3 22.2 C 0 km/h
878 10-08-2008 15:58:02 22.6 C 8.24 g/m*3 22.6 C 0 km/h
879 10-08-2008 16:10:02 23.2 C 8.11 g/m*3 23.2 C 0 km/h
880 10-08-2008 16:22:02 24.5 C 8.06 g/m*3 24.5 C 0 km/h
881 10-08-2008 16:34:02 24 C 7.61 g/m*3 24 C 0 km/h
882 10-08-2008 16:46:02 23.8 C 7.74 g/m*3 23.8 C 0 km/h
883 10-08-2008 16:58:02 24 C 7.4 g/m*3 24 C 0 km/h
884 10-08-2008 17:10:02 23.8 C 7.74 g/m*3 23.8 C 0 km/h
885 10-08-2008 17:22:02 23.9 C 7.79 g/m*3 23.9 C 0 km/h
886 10-08-2008 17:34:01 24 C 7.4 g/m*3 24 C 0 km/h
887 10-08-2008 17:46:02 23.8 C 7.53 g/m*3 23.8 C 0 km/h
888 10-08-2008 17:58:02 23.7 C 7.91 g/m*3 23.7 C 0 km/h
889 10-08-2008 18:10:02 23.5 C 7.61 g/m*3 23.5 C 0 km/h
890 10-08-2008 18:22:01 23.7 C 7.91 g/m*3 23.7 C 0 km/h
891 10-08-2008 18:34:03 23.9 C 7.79 g/m*3 23.9 C 0 km/h
892 10-08-2008 18:46:03 23.6 C 7.87 g/m*3 23.6 C 0 km/h
893 10-08-2008 18:58:03 23.3 C 8.36 g/m*3 23.3 C 0 km/h
894 10-08-2008 19:10:02 23.3 C 8.36 g/m*3 23.3 C 0 km/h
895 10-08-2008 19:22:03 22.9 C 8.58 g/m*3 22.9 C 0 km/h
896 10-08-2008 19:34:02 22.5 C 8.39 g/m*3 22.5 C 0 km/h
897 10-08-2008 19:46:02 22.2 C 8.44 g/m*3 22.2 C 0 km/h
898 10-08-2008 19:58:02 21.9 C 9.07 g/m*3 21.9 C 0 km/h
899 10-08-2008 20:10:02 21.7 C 8.97 g/m*3 21.7 C 0 km/h
900 10-08-2008 20:22:02 21.3 C 9.13 g/m*3 21.3 C 0 km/h
Sensor: Nr:Datum:Temp:Abs-Feuchte:Windchill:Wind:
Aussen-T/F 901 10-08-2008 20:34:02 21 C 8.98 g/m*3 21 C 0 km/h
902 10-08-2008 20:46:02 21 C 9.16 g/m*3 21 C 0 km/h
903 10-08-2008 20:58:02 20.8 C 9.42 g/m*3 20.8 C 0 km/h
904 10-08-2008 21:10:03 20.6 C 9.31 g/m*3 20.6 C 0 km/h
905 10-08-2008 21:22:02 20.6 C 9.31 g/m*3 20.6 C 0 km/h
906 10-08-2008 21:34:03 20.4 C 9.55 g/m*3 20.4 C 0 km/h
907 10-08-2008 21:46:02 20.2 C 9.44 g/m*3 20.2 C 0 km/h
908 10-08-2008 21:58:03 20 C 9.51 g/m*3 20 C 0 km/h
909 10-08-2008 22:10:01 19.6 C 9.79 g/m*3 19.6 C 0 km/h
910 10-08-2008 22:23:02 19.4 C 9.84 g/m*3 19.4 C 0 km/h
911 10-08-2008 22:35:02 19.1 C 9.84 g/m*3 19.1 C 0 km/h
912 10-08-2008 22:47:02 19.1 C 10 g/m*3 19.1 C 0 km/h
913 10-08-2008 22:59:02 19 C 9.78 g/m*3 19 C 0 km/h
914 10-08-2008 23:11:02 18.8 C 9.82 g/m*3 18.8 C 0 km/h
915 10-08-2008 23:23:02 18.7 C 9.77 g/m*3 18.7 C 0 km/h
916 10-08-2008 23:35:03 18.5 C 9.65 g/m*3 18.5 C 0 km/h
917 10-08-2008 23:47:03 18.4 C 9.44 g/m*3 18.4 C 0 km/h
918 10-08-2008 23:59:03 18.3 C 9.07 g/m*3 18.3 C 0 km/h
919 11-08-2008 00:11:03 18.1 C 9.12 g/m*3 18.1 C 0 km/h
920 11-08-2008 00:23:03 18.1 C 9.27 g/m*3 18.1 C 0 km/h
921 11-08-2008 00:35:03 18.1 C 9.27 g/m*3 18.1 C 0 km/h
922 11-08-2008 00:47:03 18.1 C 9.27 g/m*3 18.1 C 0 km/h
923 11-08-2008 00:59:03 18.2 C 9.33 g/m*3 18.2 C 0 km/h
924 11-08-2008 01:11:03 18.4 C 9.28 g/m*3 18.4 C 0 km/h
925 11-08-2008 01:23:03 18.6 C 9.39 g/m*3 18.6 C 0 km/h
Sensor: Nr:Datum:Temp:Abs-Feuchte:Windchill:Wind:
Aussen-T/F 926 11-08-2008 01:35:03 18.7 C 9.45 g/m*3 18.7 C 0 km/h
927 11-08-2008 01:47:03 18.5 C 9.65 g/m*3 18.5 C 0 km/h
928 11-08-2008 01:59:03 18.3 C 9.69 g/m*3 18.3 C 0 km/h
929 11-08-2008 02:11:03 18 C 9.68 g/m*3 18 C 0 km/h
930 11-08-2008 02:23:03 17.6 C 9.9 g/m*3 17.6 C 0 km/h
931 11-08-2008 02:35:03 17.3 C 10.02 g/m*3 17.3 C 0 km/h
932 11-08-2008 02:47:03 17.4 C 10.23 g/m*3 17.4 C 0 km/h
933 11-08-2008 02:59:03 17.5 C 10.44 g/m*3 17.5 C 0 km/h
934 11-08-2008 03:11:03 17.5 C 10.59 g/m*3 17.5 C 0 km/h
935 11-08-2008 03:23:03 17.5 C 10.59 g/m*3 17.5 C 0 km/h
936 11-08-2008 03:35:04 17.7 C 10.56 g/m*3 17.7 C 0 km/h
937 11-08-2008 03:47:04 17.7 C 10.56 g/m*3 17.7 C 0 km/h
938 11-08-2008 03:59:04 17.5 C 10.44 g/m*3 17.5 C 0 km/h
939 11-08-2008 04:11:04 17.4 C 10.37 g/m*3 17.4 C 0 km/h
940 11-08-2008 04:23:04 17.1 C 10.19 g/m*3 17.1 C 0 km/h
941 11-08-2008 04:35:04 16.8 C 10.15 g/m*3 16.8 C 0 km/h
942 11-08-2008 04:47:04 16.6 C 10.03 g/m*3 16.6 C 0 km/h
943 11-08-2008 04:59:04 16 C 9.67 g/m*3 16 C 0 km/h
944 11-08-2008 05:11:04 15.7 C 9.63 g/m*3 15.7 C 0 km/h
945 11-08-2008 05:23:04 15.6 C 9.71 g/m*3 15.6 C 0 km/h
946 11-08-2008 05:35:04 15.9 C 9.62 g/m*3 15.9 C 0 km/h
947 11-08-2008 05:47:04 15.8 C 9.69 g/m*3 15.8 C 0 km/h
948 11-08-2008 05:59:04 15.4 C 9.59 g/m*3 15.4 C 0 km/h
949 11-08-2008 06:11:02 15.1 C 9.68 g/m*3 15.1 C 0 km/h
950 11-08-2008 06:23:02 14.8 C 9.88 g/m*3 14.8 C 0 km/h
Sensor: Nr:Datum:Temp:Abs-Feuchte:Windchill:Wind:
Aussen-T/F 951 11-08-2008 06:35:02 15 C 10.13 g/m*3 15 C 0 km/h
952 11-08-2008 06:47:02 15.2 C 10.12 g/m*3 15.2 C 0 km/h
953 11-08-2008 06:59:02 15 C 10 g/m*3 15 C 0 km/h
954 11-08-2008 07:11:02 14.9 C 10.2 g/m*3 14.9 C 0 km/h
955 11-08-2008 07:23:02 14.9 C 10.2 g/m*3 14.9 C 0 km/h
956 11-08-2008 07:35:02 15 C 10.26 g/m*3 15 C 0 km/h
957 11-08-2008 07:47:02 15.4 C 10.51 g/m*3 15.4 C 0 km/h
958 11-08-2008 07:59:02 15.6 C 10.37 g/m*3 15.6 C 0 km/h
959 11-08-2008 08:11:01 15.5 C 10.31 g/m*3 15.5 C 0 km/h
960 11-08-2008 08:23:02 15.9 C 10.56 g/m*3 15.9 C 0 km/h
961 11-08-2008 08:35:01 16.3 C 10.41 g/m*3 16.3 C 0 km/h
962 11-08-2008 08:47:02 16.7 C 10.37 g/m*3 16.7 C 0 km/h
963 11-08-2008 08:59:02 17.5 C 10.14 g/m*3 17.5 C 0 km/h
964 11-08-2008 09:11:01 18.2 C 10.41 g/m*3 18.2 C 0 km/h
965 11-08-2008 09:23:02 19.1 C 10.16 g/m*3 19.1 C 0 km/h
966 11-08-2008 09:35:02 19.6 C 10.13 g/m*3 19.6 C 0 km/h
967 11-08-2008 09:47:02 20.2 C 9.97 g/m*3 20.2 C 0 km/h
968 11-08-2008 09:59:03 20.8 C 9.78 g/m*3 20.8 C 0 km/h
969 11-08-2008 10:11:02 20.9 C 9.47 g/m*3 20.9 C 0 km/h
970 11-08-2008 10:23:02 21 C 9.53 g/m*3 21 C 0 km/h
971 11-08-2008 10:35:01 21.3 C 9.51 g/m*3 21.3 C 0 km/h
972 11-08-2008 10:47:02 21.6 C 8.72 g/m*3 21.6 C 0 km/h
973 11-08-2008 10:59:02 21.9 C 8.1 g/m*3 21.9 C 0 km/h
974 11-08-2008 11:11:01 22.4 C 8.14 g/m*3 22.4 C 0 km/h
975 11-08-2008 11:23:02 22.5 C 7.99 g/m*3 22.5 C 0 km/h
Sensor: Nr:Datum:Temp:Abs-Feuchte:Windchill:Wind:
Aussen-T/F 976 11-08-2008 11:35:01 22.1 C 8.2 g/m*3 22.1 C 0 km/h
977 11-08-2008 11:47:01 22.6 C 8.84 g/m*3 22.6 C 0 km/h
978 11-08-2008 11:59:01 22 C 8.73 g/m*3 22 C 0 km/h
979 11-08-2008 12:11:02 22.7 C 8.49 g/m*3 22.7 C 0 km/h
980 11-08-2008 12:23:01 23.4 C 8.41 g/m*3 23.4 C 0 km/h
981 11-08-2008 12:35:02 23.7 C 7.91 g/m*3 23.7 C 0 km/h
982 11-08-2008 12:47:02 24.2 C 7.26 g/m*3 24.2 C 0 km/h
983 11-08-2008 12:59:02 24.1 C 7 g/m*3 24.1 C 0 km/h
984 11-08-2008 13:11:03 25.2 C 7.22 g/m*3 25.2 C 0 km/h
985 11-08-2008 13:23:02 25.9 C 6.78 g/m*3 25.9 C 0 km/h
986 11-08-2008 13:35:02 26 C 6.33 g/m*3 26 C 0 km/h
987 11-08-2008 13:47:02 25.8 C 6.5 g/m*3 25.8 C 0 km/h
988 11-08-2008 13:59:02 26.4 C 6.22 g/m*3 26.4 C 0 km/h
989 11-08-2008 14:11:02 26.2 C 5.91 g/m*3 26.2 C 0 km/h
990 11-08-2008 14:23:02 26.5 C 6.26 g/m*3 26.5 C 0 km/h
991 11-08-2008 14:35:02 27.1 C 6.47 g/m*3 27.1 C 0 km/h
992 11-08-2008 14:47:01 27.2 C 6.25 g/m*3 27.2 C 0 km/h
993 11-08-2008 14:59:01 27 C 5.66 g/m*3 27 C 0 km/h
994 11-08-2008 15:11:02 27.8 C 6.72 g/m*3 27.8 C 0 km/h
995 11-08-2008 15:23:01 27.4 C 5.26 g/m*3 27.4 C 0 km/h
996 11-08-2008 15:35:02 26.7 C 5.32 g/m*3 26.7 C 0 km/h
997 11-08-2008 15:47:02 26.7 C 5.82 g/m*3 26.7 C 0 km/h
998 11-08-2008 15:59:02 26.8 C 5.85 g/m*3 26.8 C 0 km/h
999 11-08-2008 16:11:01 26.8 C 5.85 g/m*3 26.8 C 0 km/h
1000 11-08-2008 16:23:02 26.2 C 5.91 g/m*3 26.2 C 0 km/h
Sensor: Nr:Datum:Temp:Abs-Feuchte:Windchill:Wind:
Aussen-T/F 1001 11-08-2008 16:35:02 26.2 C 6.15 g/m*3 26.2 C 0 km/h
1002 11-08-2008 16:47:02 25.7 C 6.46 g/m*3 25.7 C 0 km/h
1003 11-08-2008 16:59:02 25 C 6.22 g/m*3 25 C 0 km/h
1004 11-08-2008 17:11:01 25 C 6.22 g/m*3 25 C 0 km/h
1005 11-08-2008 17:23:02 24.5 C 6.49 g/m*3 24.5 C 0 km/h
1006 11-08-2008 17:35:01 24.3 C 6.86 g/m*3 24.3 C 0 km/h
1007 11-08-2008 17:47:02 23.9 C 6.71 g/m*3 23.9 C 0 km/h
1008 11-08-2008 17:59:03 23.9 C 6.49 g/m*3 23.9 C 0 km/h
1009 11-08-2008 18:11:02 23.9 C 6.92 g/m*3 23.9 C 0 km/h
1010 11-08-2008 18:23:02 22.9 C 7.97 g/m*3 22.9 C 0 km/h
1011 11-08-2008 18:35:02 23.3 C 7.95 g/m*3 23.3 C 0 km/h
1012 11-08-2008 18:47:02 23.2 C 8.11 g/m*3 23.2 C 0 km/h
1013 11-08-2008 18:59:02 22.6 C 8.64 g/m*3 22.6 C 0 km/h
1014 11-08-2008 19:11:02 22.7 C 8.28 g/m*3 22.7 C 0 km/h
1015 11-08-2008 19:23:02 22.9 C 8.79 g/m*3 22.9 C 0 km/h
1016 11-08-2008 19:35:01 22.9 C 8.79 g/m*3 22.9 C 0 km/h
1017 11-08-2008 19:47:02 22.5 C 9.19 g/m*3 22.5 C 0 km/h
1018 11-08-2008 19:59:02 22.1 C 8.98 g/m*3 22.1 C 0 km/h
1019 11-08-2008 20:11:02 21.9 C 9.46 g/m*3 21.9 C 0 km/h
1020 11-08-2008 20:23:01 21.5 C 9.43 g/m*3 21.5 C 0 km/h
1021 11-08-2008 20:35:02 21.2 C 9.45 g/m*3 21.2 C 0 km/h
1022 11-08-2008 20:47:02 21.1 C 9.4 g/m*3 21.1 C 0 km/h
1023 11-08-2008 20:59:02 20.6 C 9.84 g/m*3 20.6 C 0 km/h
1024 11-08-2008 21:11:02 20.1 C 9.91 g/m*3 20.1 C 0 km/h
1025 11-08-2008 21:23:02 19.9 C 10.31 g/m*3 19.9 C 0 km/h
Sensor: Nr:Datum:Temp:Abs-Feuchte:Windchill:Wind:
Aussen-T/F 1026 11-08-2008 21:35:02 19.7 C 10.19 g/m*3 19.7 C 0 km/h
1027 11-08-2008 21:47:02 19.9 C 10.14 g/m*3 19.9 C 0 km/h
1028 11-08-2008 21:59:02 20.1 C 10.08 g/m*3 20.1 C 0 km/h
1029 11-08-2008 22:11:03 19.8 C 10.25 g/m*3 19.8 C 0 km/h
1030 11-08-2008 22:24:33 19.9 C 10.65 g/m*3 19.9 C 0 km/h
1031 11-08-2008 22:36:33 20 C 10.71 g/m*3 20 C 0 km/h
1032 11-08-2008 22:48:33 20 C 10.89 g/m*3 20 C 0 km/h
1033 11-08-2008 23:00:33 19.8 C 10.93 g/m*3 19.8 C 0 km/h
1034 11-08-2008 23:12:33 19.9 C 11.17 g/m*3 19.9 C 0 km/h
1035 11-08-2008 23:24:34 19.7 C 11.04 g/m*3 19.7 C 0 km/h
1036 11-08-2008 23:36:34 19.5 C 11.24 g/m*3 19.5 C 0 km/h
1037 11-08-2008 23:48:34 19.1 C 11.64 g/m*3 19.1 C 0 km/h
1038 12-08-2008 00:00:34 18.6 C 11.78 g/m*3 18.6 C 0 km/h
1039 12-08-2008 00:12:34 18.3 C 11.88 g/m*3 18.3 C 0 km/h
1040 12-08-2008 00:24:34 18.2 C 12.12 g/m*3 18.2 C 0 km/h
1041 12-08-2008 00:36:34 17.9 C 12.37 g/m*3 17.9 C 0 km/h
1042 12-08-2008 00:48:34 17.7 C 12.52 g/m*3 17.7 C 0 km/h
1043 12-08-2008 01:00:34 17.3 C 12.37 g/m*3 17.3 C 0 km/h
1044 12-08-2008 01:12:34 17 C 12.3 g/m*3 17 C 0 km/h
1045 12-08-2008 01:24:34 17.2 C 12.59 g/m*3 17.2 C 0 km/h
1046 12-08-2008 01:36:34 17.5 C 12.82 g/m*3 17.5 C 0 km/h
1047 12-08-2008 01:48:34 17.2 C 12.59 g/m*3 17.2 C 0 km/h
1048 12-08-2008 02:00:34 17.1 C 12.66 g/m*3 17.1 C 0 km/h
1049 12-08-2008 02:12:34 17 C 12.59 g/m*3 17 C 0 km/h
1050 12-08-2008 02:24:34 16.8 C 12.58 g/m*3 16.8 C 0 km/h
Sensor: Nr:Datum:Temp:Abs-Feuchte:Windchill:Wind:
Aussen-T/F 1051 12-08-2008 02:36:34 16.8 C 12.72 g/m*3 16.8 C 0 km/h
1052 12-08-2008 02:48:34 16.6 C 12.57 g/m*3 16.6 C 0 km/h
1053 12-08-2008 03:00:34 16.7 C 12.65 g/m*3 16.7 C 0 km/h
1054 12-08-2008 03:12:34 16.8 C 12.72 g/m*3 16.8 C 0 km/h
1055 12-08-2008 03:24:34 16.9 C 12.8 g/m*3 16.9 C 0 km/h
1056 12-08-2008 03:36:35 16.8 C 12.58 g/m*3 16.8 C 0 km/h
1057 12-08-2008 03:48:35 16.4 C 12.28 g/m*3 16.4 C 0 km/h
1058 12-08-2008 04:00:35 16.2 C 12.14 g/m*3 16.2 C 0 km/h
1059 12-08-2008 04:12:35 16 C 11.85 g/m*3 16 C 0 km/h
1060 12-08-2008 04:24:35 15.8 C 11.85 g/m*3 15.8 C 0 km/h
1061 12-08-2008 04:36:35 16 C 11.99 g/m*3 16 C 0 km/h
1062 12-08-2008 04:48:35 15.8 C 11.98 g/m*3 15.8 C 0 km/h
1063 12-08-2008 05:00:35 16 C 11.99 g/m*3 16 C 0 km/h
1064 12-08-2008 05:12:35 16.3 C 12.21 g/m*3 16.3 C 0 km/h
1065 12-08-2008 05:24:35 16.2 C 12.14 g/m*3 16.2 C 0 km/h
1066 12-08-2008 05:36:35 16.2 C 12 g/m*3 16.2 C 0 km/h
1067 12-08-2008 05:48:35 16.2 C 12 g/m*3 16.2 C 0 km/h
1068 12-08-2008 06:00:35 16.1 C 11.93 g/m*3 16.1 C 0 km/h
1069 12-08-2008 06:12:35 16 C 11.85 g/m*3 16 C 0 km/h
1070 12-08-2008 06:24:35 16 C 11.85 g/m*3 16 C 0 km/h
1071 12-08-2008 06:36:35 16.1 C 12.06 g/m*3 16.1 C 0 km/h
1072 12-08-2008 06:48:35 16 C 11.85 g/m*3 16 C 0 km/h
1073 12-08-2008 07:00:35 16.1 C 12.06 g/m*3 16.1 C 0 km/h
1074 12-08-2008 07:12:04 16.1 C 12.06 g/m*3 16.1 C 0 km/h
1075 12-08-2008 07:24:03 16.1 C 12.06 g/m*3 16.1 C 0 km/h
Sensor: Nr:Datum:Temp:Abs-Feuchte:Windchill:Wind:
Aussen-T/F 1076 12-08-2008 07:36:03 16.2 C 12.14 g/m*3 16.2 C 0 km/h
1077 12-08-2008 07:48:02 16.2 C 12.27 g/m*3 16.2 C 0 km/h
1078 12-08-2008 08:00:02 16.2 C 12.27 g/m*3 16.2 C 0 km/h
1079 12-08-2008 08:12:02 16.6 C 12.71 g/m*3 16.6 C 0 km/h
1080 12-08-2008 08:24:02 16.8 C 12.87 g/m*3 16.8 C 0 km/h
1081 12-08-2008 08:36:02 16.8 C 12.72 g/m*3 16.8 C 0 km/h
1082 12-08-2008 08:48:02 16.9 C 12.8 g/m*3 16.9 C 0 km/h
1083 12-08-2008 09:00:02 16.6 C 12.57 g/m*3 16.6 C 0 km/h
1084 12-08-2008 09:12:02 16.6 C 12.71 g/m*3 16.6 C 0 km/h
1085 12-08-2008 09:24:02 16.9 C 12.94 g/m*3 16.9 C 0 km/h
1086 12-08-2008 09:36:03 17 C 12.88 g/m*3 17 C 0 km/h
1087 12-08-2008 09:48:02 17.2 C 13.03 g/m*3 17.2 C 0 km/h
1088 12-08-2008 10:00:02 17.2 C 13.03 g/m*3 17.2 C 0 km/h
1089 12-08-2008 10:12:02 17.3 C 12.96 g/m*3 17.3 C 0 km/h
1090 12-08-2008 10:24:02 17.4 C 13.04 g/m*3 17.4 C 0 km/h
1091 12-08-2008 10:36:02 17.6 C 13.2 g/m*3 17.6 C 0 km/h
1092 12-08-2008 10:48:02 17.6 C 13.35 g/m*3 17.6 C 0 km/h
1093 12-08-2008 11:00:02 17.9 C 13.59 g/m*3 17.9 C 0 km/h
1094 12-08-2008 11:12:02 18 C 13.52 g/m*3 18 C 0 km/h
1095 12-08-2008 11:24:02 18.2 C 13.68 g/m*3 18.2 C 0 km/h
1096 12-08-2008 11:36:02 18.4 C 13.84 g/m*3 18.4 C 0 km/h
1097 12-08-2008 11:48:02 18.9 C 14.26 g/m*3 18.9 C 0 km/h
1098 12-08-2008 12:00:02 19.5 C 14.27 g/m*3 19.5 C 0 km/h
1099 12-08-2008 12:12:01 19.7 C 14.09 g/m*3 19.7 C 0 km/h
1100 12-08-2008 12:24:02 20.5 C 14.41 g/m*3 20.5 C 0 km/h
Sensor: Nr:Datum:Temp:Abs-Feuchte:Windchill:Wind:
Aussen-T/F 1101 12-08-2008 12:36:01 21.1 C 14.19 g/m*3 21.1 C 0 km/h
1102 12-08-2008 12:48:01 21.9 C 14.09 g/m*3 21.9 C 0 km/h
1103 12-08-2008 13:00:01 22.4 C 13.7 g/m*3 22.4 C 0 km/h
1104 12-08-2008 13:12:02 22.1 C 13.27 g/m*3 22.1 C 0 km/h
1105 12-08-2008 13:24:01 22.4 C 13.31 g/m*3 22.4 C 0 km/h
1106 12-08-2008 13:36:02 21.8 C 13.24 g/m*3 21.8 C 0 km/h
1107 12-08-2008 13:48:02 21.3 C 13.42 g/m*3 21.3 C 0 km/h
1108 12-08-2008 14:00:02 20.7 C 13.68 g/m*3 20.7 C 0 km/h
1109 12-08-2008 14:12:02 21.2 C 13.9 g/m*3 21.2 C 0 km/h
1110 12-08-2008 14:24:02 22.2 C 13.55 g/m*3 22.2 C 0 km/h
1111 12-08-2008 14:36:02 23.4 C 13.46 g/m*3 23.4 C 0 km/h
1112 12-08-2008 14:48:02 23.5 C 13.11 g/m*3 23.5 C 0 km/h
1113 12-08-2008 15:00:02 22.8 C 12.4 g/m*3 22.8 C 0 km/h
1114 12-08-2008 15:12:02 22.9 C 12.47 g/m*3 22.9 C 0 km/h
1115 12-08-2008 15:24:02 22.2 C 12.17 g/m*3 22.2 C 0 km/h
1116 12-08-2008 15:36:03 21.4 C 12.75 g/m*3 21.4 C 0 km/h
1117 12-08-2008 15:48:02 20.6 C 13.07 g/m*3 20.6 C 0 km/h
1118 12-08-2008 16:00:02 19.7 C 13.92 g/m*3 19.7 C 0 km/h
1119 12-08-2008 16:12:03 19.9 C 14.43 g/m*3 19.9 C 0 km/h
1120 12-08-2008 16:24:02 20.9 C 14.93 g/m*3 20.9 C 0 km/h
1121 12-08-2008 16:36:03 21.5 C 14.9 g/m*3 21.5 C 0 km/h
1122 12-08-2008 16:48:02 21.2 C 12.97 g/m*3 21.2 C 0 km/h
1123 12-08-2008 17:00:02 21.6 C 12.52 g/m*3 21.6 C 0 km/h
1124 12-08-2008 17:12:02 21.5 C 12.45 g/m*3 21.5 C 0 km/h
1125 12-08-2008 17:24:02 21.5 C 12.07 g/m*3 21.5 C 0 km/h
Sensor: Nr:Datum:Temp:Abs-Feuchte:Windchill:Wind:
Aussen-T/F 1126 12-08-2008 17:36:02 21.3 C 12.86 g/m*3 21.3 C 0 km/h
1127 12-08-2008 17:48:02 21.4 C 12.37 g/m*3 21.4 C 0 km/h
1128 12-08-2008 18:00:02 21.4 C 12 g/m*3 21.4 C 0 km/h
1129 12-08-2008 18:12:02 21.3 C 11.93 g/m*3 21.3 C 0 km/h
1130 12-08-2008 18:24:02 21.5 C 12.26 g/m*3 21.5 C 0 km/h
1131 12-08-2008 18:36:03 21.9 C 12.16 g/m*3 21.9 C 0 km/h
1132 12-08-2008 18:48:02 21.8 C 11.32 g/m*3 21.8 C 0 km/h
1133 12-08-2008 19:00:02 21.9 C 11.39 g/m*3 21.9 C 0 km/h
1134 12-08-2008 19:12:02 22.3 C 11.65 g/m*3 22.3 C 0 km/h
1135 12-08-2008 19:24:02 22.6 C 11.05 g/m*3 22.6 C 0 km/h
1136 12-08-2008 19:36:02 22.5 C 10.79 g/m*3 22.5 C 0 km/h
1137 12-08-2008 19:48:02 22.6 C 10.65 g/m*3 22.6 C 0 km/h
1138 12-08-2008 20:00:02 22.5 C 10.39 g/m*3 22.5 C 0 km/h
1139 12-08-2008 20:12:01 22.8 C 10.36 g/m*3 22.8 C 0 km/h
1140 12-08-2008 20:24:02 22.5 C 10.39 g/m*3 22.5 C 0 km/h
1141 12-08-2008 20:36:01 21.8 C 10.55 g/m*3 21.8 C 0 km/h
1142 12-08-2008 20:48:01 21.2 C 10.56 g/m*3 21.2 C 0 km/h
1143 12-08-2008 21:00:01 20.7 C 10.62 g/m*3 20.7 C 0 km/h
1144 12-08-2008 21:12:02 20.2 C 10.84 g/m*3 20.2 C 0 km/h
1145 12-08-2008 21:24:02 20 C 11.06 g/m*3 20 C 0 km/h
1146 12-08-2008 21:36:02 19.7 C 11.38 g/m*3 19.7 C 0 km/h
1147 12-08-2008 21:48:03 19.4 C 11.68 g/m*3 19.4 C 0 km/h
1148 12-08-2008 22:00:03 19.1 C 11.8 g/m*3 19.1 C 0 km/h
1149 12-08-2008 22:12:02 19 C 11.57 g/m*3 19 C 0 km/h
1150 12-08-2008 22:24:02 18.9 C 11.83 g/m*3 18.9 C 0 km/h
Sensor: Nr:Datum:Temp:Abs-Feuchte:Windchill:Wind:
Aussen-T/F 1151 12-08-2008 22:36:02 18.6 C 11.62 g/m*3 18.6 C 0 km/h
1152 12-08-2008 22:48:02 18.4 C 11.48 g/m*3 18.4 C 0 km/h
1153 12-08-2008 23:00:03 18.6 C 11.46 g/m*3 18.6 C 0 km/h
1154 12-08-2008 23:12:02 18.9 C 11.18 g/m*3 18.9 C 0 km/h
1155 12-08-2008 23:25:03 19.3 C 11.11 g/m*3 19.3 C 0 km/h
1156 12-08-2008 23:37:03 16.6 C 9.89 g/m*3 16.6 C 0 km/h
1157 12-08-2008 23:49:03 15.6 C 9.97 g/m*3 15.6 C 0 km/h
1158 13-08-2008 00:01:03 15.2 C 9.99 g/m*3 15.2 C 0 km/h
1159 13-08-2008 00:13:03 15 C 10.26 g/m*3 15 C 0 km/h
1160 13-08-2008 00:25:03 14.7 C 10.2 g/m*3 14.7 C 0 km/h
1161 13-08-2008 00:37:03 14.4 C 10.14 g/m*3 14.4 C 0 km/h
1162 13-08-2008 00:49:04 14.2 C 10.14 g/m*3 14.2 C 0 km/h
1163 13-08-2008 01:01:04 14.2 C 10.26 g/m*3 14.2 C 0 km/h
1164 13-08-2008 01:13:04 14.3 C 10.44 g/m*3 14.3 C 0 km/h
1165 13-08-2008 01:25:04 14.3 C 10.57 g/m*3 14.3 C 0 km/h
1166 13-08-2008 01:37:04 14.3 C 10.57 g/m*3 14.3 C 0 km/h
1167 13-08-2008 01:49:04 14.6 C 10.76 g/m*3 14.6 C 0 km/h
1168 13-08-2008 02:01:04 14.6 C 10.76 g/m*3 14.6 C 0 km/h
1169 13-08-2008 02:13:04 14.7 C 10.83 g/m*3 14.7 C 0 km/h
1170 13-08-2008 02:25:04 14.5 C 10.7 g/m*3 14.5 C 0 km/h
1171 13-08-2008 02:37:04 14.3 C 10.57 g/m*3 14.3 C 0 km/h
1172 13-08-2008 02:49:04 14.2 C 10.5 g/m*3 14.2 C 0 km/h
1173 13-08-2008 03:01:04 14.2 C 10.62 g/m*3 14.2 C 0 km/h
1174 13-08-2008 03:13:04 14.3 C 10.81 g/m*3 14.3 C 0 km/h
1175 13-08-2008 03:25:04 14.3 C 10.81 g/m*3 14.3 C 0 km/h
Sensor: Nr:Datum:Temp:Abs-Feuchte:Windchill:Wind:
Aussen-T/F 1176 13-08-2008 03:37:04 14.3 C 10.69 g/m*3 14.3 C 0 km/h
1177 13-08-2008 03:49:04 14.2 C 10.62 g/m*3 14.2 C 0 km/h
1178 13-08-2008 04:01:04 14.1 C 10.56 g/m*3 14.1 C 0 km/h
1179 13-08-2008 04:13:04 14.4 C 10.38 g/m*3 14.4 C 0 km/h
1180 13-08-2008 04:25:04 14.7 C 10.07 g/m*3 14.7 C 0 km/h
1181 13-08-2008 04:37:04 15 C 9.49 g/m*3 15 C 0 km/h
1182 13-08-2008 04:49:05 15.4 C 9.2 g/m*3 15.4 C 0 km/h
1183 13-08-2008 05:01:05 15.2 C 9.09 g/m*3 15.2 C 0 km/h
1184 13-08-2008 05:13:05 15.4 C 8.93 g/m*3 15.4 C 0 km/h
1185 13-08-2008 05:25:05 15.4 C 8.93 g/m*3 15.4 C 0 km/h
1186 13-08-2008 05:37:05 15.6 C 8.78 g/m*3 15.6 C 0 km/h
1187 13-08-2008 05:49:05 15.8 C 8.62 g/m*3 15.8 C 0 km/h
1188 13-08-2008 06:01:05 15.8 C 8.62 g/m*3 15.8 C 0 km/h
1189 13-08-2008 06:13:05 15.9 C 8.53 g/m*3 15.9 C 0 km/h
1190 13-08-2008 06:25:05 15.9 C 8.53 g/m*3 15.9 C 0 km/h
1191 13-08-2008 06:37:03 15.9 C 8.53 g/m*3 15.9 C 0 km/h
1192 13-08-2008 06:49:02 15.7 C 8.43 g/m*3 15.7 C 0 km/h
1193 13-08-2008 07:01:02 15.8 C 8.48 g/m*3 15.8 C 0 km/h
1194 13-08-2008 07:13:02 15.9 C 8.53 g/m*3 15.9 C 0 km/h
1195 13-08-2008 07:25:03 15.9 C 8.53 g/m*3 15.9 C 0 km/h
1196 13-08-2008 07:37:02 16.4 C 8.51 g/m*3 16.4 C 0 km/h
1197 13-08-2008 07:49:02 16.6 C 8.33 g/m*3 16.6 C 0 km/h
1198 13-08-2008 08:01:02 16.5 C 8.43 g/m*3 16.5 C 0 km/h
1199 13-08-2008 08:13:02 16.6 C 8.33 g/m*3 16.6 C 0 km/h
1200 13-08-2008 08:25:02 16.8 C 8.44 g/m*3 16.8 C 0 km/h
Sensor: Nr:Datum:Temp:Abs-Feuchte:Windchill:Wind:
Aussen-T/F 1201 13-08-2008 08:37:02 16.9 C 8.2 g/m*3 16.9 C 0 km/h
1202 13-08-2008 08:49:01 16.8 C 8.15 g/m*3 16.8 C 0 km/h
1203 13-08-2008 09:01:02 17.1 C 8.01 g/m*3 17.1 C 0 km/h
1204 13-08-2008 09:13:02 17.4 C 8.15 g/m*3 17.4 C 0 km/h
1205 13-08-2008 09:25:02 17.7 C 8 g/m*3 17.7 C 0 km/h
1206 13-08-2008 09:37:02 17.6 C 8.1 g/m*3 17.6 C 0 km/h
1207 13-08-2008 09:49:02 17.6 C 7.95 g/m*3 17.6 C 0 km/h
1208 13-08-2008 10:01:02 18.1 C 7.88 g/m*3 18.1 C 0 km/h
1209 13-08-2008 10:13:03 18.3 C 7.82 g/m*3 18.3 C 0 km/h
1210 13-08-2008 10:25:02 18.3 C 7.97 g/m*3 18.3 C 0 km/h
1211 13-08-2008 10:37:02 18.5 C 7.91 g/m*3 18.5 C 0 km/h
1212 13-08-2008 10:49:02 17 C 8.54 g/m*3 17 C 0 km/h
1213 13-08-2008 11:01:03 17.2 C 9.08 g/m*3 17.2 C 0 km/h
1214 13-08-2008 11:13:03 18.1 C 9.12 g/m*3 18.1 C 0 km/h
1215 13-08-2008 11:25:02 18.3 C 8.6 g/m*3 18.3 C 0 km/h
1216 13-08-2008 11:37:03 19.3 C 8.46 g/m*3 19.3 C 0 km/h
1217 13-08-2008 11:49:02 19.7 C 8.15 g/m*3 19.7 C 0 km/h
1218 13-08-2008 12:01:02 20 C 8.12 g/m*3 20 C 0 km/h
1219 13-08-2008 12:13:02 20 C 7.78 g/m*3 20 C 0 km/h
1220 13-08-2008 12:25:02 19.7 C 7.47 g/m*3 19.7 C 0 km/h
1221 13-08-2008 12:37:02 20.7 C 7.74 g/m*3 20.7 C 0 km/h
1222 13-08-2008 12:49:03 21.3 C 7.46 g/m*3 21.3 C 0 km/h
1223 13-08-2008 13:01:02 20.8 C 7.24 g/m*3 20.8 C 0 km/h
1224 13-08-2008 13:13:02 21.2 C 7.41 g/m*3 21.2 C 0 km/h
1225 13-08-2008 13:25:02 21.4 C 7.5 g/m*3 21.4 C 0 km/h
Sensor: Nr:Datum:Temp:Abs-Feuchte:Windchill:Wind:
Aussen-T/F 1226 13-08-2008 13:37:02 21.2 C 7.41 g/m*3 21.2 C 0 km/h
1227 13-08-2008 13:49:02 21.2 C 7.41 g/m*3 21.2 C 0 km/h
1228 13-08-2008 14:01:02 21.6 C 7.59 g/m*3 21.6 C 0 km/h
1229 13-08-2008 14:13:02 21.7 C 7.82 g/m*3 21.7 C 0 km/h
1230 13-08-2008 14:25:02 22.5 C 7.59 g/m*3 22.5 C 0 km/h
1231 13-08-2008 14:37:02 22 C 7.38 g/m*3 22 C 0 km/h
1232 13-08-2008 14:49:02 21.6 C 7.59 g/m*3 21.6 C 0 km/h
1233 13-08-2008 15:01:02 19.1 C 6.56 g/m*3 19.1 C 0 km/h
1234 13-08-2008 15:13:02 19.1 C 10.98 g/m*3 19.1 C 0 km/h
1235 13-08-2008 15:25:02 20.5 C 10.32 g/m*3 20.5 C 0 km/h
1236 13-08-2008 15:37:02 20.4 C 9.38 g/m*3 20.4 C 0 km/h
1237 13-08-2008 15:49:02 22.2 C 8.83 g/m*3 22.2 C 0 km/h
1238 13-08-2008 16:01:02 22.6 C 8.24 g/m*3 22.6 C 0 km/h
1239 13-08-2008 16:13:02 23.6 C 7.87 g/m*3 23.6 C 0 km/h
1240 13-08-2008 16:25:02 23.5 C 6.98 g/m*3 23.5 C 0 km/h
1241 13-08-2008 16:37:02 23.8 C 6.88 g/m*3 23.8 C 0 km/h
1242 13-08-2008 16:49:02 24.3 C 6.86 g/m*3 24.3 C 0 km/h
1243 13-08-2008 17:01:02 24.1 C 6.35 g/m*3 24.1 C 0 km/h
1244 13-08-2008 17:13:02 23.5 C 6.56 g/m*3 23.5 C 0 km/h
1245 13-08-2008 17:25:02 24.3 C 6.64 g/m*3 24.3 C 0 km/h
1246 13-08-2008 17:37:02 23.8 C 6.45 g/m*3 23.8 C 0 km/h
1247 13-08-2008 17:49:02 23.4 C 6.52 g/m*3 23.4 C 0 km/h
1248 13-08-2008 18:01:02 23.3 C 6.48 g/m*3 23.3 C 0 km/h
1249 13-08-2008 18:13:02 23.6 C 6.59 g/m*3 23.6 C 0 km/h
1250 13-08-2008 18:25:02 23.5 C 6.56 g/m*3 23.5 C 0 km/h
Sensor: Nr:Datum:Temp:Abs-Feuchte:Windchill:Wind:
Aussen-T/F 1251 13-08-2008 18:37:02 22.6 C 6.63 g/m*3 22.6 C 0 km/h
1252 13-08-2008 18:49:02 22 C 6.79 g/m*3 22 C 0 km/h
1253 13-08-2008 19:01:02 21.6 C 7.59 g/m*3 21.6 C 0 km/h
1254 13-08-2008 19:13:02 21.7 C 7.25 g/m*3 21.7 C 0 km/h
1255 13-08-2008 19:25:02 21.6 C 6.83 g/m*3 21.6 C 0 km/h
1256 13-08-2008 19:37:02 21.3 C 6.9 g/m*3 21.3 C 0 km/h
1257 13-08-2008 19:49:01 21.2 C 7.04 g/m*3 21.2 C 0 km/h
1258 13-08-2008 20:01:02 19.4 C 8.01 g/m*3 19.4 C 0 km/h
1259 13-08-2008 20:13:02 19.5 C 8.39 g/m*3 19.5 C 0 km/h
1260 13-08-2008 20:25:01 19.5 C 8.56 g/m*3 19.5 C 0 km/h
1261 13-08-2008 20:37:02 19.6 C 8.44 g/m*3 19.6 C 0 km/h
1262 13-08-2008 20:49:02 19.5 C 8.39 g/m*3 19.5 C 0 km/h
1263 13-08-2008 21:01:02 19.7 C 6.96 g/m*3 19.7 C 0 km/h
1264 13-08-2008 21:13:02 19.8 C 6.83 g/m*3 19.8 C 0 km/h
1265 13-08-2008 21:25:02 19.5 C 6.88 g/m*3 19.5 C 0 km/h
1266 13-08-2008 21:37:03 18.8 C 7.41 g/m*3 18.8 C 0 km/h
1267 13-08-2008 21:50:04 18.7 C 7.52 g/m*3 18.7 C 0 km/h
1268 13-08-2008 22:02:04 18.3 C 7.66 g/m*3 18.3 C 0 km/h
1269 13-08-2008 22:14:04 18.3 C 7.66 g/m*3 18.3 C 0 km/h
1270 13-08-2008 22:26:04 18.4 C 7.55 g/m*3 18.4 C 0 km/h
1271 13-08-2008 22:38:04 18 C 7.68 g/m*3 18 C 0 km/h
1272 13-08-2008 22:50:04 17.8 C 7.89 g/m*3 17.8 C 0 km/h
1273 13-08-2008 23:02:04 17.8 C 7.74 g/m*3 17.8 C 0 km/h
1274 13-08-2008 23:14:04 17.4 C 7.85 g/m*3 17.4 C 0 km/h
1275 13-08-2008 23:26:04 17.3 C 7.96 g/m*3 17.3 C 0 km/h
Sensor: Nr:Datum:Temp:Abs-Feuchte:Windchill:Wind:
Aussen-T/F 1276 13-08-2008 23:38:04 17.1 C 8.01 g/m*3 17.1 C 0 km/h
1277 13-08-2008 23:50:04 17 C 8.25 g/m*3 17 C 0 km/h
1278 14-08-2008 00:02:04 17.1 C 8.3 g/m*3 17.1 C 0 km/h
1279 14-08-2008 00:14:04 16.8 C 8.29 g/m*3 16.8 C 0 km/h
1280 14-08-2008 00:26:04 16.4 C 8.23 g/m*3 16.4 C 0 km/h
1281 14-08-2008 00:38:04 16.2 C 8.27 g/m*3 16.2 C 0 km/h
1282 14-08-2008 00:50:04 16.4 C 8.51 g/m*3 16.4 C 0 km/h
1283 14-08-2008 01:02:04 16.4 C 8.51 g/m*3 16.4 C 0 km/h
1284 14-08-2008 01:14:04 16.4 C 8.65 g/m*3 16.4 C 0 km/h
1285 14-08-2008 01:26:05 16.1 C 8.5 g/m*3 16.1 C 0 km/h
1286 14-08-2008 01:38:05 15.9 C 8.67 g/m*3 15.9 C 0 km/h
1287 14-08-2008 01:50:05 15.8 C 8.62 g/m*3 15.8 C 0 km/h
1288 14-08-2008 02:02:05 16 C 8.58 g/m*3 16 C 0 km/h
1289 14-08-2008 02:14:05 16 C 8.58 g/m*3 16 C 0 km/h
1290 14-08-2008 02:26:05 15.8 C 8.62 g/m*3 15.8 C 0 km/h
1291 14-08-2008 02:38:05 15.4 C 8.67 g/m*3 15.4 C 0 km/h
1292 14-08-2008 02:50:05 15.3 C 8.88 g/m*3 15.3 C 0 km/h
1293 14-08-2008 03:02:05 15.1 C 8.77 g/m*3 15.1 C 0 km/h
1294 14-08-2008 03:14:05 15 C 8.85 g/m*3 15 C 0 km/h
1295 14-08-2008 03:26:05 14.9 C 8.92 g/m*3 14.9 C 0 km/h
1296 14-08-2008 03:38:05 14.8 C 8.99 g/m*3 14.8 C 0 km/h
1297 14-08-2008 03:50:05 14.7 C 8.94 g/m*3 14.7 C 0 km/h
1298 14-08-2008 04:02:05 14.5 C 8.95 g/m*3 14.5 C 0 km/h
1299 14-08-2008 04:14:05 14.5 C 9.08 g/m*3 14.5 C 0 km/h
1300 14-08-2008 04:26:05 14.3 C 8.97 g/m*3 14.3 C 0 km/h
Sensor: Nr:Datum:Temp:Abs-Feuchte:Windchill:Wind:
Aussen-T/F 1301 14-08-2008 04:38:05 14.1 C 8.98 g/m*3 14.1 C 0 km/h
1302 14-08-2008 04:50:05 13.9 C 8.99 g/m*3 13.9 C 0 km/h
1303 14-08-2008 05:02:05 13.9 C 9.11 g/m*3 13.9 C 0 km/h
1304 14-08-2008 05:14:05 13.8 C 9.17 g/m*3 13.8 C 0 km/h
1305 14-08-2008 05:26:05 13.6 C 9.06 g/m*3 13.6 C 0 km/h
1306 14-08-2008 05:38:06 13.6 C 9.06 g/m*3 13.6 C 0 km/h
1307 14-08-2008 05:50:06 13.5 C 9.12 g/m*3 13.5 C 0 km/h
1308 14-08-2008 06:02:06 13.6 C 9.06 g/m*3 13.6 C 0 km/h
1309 14-08-2008 06:14:06 13.6 C 9.06 g/m*3 13.6 C 0 km/h
1310 14-08-2008 06:26:03 13.7 C 9.12 g/m*3 13.7 C 0 km/h
1311 14-08-2008 06:38:04 13.7 C 9.12 g/m*3 13.7 C 0 km/h
1312 14-08-2008 06:50:02 13.7 C 9.12 g/m*3 13.7 C 0 km/h
1313 14-08-2008 07:02:02 13.8 C 9.06 g/m*3 13.8 C 0 km/h
1314 14-08-2008 07:14:02 13.8 C 9.06 g/m*3 13.8 C 0 km/h
1315 14-08-2008 07:26:02 13.8 C 9.06 g/m*3 13.8 C 0 km/h
1316 14-08-2008 07:38:01 14 C 9.05 g/m*3 14 C 0 km/h
1317 14-08-2008 07:50:02 14.1 C 9.1 g/m*3 14.1 C 0 km/h
1318 14-08-2008 08:02:01 14.3 C 8.97 g/m*3 14.3 C 0 km/h
1319 14-08-2008 08:14:01 14.5 C 9.08 g/m*3 14.5 C 0 km/h
1320 14-08-2008 08:26:02 14.6 C 9.13 g/m*3 14.6 C 0 km/h
1321 14-08-2008 08:38:01 14.9 C 9.05 g/m*3 14.9 C 0 km/h
1322 14-08-2008 08:50:02 15.4 C 8.41 g/m*3 15.4 C 0 km/h
1323 14-08-2008 09:02:01 15.8 C 8.21 g/m*3 15.8 C 0 km/h
1324 14-08-2008 09:14:01 16.1 C 7.95 g/m*3 16.1 C 0 km/h
1325 14-08-2008 09:26:02 16.4 C 7.82 g/m*3 16.4 C 0 km/h
Sensor: Nr:Datum:Temp:Abs-Feuchte:Windchill:Wind:
Aussen-T/F 1326 14-08-2008 09:38:02 16.8 C 7.15 g/m*3 16.8 C 0 km/h
1327 14-08-2008 09:50:02 17.1 C 7.13 g/m*3 17.1 C 0 km/h
1328 14-08-2008 10:02:02 17.4 C 7.11 g/m*3 17.4 C 0 km/h
1329 14-08-2008 10:14:02 17.8 C 7.13 g/m*3 17.8 C 0 km/h
1330 14-08-2008 10:26:01 18.1 C 7.11 g/m*3 18.1 C 0 km/h
1331 14-08-2008 10:38:02 18.3 C 6.88 g/m*3 18.3 C 0 km/h
1332 14-08-2008 10:50:02 18.8 C 7.09 g/m*3 18.8 C 0 km/h
1333 14-08-2008 11:02:02 19.1 C 7.05 g/m*3 19.1 C 0 km/h
1334 14-08-2008 11:14:02 19.5 C 7.05 g/m*3 19.5 C 0 km/h
1335 14-08-2008 11:26:02 19.8 C 7 g/m*3 19.8 C 0 km/h
1336 14-08-2008 11:38:02 20.3 C 7.03 g/m*3 20.3 C 0 km/h
1337 14-08-2008 11:50:02 20.4 C 6.72 g/m*3 20.4 C 0 km/h
1338 14-08-2008 12:02:02 20.8 C 6.34 g/m*3 20.8 C 0 km/h
1339 14-08-2008 12:14:02 21.2 C 6.12 g/m*3 21.2 C 0 km/h
1340 14-08-2008 12:26:01 22 C 6.02 g/m*3 22 C 0 km/h
1341 14-08-2008 12:38:02 21.9 C 5.79 g/m*3 21.9 C 0 km/h
1342 14-08-2008 12:50:02 22 C 5.43 g/m*3 22 C 0 km/h
1343 14-08-2008 13:02:02 22.9 C 6.13 g/m*3 22.9 C 0 km/h
1344 14-08-2008 13:14:02 23.2 C 6.03 g/m*3 23.2 C 0 km/h
1345 14-08-2008 13:26:02 23.4 C 6.31 g/m*3 23.4 C 0 km/h
1346 14-08-2008 13:38:02 24 C 6.09 g/m*3 24 C 0 km/h
1347 14-08-2008 13:50:02 23.4 C 6.31 g/m*3 23.4 C 0 km/h
1348 14-08-2008 14:02:01 23.4 C 5.89 g/m*3 23.4 C 0 km/h
1349 14-08-2008 14:14:01 23.1 C 5.79 g/m*3 23.1 C 0 km/h
1350 14-08-2008 14:26:02 23 C 5.76 g/m*3 23 C 0 km/h
Sensor: Nr:Datum:Temp:Abs-Feuchte:Windchill:Wind:
Aussen-T/F 1351 14-08-2008 14:38:01 23.4 C 6.1 g/m*3 23.4 C 0 km/h
1352 14-08-2008 14:50:02 24.1 C 5.69 g/m*3 24.1 C 0 km/h
1353 14-08-2008 15:02:01 24.3 C 5.53 g/m*3 24.3 C 0 km/h
1354 14-08-2008 15:14:01 24.2 C 5.5 g/m*3 24.2 C 0 km/h
1355 14-08-2008 15:26:02 24.4 C 5.56 g/m*3 24.4 C 0 km/h
1356 14-08-2008 15:38:01 24.5 C 5.6 g/m*3 24.5 C 0 km/h
1357 14-08-2008 15:50:01 24.8 C 5.46 g/m*3 24.8 C 0 km/h
1358 14-08-2008 16:02:01 25.2 C 5.35 g/m*3 25.2 C 0 km/h
1359 14-08-2008 16:14:01 25.1 C 5.56 g/m*3 25.1 C 0 km/h
1360 14-08-2008 16:26:01 25.5 C 5.21 g/m*3 25.5 C 0 km/h
1361 14-08-2008 16:38:01 25.6 C 5 g/m*3 25.6 C 0 km/h
1362 14-08-2008 16:50:01 26.2 C 5.17 g/m*3 26.2 C 0 km/h
1363 14-08-2008 17:02:02 25.1 C 5.09 g/m*3 25.1 C 0 km/h
1364 14-08-2008 17:14:03 26.7 C 5.06 g/m*3 26.7 C 0 km/h
1365 14-08-2008 17:26:01 26.5 C 5.01 g/m*3 26.5 C 0 km/h
1366 14-08-2008 17:38:02 26.7 C 5.06 g/m*3 26.7 C 0 km/h
1367 14-08-2008 17:50:01 26.6 C 5.03 g/m*3 26.6 C 0 km/h
1368 14-08-2008 18:02:02 26.7 C 5.06 g/m*3 26.7 C 0 km/h
1369 14-08-2008 18:14:02 26.8 C 5.09 g/m*3 26.8 C 0 km/h
1370 14-08-2008 18:26:01 26.8 C 5.09 g/m*3 26.8 C 0 km/h
1371 14-08-2008 18:38:02 26.2 C 4.92 g/m*3 26.2 C 0 km/h
1372 14-08-2008 18:50:02 26.4 C 4.98 g/m*3 26.4 C 0 km/h
1373 14-08-2008 19:02:02 25.8 C 4.82 g/m*3 25.8 C 0 km/h
1374 14-08-2008 19:14:02 25.1 C 5.09 g/m*3 25.1 C 0 km/h
1375 14-08-2008 19:26:02 23.8 C 5.59 g/m*3 23.8 C 0 km/h
Sensor: Nr:Datum:Temp:Abs-Feuchte:Windchill:Wind:
Aussen-T/F 1376 14-08-2008 19:38:02 23.7 C 5.56 g/m*3 23.7 C 0 km/h
1377 14-08-2008 19:50:01 23.6 C 5.96 g/m*3 23.6 C 0 km/h
1378 14-08-2008 20:02:02 22.8 C 5.69 g/m*3 22.8 C 0 km/h
1379 14-08-2008 20:14:02 22.6 C 6.03 g/m*3 22.6 C 0 km/h
1380 14-08-2008 20:26:01 21.8 C 5.95 g/m*3 21.8 C 0 km/h
1381 14-08-2008 20:38:02 20.9 C 6.19 g/m*3 20.9 C 0 km/h
1382 14-08-2008 20:50:02 20.5 C 6.23 g/m*3 20.5 C 0 km/h
1383 14-08-2008 21:02:02 19.9 C 6.19 g/m*3 19.9 C 0 km/h
1384 14-08-2008 21:14:02 19.4 C 6.17 g/m*3 19.4 C 0 km/h
1385 14-08-2008 21:26:02 19 C 6.03 g/m*3 19 C 0 km/h
1386 14-08-2008 21:38:01 18.8 C 6.6 g/m*3 18.8 C 0 km/h
1387 14-08-2008 21:51:03 18.6 C 6.68 g/m*3 18.6 C 0 km/h
1388 14-08-2008 22:03:03 18.3 C 6.88 g/m*3 18.3 C 0 km/h
1389 14-08-2008 22:15:03 18.1 C 6.8 g/m*3 18.1 C 0 km/h
1390 14-08-2008 22:27:03 18.1 C 6.64 g/m*3 18.1 C 0 km/h
1391 14-08-2008 22:39:03 17.9 C 6.87 g/m*3 17.9 C 0 km/h
1392 14-08-2008 22:51:03 17.5 C 7.01 g/m*3 17.5 C 0 km/h
1393 14-08-2008 23:03:03 17.5 C 7.01 g/m*3 17.5 C 0 km/h
1394 14-08-2008 23:15:03 17.4 C 7.41 g/m*3 17.4 C 0 km/h
1395 14-08-2008 23:27:03 17.2 C 7.47 g/m*3 17.2 C 0 km/h
1396 14-08-2008 23:39:03 17 C 7.38 g/m*3 17 C 0 km/h
1397 14-08-2008 23:51:03 17.1 C 7.42 g/m*3 17.1 C 0 km/h
1398 15-08-2008 00:03:03 17 C 7.38 g/m*3 17 C 0 km/h
1399 15-08-2008 00:15:03 17 C 7.52 g/m*3 17 C 0 km/h
1400 15-08-2008 00:27:03 16.8 C 7.72 g/m*3 16.8 C 0 km/h
Sensor: Nr:Datum:Temp:Abs-Feuchte:Windchill:Wind:
Aussen-T/F 1401 15-08-2008 00:39:03 16.8 C 7.58 g/m*3 16.8 C 0 km/h
1402 15-08-2008 00:51:03 16.7 C 7.67 g/m*3 16.7 C 0 km/h
1403 15-08-2008 01:03:03 16.6 C 7.63 g/m*3 16.6 C 0 km/h
1404 15-08-2008 01:15:04 16.7 C 7.67 g/m*3 16.7 C 0 km/h
1405 15-08-2008 01:27:04 16.5 C 7.72 g/m*3 16.5 C 0 km/h
1406 15-08-2008 01:39:04 16.3 C 7.77 g/m*3 16.3 C 0 km/h
1407 15-08-2008 01:51:04 16.1 C 7.68 g/m*3 16.1 C 0 km/h
1408 15-08-2008 02:03:04 16.1 C 7.68 g/m*3 16.1 C 0 km/h
1409 15-08-2008 02:15:04 16 C 7.77 g/m*3 16 C 0 km/h
1410 15-08-2008 02:27:04 15.9 C 7.99 g/m*3 15.9 C 0 km/h
1411 15-08-2008 02:39:04 15.7 C 7.89 g/m*3 15.7 C 0 km/h
1412 15-08-2008 02:51:04 15.6 C 7.85 g/m*3 15.6 C 0 km/h
1413 15-08-2008 03:03:04 15.6 C 7.98 g/m*3 15.6 C 0 km/h
1414 15-08-2008 03:15:04 15.5 C 8.06 g/m*3 15.5 C 0 km/h
1415 15-08-2008 03:27:04 15.5 C 8.06 g/m*3 15.5 C 0 km/h
1416 15-08-2008 03:39:04 15.2 C 8.05 g/m*3 15.2 C 0 km/h
1417 15-08-2008 03:51:04 15.2 C 8.18 g/m*3 15.2 C 0 km/h
1418 15-08-2008 04:03:04 14.9 C 8.28 g/m*3 14.9 C 0 km/h
1419 15-08-2008 04:15:04 14.7 C 8.31 g/m*3 14.7 C 0 km/h
1420 15-08-2008 04:27:04 14.5 C 8.33 g/m*3 14.5 C 0 km/h
1421 15-08-2008 04:39:04 14.6 C 8.38 g/m*3 14.6 C 0 km/h
1422 15-08-2008 04:51:04 14.6 C 8.38 g/m*3 14.6 C 0 km/h
1423 15-08-2008 05:03:05 14.5 C 8.33 g/m*3 14.5 C 0 km/h
1424 15-08-2008 05:15:05 14.3 C 8.35 g/m*3 14.3 C 0 km/h
1425 15-08-2008 05:27:05 14 C 8.32 g/m*3 14 C 0 km/h
Sensor: Nr:Datum:Temp:Abs-Feuchte:Windchill:Wind:
Aussen-T/F 1426 15-08-2008 05:39:05 13.8 C 8.46 g/m*3 13.8 C 0 km/h
1427 15-08-2008 05:51:05 13.8 C 8.46 g/m*3 13.8 C 0 km/h
1428 15-08-2008 06:03:05 13.7 C 8.53 g/m*3 13.7 C 0 km/h
1429 15-08-2008 06:15:05 13.6 C 8.47 g/m*3 13.6 C 0 km/h
1430 15-08-2008 06:27:05 13.6 C 8.47 g/m*3 13.6 C 0 km/h
1431 15-08-2008 06:39:05 13.5 C 8.54 g/m*3 13.5 C 0 km/h
1432 15-08-2008 06:51:01 13.5 C 8.54 g/m*3 13.5 C 0 km/h
1433 15-08-2008 07:03:02 13.4 C 8.6 g/m*3 13.4 C 0 km/h
1434 15-08-2008 07:15:01 13.3 C 8.55 g/m*3 13.3 C 0 km/h
1435 15-08-2008 07:27:01 13 C 8.51 g/m*3 13 C 0 km/h
1436 15-08-2008 07:39:02 12.8 C 8.62 g/m*3 12.8 C 0 km/h
1437 15-08-2008 07:51:02 12.8 C 8.74 g/m*3 12.8 C 0 km/h
1438 15-08-2008 08:03:02 12.9 C 8.79 g/m*3 12.9 C 0 km/h
1439 15-08-2008 08:15:02 13 C 8.73 g/m*3 13 C 0 km/h
1440 15-08-2008 08:27:02 13.3 C 8.9 g/m*3 13.3 C 0 km/h
1441 15-08-2008 08:39:02 13.5 C 8.77 g/m*3 13.5 C 0 km/h
1442 15-08-2008 08:51:02 13.8 C 8.82 g/m*3 13.8 C 0 km/h
1443 15-08-2008 09:03:03 14.1 C 8.86 g/m*3 14.1 C 0 km/h
1444 15-08-2008 09:15:02 14.4 C 8.65 g/m*3 14.4 C 0 km/h
1445 15-08-2008 09:27:03 15 C 8.98 g/m*3 15 C 0 km/h
1446 15-08-2008 09:39:02 16 C 8.86 g/m*3 16 C 0 km/h
1447 15-08-2008 09:51:02 16.8 C 8.72 g/m*3 16.8 C 0 km/h
1448 15-08-2008 10:03:02 17.2 C 8.05 g/m*3 17.2 C 0 km/h
1449 15-08-2008 10:15:02 17.7 C 8.15 g/m*3 17.7 C 0 km/h
1450 15-08-2008 10:27:02 18.1 C 8.19 g/m*3 18.1 C 0 km/h
Sensor: Nr:Datum:Temp:Abs-Feuchte:Windchill:Wind:
Aussen-T/F 1451 15-08-2008 10:39:02 18.4 C 8.02 g/m*3 18.4 C 0 km/h
1452 15-08-2008 10:51:01 18.9 C 7.94 g/m*3 18.9 C 0 km/h
1453 15-08-2008 11:03:02 19.3 C 7.3 g/m*3 19.3 C 0 km/h
1454 15-08-2008 11:15:01 19.9 C 7.56 g/m*3 19.9 C 0 km/h
1455 15-08-2008 11:27:01 20.6 C 7.52 g/m*3 20.6 C 0 km/h
1456 15-08-2008 11:39:01 20.8 C 7.42 g/m*3 20.8 C 0 km/h
1457 15-08-2008 11:51:02 20.5 C 7.3 g/m*3 20.5 C 0 km/h
1458 15-08-2008 12:03:02 21.2 C 7.23 g/m*3 21.2 C 0 km/h
1459 15-08-2008 12:15:02 22.1 C 7.22 g/m*3 22.1 C 0 km/h
1460 15-08-2008 12:27:02 22.8 C 7.52 g/m*3 22.8 C 0 km/h
1461 15-08-2008 12:39:02 23 C 6.99 g/m*3 23 C 0 km/h
1462 15-08-2008 12:51:02 22.7 C 7.07 g/m*3 22.7 C 0 km/h
1463 15-08-2008 13:03:03 21.6 C 7.21 g/m*3 21.6 C 0 km/h
1464 15-08-2008 13:15:02 22 C 6.79 g/m*3 22 C 0 km/h
1465 15-08-2008 13:27:02 21.7 C 6.87 g/m*3 21.7 C 0 km/h
1466 15-08-2008 13:39:03 22.1 C 6.83 g/m*3 22.1 C 0 km/h
1467 15-08-2008 13:51:02 22.7 C 6.67 g/m*3 22.7 C 0 km/h
1468 15-08-2008 14:03:01 22.3 C 7.7 g/m*3 22.3 C 0 km/h
1469 15-08-2008 14:15:02 19.6 C 8.61 g/m*3 19.6 C 0 km/h
1470 15-08-2008 14:27:02 19.2 C 8.08 g/m*3 19.2 C 0 km/h
1471 15-08-2008 14:39:01 19.7 C 7.81 g/m*3 19.7 C 0 km/h
1472 15-08-2008 14:51:02 20.5 C 8.36 g/m*3 20.5 C 0 km/h
1473 15-08-2008 15:03:01 22.7 C 7.07 g/m*3 22.7 C 0 km/h
1474 15-08-2008 15:21:02 20.6 C 7.87 g/m*3 20.6 C 0 km/h
1475 15-08-2008 15:33:01 20.7 C 8.1 g/m*3 20.7 C 0 km/h
Sensor: Nr:Datum:Temp:Abs-Feuchte:Windchill:Wind:
Aussen-T/F 1476 15-08-2008 15:45:02 22 C 8.15 g/m*3 22 C 0 km/h
1477 15-08-2008 15:57:02 22.6 C 7.23 g/m*3 22.6 C 0 km/h
1478 15-08-2008 16:09:01 22.9 C 7.56 g/m*3 22.9 C 0 km/h
1479 15-08-2008 16:21:02 23.6 C 7.02 g/m*3 23.6 C 0 km/h
1480 15-08-2008 16:33:01 24.8 C 6.83 g/m*3 24.8 C 0 km/h
1481 15-08-2008 16:45:01 26.1 C 6.12 g/m*3 26.1 C 0 km/h
1482 15-08-2008 16:57:01 24.8 C 6.15 g/m*3 24.8 C 0 km/h
1483 15-08-2008 17:09:01 23.8 C 6.67 g/m*3 23.8 C 0 km/h
1484 15-08-2008 17:21:01 24.4 C 6.9 g/m*3 24.4 C 0 km/h
1485 15-08-2008 17:33:01 25.3 C 6.55 g/m*3 25.3 C 0 km/h
1486 15-08-2008 17:45:01 24.3 C 7.08 g/m*3 24.3 C 0 km/h
1487 15-08-2008 17:57:01 23.6 C 7.44 g/m*3 23.6 C 0 km/h
1488 15-08-2008 18:09:02 24 C 6.74 g/m*3 24 C 0 km/h
1489 15-08-2008 18:21:01 24 C 6.96 g/m*3 24 C 0 km/h
1490 15-08-2008 18:33:02 23.4 C 6.94 g/m*3 23.4 C 0 km/h
1491 15-08-2008 18:45:03 23.8 C 6.88 g/m*3 23.8 C 0 km/h
1492 15-08-2008 18:57:03 24.1 C 7 g/m*3 24.1 C 0 km/h
1493 15-08-2008 19:09:02 24.6 C 6.98 g/m*3 24.6 C 0 km/h
1494 15-08-2008 19:21:02 24.6 C 6.75 g/m*3 24.6 C 0 km/h
1495 15-08-2008 19:33:02 24.7 C 7.02 g/m*3 24.7 C 0 km/h
1496 15-08-2008 19:45:01 24.2 C 7.26 g/m*3 24.2 C 0 km/h
1497 15-08-2008 19:57:01 22 C 7.38 g/m*3 22 C 0 km/h
1498 15-08-2008 20:09:02 20.6 C 7.52 g/m*3 20.6 C 0 km/h
1499 15-08-2008 20:21:01 19.9 C 7.56 g/m*3 19.9 C 0 km/h
1500 15-08-2008 20:33:02 19.4 C 7.51 g/m*3 19.4 C 0 km/h
Sensor: Nr:Datum:Temp:Abs-Feuchte:Windchill:Wind:
Aussen-T/F 1501 15-08-2008 20:45:03 19.1 C 7.54 g/m*3 19.1 C 0 km/h
1502 15-08-2008 20:57:03 18.9 C 7.78 g/m*3 18.9 C 0 km/h
1503 15-08-2008 21:09:02 18.4 C 7.86 g/m*3 18.4 C 0 km/h
1504 15-08-2008 21:21:02 18.1 C 7.57 g/m*3 18.1 C 0 km/h
1505 15-08-2008 21:33:02 18.2 C 8.08 g/m*3 18.2 C 0 km/h
1506 15-08-2008 21:45:01 18 C 7.99 g/m*3 18 C 0 km/h
1507 15-08-2008 21:57:01 17.7 C 8.6 g/m*3 17.7 C 0 km/h
1508 15-08-2008 22:10:03 17.1 C 9.03 g/m*3 17.1 C 0 km/h
1509 15-08-2008 22:22:03 17.1 C 8.88 g/m*3 17.1 C 0 km/h
1510 15-08-2008 22:34:03 16.8 C 8.72 g/m*3 16.8 C 0 km/h
1511 15-08-2008 22:46:03 16.7 C 8.67 g/m*3 16.7 C 0 km/h
1512 15-08-2008 22:58:03 17 C 8.25 g/m*3 17 C 0 km/h
1513 15-08-2008 23:10:03 17 C 8.25 g/m*3 17 C 0 km/h
1514 15-08-2008 23:22:03 16.7 C 8.38 g/m*3 16.7 C 0 km/h
1515 15-08-2008 23:34:03 16.3 C 8.32 g/m*3 16.3 C 0 km/h
1516 15-08-2008 23:46:04 16 C 8.31 g/m*3 16 C 0 km/h
1517 15-08-2008 23:58:04 15.8 C 8.35 g/m*3 15.8 C 0 km/h
1518 16-08-2008 00:10:04 15.4 C 8.41 g/m*3 15.4 C 0 km/h
1519 16-08-2008 00:22:04 15.4 C 8.41 g/m*3 15.4 C 0 km/h
1520 16-08-2008 00:34:04 15.1 C 8.51 g/m*3 15.1 C 0 km/h
1521 16-08-2008 00:46:04 14.8 C 8.36 g/m*3 14.8 C 0 km/h
1522 16-08-2008 00:58:04 14.7 C 8.56 g/m*3 14.7 C 0 km/h
1523 16-08-2008 01:10:04 14.4 C 8.65 g/m*3 14.4 C 0 km/h
1524 16-08-2008 01:22:04 14.1 C 8.5 g/m*3 14.1 C 0 km/h
1525 16-08-2008 01:34:04 14.1 C 8.62 g/m*3 14.1 C 0 km/h
Sensor: Nr:Datum:Temp:Abs-Feuchte:Windchill:Wind:
Aussen-T/F 1526 16-08-2008 01:46:04 13.9 C 8.63 g/m*3 13.9 C 0 km/h
1527 16-08-2008 01:58:04 13.9 C 8.75 g/m*3 13.9 C 0 km/h
1528 16-08-2008 02:10:04 13.7 C 8.64 g/m*3 13.7 C 0 km/h
1529 16-08-2008 02:22:04 13.5 C 8.66 g/m*3 13.5 C 0 km/h
1530 16-08-2008 02:34:04 13.4 C 8.6 g/m*3 13.4 C 0 km/h
1531 16-08-2008 02:46:04 13.2 C 8.5 g/m*3 13.2 C 0 km/h
1532 16-08-2008 02:58:04 13.1 C 8.56 g/m*3 13.1 C 0 km/h
1533 16-08-2008 03:10:04 12.9 C 8.57 g/m*3 12.9 C 0 km/h
1534 16-08-2008 03:22:04 12.7 C 8.68 g/m*3 12.7 C 0 km/h
1535 16-08-2008 03:34:04 12.5 C 8.58 g/m*3 12.5 C 0 km/h
1536 16-08-2008 03:46:04 12.4 C 8.52 g/m*3 12.4 C 0 km/h
1537 16-08-2008 03:58:05 12.4 C 8.63 g/m*3 12.4 C 0 km/h
1538 16-08-2008 04:10:05 12.1 C 8.47 g/m*3 12.1 C 0 km/h
1539 16-08-2008 04:22:05 12 C 8.63 g/m*3 12 C 0 km/h
1540 16-08-2008 04:34:05 11.8 C 8.63 g/m*3 11.8 C 0 km/h
1541 16-08-2008 04:46:05 11.6 C 8.63 g/m*3 11.6 C 0 km/h
1542 16-08-2008 04:58:05 11.5 C 8.57 g/m*3 11.5 C 0 km/h
1543 16-08-2008 05:10:05 11.4 C 8.52 g/m*3 11.4 C 0 km/h
1544 16-08-2008 05:22:05 11.2 C 8.41 g/m*3 11.2 C 0 km/h
1545 16-08-2008 05:34:05 11.1 C 8.36 g/m*3 11.1 C 0 km/h
1546 16-08-2008 05:46:05 11 C 8.41 g/m*3 11 C 0 km/h
1547 16-08-2008 05:58:05 10.8 C 8.3 g/m*3 10.8 C 0 km/h
1548 16-08-2008 06:10:05 10.8 C 8.3 g/m*3 10.8 C 0 km/h
1549 16-08-2008 06:22:05 10.7 C 8.25 g/m*3 10.7 C 0 km/h
1550 16-08-2008 06:34:05 10.6 C 8.2 g/m*3 10.6 C 0 km/h
Sensor: Nr:Datum:Temp:Abs-Feuchte:Windchill:Wind:
Aussen-T/F 1551 16-08-2008 06:46:05 10.5 C 8.24 g/m*3 10.5 C 0 km/h
1552 16-08-2008 06:58:05 10.5 C 8.24 g/m*3 10.5 C 0 km/h
1553 16-08-2008 07:10:05 10.6 C 8.3 g/m*3 10.6 C 0 km/h
1554 16-08-2008 07:22:02 10.7 C 8.25 g/m*3 10.7 C 0 km/h
1555 16-08-2008 07:34:03 10.8 C 8.3 g/m*3 10.8 C 0 km/h
1556 16-08-2008 07:46:02 10.9 C 8.36 g/m*3 10.9 C 0 km/h
1557 16-08-2008 07:58:02 11 C 8.41 g/m*3 11 C 0 km/h
1558 16-08-2008 08:10:02 11.1 C 8.46 g/m*3 11.1 C 0 km/h
1559 16-08-2008 08:22:02 11.4 C 8.62 g/m*3 11.4 C 0 km/h
1560 16-08-2008 08:34:02 11.6 C 8.73 g/m*3 11.6 C 0 km/h
1561 16-08-2008 08:46:03 12 C 8.74 g/m*3 12 C 0 km/h
1562 16-08-2008 08:58:03 12.2 C 8.63 g/m*3 12.2 C 0 km/h
1563 16-08-2008 09:10:02 12.6 C 8.74 g/m*3 12.6 C 0 km/h
1564 16-08-2008 09:22:03 13 C 8.62 g/m*3 13 C 0 km/h
1565 16-08-2008 09:34:02 13.5 C 8.77 g/m*3 13.5 C 0 km/h
1566 16-08-2008 09:46:02 14.1 C 8.74 g/m*3 14.1 C 0 km/h
1567 16-08-2008 09:58:02 14.7 C 8.69 g/m*3 14.7 C 0 km/h
1568 16-08-2008 10:10:02 15.3 C 8.75 g/m*3 15.3 C 0 km/h
1569 16-08-2008 10:22:02 16.1 C 8.77 g/m*3 16.1 C 0 km/h
1570 16-08-2008 10:34:02 16.7 C 8.81 g/m*3 16.7 C 0 km/h
1571 16-08-2008 10:46:02 17.4 C 8.74 g/m*3 17.4 C 0 km/h
1572 16-08-2008 10:58:02 18.1 C 8.5 g/m*3 18.1 C 0 km/h
1573 16-08-2008 11:10:01 18.9 C 8.59 g/m*3 18.9 C 0 km/h
1574 16-08-2008 11:22:02 20 C 8.64 g/m*3 20 C 0 km/h
1575 16-08-2008 11:34:01 20.7 C 8.28 g/m*3 20.7 C 0 km/h
Sensor: Nr:Datum:Temp:Abs-Feuchte:Windchill:Wind:
Aussen-T/F 1576 16-08-2008 11:46:01 20.4 C 7.78 g/m*3 20.4 C 0 km/h
1577 16-08-2008 11:58:01 20.8 C 7.97 g/m*3 20.8 C 0 km/h
1578 16-08-2008 12:10:01 21.4 C 7.31 g/m*3 21.4 C 0 km/h
1579 16-08-2008 12:22:01 22.1 C 6.83 g/m*3 22.1 C 0 km/h
1580 16-08-2008 12:34:01 22.5 C 6.99 g/m*3 22.5 C 0 km/h
1581 16-08-2008 12:46:01 22.4 C 6.16 g/m*3 22.4 C 0 km/h
1582 16-08-2008 12:58:01 22.5 C 5.79 g/m*3 22.5 C 0 km/h
1583 16-08-2008 13:10:02 22.7 C 5.66 g/m*3 22.7 C 0 km/h
1584 16-08-2008 13:22:01 23.5 C 5.5 g/m*3 23.5 C 0 km/h
1585 16-08-2008 13:34:02 24.8 C 5.92 g/m*3 24.8 C 0 km/h
1586 16-08-2008 13:46:02 25.1 C 5.32 g/m*3 25.1 C 0 km/h
1587 16-08-2008 13:58:03 25.2 C 4.89 g/m*3 25.2 C 0 km/h
1588 16-08-2008 14:10:02 24.8 C 5.01 g/m*3 24.8 C 0 km/h
1589 16-08-2008 14:22:02 25.7 C 5.51 g/m*3 25.7 C 0 km/h
1590 16-08-2008 14:34:01 26.7 C 5.06 g/m*3 26.7 C 0 km/h
1591 16-08-2008 14:46:02 26.8 C 5.09 g/m*3 26.8 C 0 km/h
1592 16-08-2008 14:58:02 27.2 C 5.2 g/m*3 27.2 C 0 km/h
1593 16-08-2008 15:10:02 27.8 C 5.38 g/m*3 27.8 C 0 km/h
1594 16-08-2008 15:22:02 28.3 C 5.53 g/m*3 28.3 C 0 km/h
1595 16-08-2008 15:34:02 28.8 C 5.68 g/m*3 28.8 C 0 km/h
1596 16-08-2008 15:46:01 29.4 C 5.87 g/m*3 29.4 C 0 km/h
1597 16-08-2008 15:58:01 29.9 C 6.03 g/m*3 29.9 C 0 km/h
1598 16-08-2008 16:10:02 30.2 C 6.13 g/m*3 30.2 C 0 km/h
1599 16-08-2008 16:22:01 29.8 C 6 g/m*3 29.8 C 0 km/h
1600 16-08-2008 16:34:02 29.8 C 6 g/m*3 29.8 C 0 km/h
Sensor: Nr:Datum:Temp:Abs-Feuchte:Windchill:Wind:
Aussen-T/F 1601 16-08-2008 16:46:02 30.2 C 6.13 g/m*3 30.2 C 0 km/h
1602 16-08-2008 16:58:02 30.6 C 6.26 g/m*3 30.6 C 0 km/h
1603 16-08-2008 17:10:02 30.9 C 6.37 g/m*3 30.9 C 0 km/h
1604 16-08-2008 17:22:02 29.2 C 5.81 g/m*3 29.2 C 0 km/h
1605 16-08-2008 17:34:02 28.6 C 5.62 g/m*3 28.6 C 0 km/h
1606 16-08-2008 17:46:02 29 C 5.74 g/m*3 29 C 0 km/h
1607 16-08-2008 17:58:02 29.5 C 5.9 g/m*3 29.5 C 0 km/h
1608 16-08-2008 18:10:01 30.3 C 6.16 g/m*3 30.3 C 0 km/h
1609 16-08-2008 18:22:02 30.3 C 6.16 g/m*3 30.3 C 0 km/h
1610 16-08-2008 18:34:01 30.3 C 6.16 g/m*3 30.3 C 0 km/h
1611 16-08-2008 18:46:01 30.1 C 6.1 g/m*3 30.1 C 0 km/h
1612 16-08-2008 18:58:01 29.7 C 5.97 g/m*3 29.7 C 0 km/h
1613 16-08-2008 19:10:02 28.4 C 5.56 g/m*3 28.4 C 0 km/h
1614 16-08-2008 19:22:01 26.5 C 6.26 g/m*3 26.5 C 0 km/h
1615 16-08-2008 19:34:02 24.9 C 6.18 g/m*3 24.9 C 0 km/h
1616 16-08-2008 19:46:01 23.6 C 6.38 g/m*3 23.6 C 0 km/h
1617 16-08-2008 19:58:01 22.8 C 6.3 g/m*3 22.8 C 0 km/h
1618 16-08-2008 20:10:02 22 C 6.4 g/m*3 22 C 0 km/h
1619 16-08-2008 20:22:02 21.3 C 6.52 g/m*3 21.3 C 0 km/h
1620 16-08-2008 20:34:02 20.8 C 6.7 g/m*3 20.8 C 0 km/h
1621 16-08-2008 20:46:02 20.6 C 6.8 g/m*3 20.6 C 0 km/h
1622 16-08-2008 20:58:02 19.6 C 6.92 g/m*3 19.6 C 0 km/h
1623 16-08-2008 21:10:02 19.2 C 6.76 g/m*3 19.2 C 0 km/h
1624 16-08-2008 21:22:01 19 C 6.84 g/m*3 19 C 0 km/h
1625 16-08-2008 21:34:02 18.9 C 6.97 g/m*3 18.9 C 0 km/h
Sensor: Nr:Datum:Temp:Abs-Feuchte:Windchill:Wind:
Aussen-T/F 1626 16-08-2008 21:46:02 18.7 C 7.04 g/m*3 18.7 C 0 km/h
1627 16-08-2008 21:58:02 18.6 C 7.16 g/m*3 18.6 C 0 km/h
1628 16-08-2008 22:10:02 18.5 C 7.28 g/m*3 18.5 C 0 km/h
1629 16-08-2008 22:23:02 18.5 C 7.28 g/m*3 18.5 C 0 km/h
1630 16-08-2008 22:35:02 18.2 C 7.15 g/m*3 18.2 C 0 km/h
1631 16-08-2008 22:47:02 18.2 C 7.15 g/m*3 18.2 C 0 km/h
1632 16-08-2008 22:59:02 18 C 7.07 g/m*3 18 C 0 km/h
1633 16-08-2008 23:11:02 17.8 C 7.59 g/m*3 17.8 C 0 km/h
1634 16-08-2008 23:23:02 17.5 C 7.75 g/m*3 17.5 C 0 km/h
1635 16-08-2008 23:35:02 17.3 C 7.37 g/m*3 17.3 C 0 km/h
1636 16-08-2008 23:47:02 17.1 C 7.42 g/m*3 17.1 C 0 km/h
1637 16-08-2008 23:59:03 16.9 C 7.19 g/m*3 16.9 C 0 km/h
1638 17-08-2008 00:11:03 16.6 C 7.06 g/m*3 16.6 C 0 km/h
1639 17-08-2008 00:23:03 16.2 C 7.03 g/m*3 16.2 C 0 km/h
1640 17-08-2008 00:35:03 16.1 C 7.26 g/m*3 16.1 C 0 km/h
1641 17-08-2008 00:47:03 15.9 C 7.31 g/m*3 15.9 C 0 km/h
1642 17-08-2008 00:59:03 15.8 C 7.4 g/m*3 15.8 C 0 km/h
1643 17-08-2008 01:11:03 15.6 C 7.45 g/m*3 15.6 C 0 km/h
1644 17-08-2008 01:23:03 15.3 C 7.44 g/m*3 15.3 C 0 km/h
1645 17-08-2008 01:35:03 15.1 C 7.48 g/m*3 15.1 C 0 km/h
1646 17-08-2008 01:47:03 14.9 C 7.52 g/m*3 14.9 C 0 km/h
1647 17-08-2008 01:59:03 14.8 C 7.6 g/m*3 14.8 C 0 km/h
1648 17-08-2008 02:11:03 14.7 C 7.55 g/m*3 14.7 C 0 km/h
1649 17-08-2008 02:23:03 14.4 C 7.54 g/m*3 14.4 C 0 km/h
1650 17-08-2008 02:35:03 14.4 C 7.66 g/m*3 14.4 C 0 km/h
Sensor: Nr:Datum:Temp:Abs-Feuchte:Windchill:Wind:
Aussen-T/F 1651 17-08-2008 02:47:03 14.3 C 7.62 g/m*3 14.3 C 0 km/h
1652 17-08-2008 02:59:03 14.1 C 7.65 g/m*3 14.1 C 0 km/h
1653 17-08-2008 03:11:03 13.8 C 7.86 g/m*3 13.8 C 0 km/h
1654 17-08-2008 03:23:03 13.7 C 7.82 g/m*3 13.7 C 0 km/h
1655 17-08-2008 03:35:03 13.7 C 7.82 g/m*3 13.7 C 0 km/h
1656 17-08-2008 03:47:03 13.5 C 7.72 g/m*3 13.5 C 0 km/h
1657 17-08-2008 03:59:03 13.6 C 7.77 g/m*3 13.6 C 0 km/h
1658 17-08-2008 04:11:04 13.4 C 7.79 g/m*3 13.4 C 0 km/h
1659 17-08-2008 04:23:04 13.1 C 7.76 g/m*3 13.1 C 0 km/h
1660 17-08-2008 04:35:04 13.1 C 7.87 g/m*3 13.1 C 0 km/h
1661 17-08-2008 04:47:04 12.9 C 7.89 g/m*3 12.9 C 0 km/h
1662 17-08-2008 04:59:04 12.9 C 7.89 g/m*3 12.9 C 0 km/h
1663 17-08-2008 05:11:04 12.8 C 7.95 g/m*3 12.8 C 0 km/h
1664 17-08-2008 05:23:04 12.7 C 7.9 g/m*3 12.7 C 0 km/h
1665 17-08-2008 05:35:04 12.5 C 7.92 g/m*3 12.5 C 0 km/h
1666 17-08-2008 05:47:04 12.3 C 7.82 g/m*3 12.3 C 0 km/h
1667 17-08-2008 05:59:04 12.4 C 7.98 g/m*3 12.4 C 0 km/h
1668 17-08-2008 06:11:04 12.2 C 7.88 g/m*3 12.2 C 0 km/h
1669 17-08-2008 06:23:04 12.1 C 7.94 g/m*3 12.1 C 0 km/h
1670 17-08-2008 06:35:04 11.9 C 8.05 g/m*3 11.9 C 0 km/h
1671 17-08-2008 06:47:04 11.9 C 8.05 g/m*3 11.9 C 0 km/h
1672 17-08-2008 06:59:04 12 C 7.99 g/m*3 12 C 0 km/h
1673 17-08-2008 07:11:04 12 C 7.99 g/m*3 12 C 0 km/h
1674 17-08-2008 07:23:04 12 C 8.1 g/m*3 12 C 0 km/h
1675 17-08-2008 07:35:04 12 C 8.1 g/m*3 12 C 0 km/h
Sensor: Nr:Datum:Temp:Abs-Feuchte:Windchill:Wind:
Aussen-T/F 1676 17-08-2008 07:47:04 12.1 C 8.15 g/m*3 12.1 C 0 km/h
1677 17-08-2008 07:59:04 12.5 C 8.36 g/m*3 12.5 C 0 km/h
1678 17-08-2008 08:11:05 12.5 C 8.36 g/m*3 12.5 C 0 km/h
1679 17-08-2008 08:23:05 12.6 C 8.3 g/m*3 12.6 C 0 km/h
1680 17-08-2008 08:35:05 12.9 C 8.45 g/m*3 12.9 C 0 km/h
1681 17-08-2008 08:47:05 13.2 C 8.38 g/m*3 13.2 C 0 km/h
1682 17-08-2008 08:59:05 13.6 C 8.47 g/m*3 13.6 C 0 km/h
1683 17-08-2008 09:11:02 13.9 C 8.51 g/m*3 13.9 C 0 km/h
1684 17-08-2008 09:23:03 14.6 C 8.51 g/m*3 14.6 C 0 km/h
1685 17-08-2008 09:35:03 15.1 C 8.39 g/m*3 15.1 C 0 km/h
1686 17-08-2008 09:47:01 15.5 C 8.46 g/m*3 15.5 C 0 km/h
1687 17-08-2008 09:59:01 16.2 C 8.69 g/m*3 16.2 C 0 km/h
1688 17-08-2008 10:11:03 17.1 C 8.88 g/m*3 17.1 C 0 km/h
1689 17-08-2008 10:23:02 17.8 C 8.95 g/m*3 17.8 C 0 km/h
1690 17-08-2008 10:35:02 18.7 C 9.13 g/m*3 18.7 C 0 km/h
1691 17-08-2008 10:47:02 19.6 C 8.95 g/m*3 19.6 C 0 km/h
1692 17-08-2008 10:59:02 20.2 C 8.92 g/m*3 20.2 C 0 km/h
1693 17-08-2008 11:11:03 21 C 8.61 g/m*3 21 C 0 km/h
1694 17-08-2008 11:23:03 21.8 C 8.83 g/m*3 21.8 C 0 km/h
1695 17-08-2008 11:35:03 22.5 C 8.19 g/m*3 22.5 C 0 km/h
1696 17-08-2008 11:47:02 22.9 C 7.77 g/m*3 22.9 C 0 km/h
1697 17-08-2008 11:59:02 23.1 C 7.23 g/m*3 23.1 C 0 km/h
1698 17-08-2008 12:11:02 23.7 C 6.84 g/m*3 23.7 C 0 km/h
1699 17-08-2008 12:23:02 24.3 C 6.64 g/m*3 24.3 C 0 km/h
1700 17-08-2008 12:35:02 24.1 C 5.69 g/m*3 24.1 C 0 km/h
Sensor: Nr:Datum:Temp:Abs-Feuchte:Windchill:Wind:
Aussen-T/F 1701 17-08-2008 12:47:03 24.5 C 5.6 g/m*3 24.5 C 0 km/h
1702 17-08-2008 12:59:03 24.5 C 4.7 g/m*3 24.5 C 0 km/h
1703 17-08-2008 13:11:02 25 C 4.83 g/m*3 25 C 0 km/h
1704 17-08-2008 13:23:02 25.5 C 4.73 g/m*3 25.5 C 0 km/h
1705 17-08-2008 13:35:02 26.4 C 4.98 g/m*3 26.4 C 0 km/h
1706 17-08-2008 13:47:02 26.1 C 4.9 g/m*3 26.1 C 0 km/h
1707 17-08-2008 13:59:02 26.6 C 5.03 g/m*3 26.6 C 0 km/h
1708 17-08-2008 14:11:02 26.3 C 4.95 g/m*3 26.3 C 0 km/h
1709 17-08-2008 14:23:01 26.2 C 5.17 g/m*3 26.2 C 0 km/h
1710 17-08-2008 14:35:01 26.8 C 5.35 g/m*3 26.8 C 0 km/h
1711 17-08-2008 14:47:01 26.8 C 5.6 g/m*3 26.8 C 0 km/h
1712 17-08-2008 14:59:01 25.9 C 5.57 g/m*3 25.9 C 0 km/h
1713 17-08-2008 15:11:02 25.1 C 5.56 g/m*3 25.1 C 0 km/h
1714 17-08-2008 15:23:01 25.3 C 5.62 g/m*3 25.3 C 0 km/h
1715 17-08-2008 15:35:01 25.7 C 5.99 g/m*3 25.7 C 0 km/h
1716 17-08-2008 15:47:02 27.6 C 5.59 g/m*3 27.6 C 0 km/h
1717 17-08-2008 15:59:02 28.5 C 5.87 g/m*3 28.5 C 0 km/h
1718 17-08-2008 16:11:02 27.9 C 5.68 g/m*3 27.9 C 0 km/h
1719 17-08-2008 16:23:02 27.1 C 5.69 g/m*3 27.1 C 0 km/h
1720 17-08-2008 16:35:01 27.1 C 5.43 g/m*3 27.1 C 0 km/h
1721 17-08-2008 16:47:02 26.3 C 5.45 g/m*3 26.3 C 0 km/h
1722 17-08-2008 16:59:02 26.6 C 5.54 g/m*3 26.6 C 0 km/h
1723 17-08-2008 17:11:01 26.3 C 5.69 g/m*3 26.3 C 0 km/h
1724 17-08-2008 17:23:02 26 C 5.84 g/m*3 26 C 0 km/h
1725 17-08-2008 17:35:01 25.9 C 6.54 g/m*3 25.9 C 0 km/h
Sensor: Nr:Datum:Temp:Abs-Feuchte:Windchill:Wind:
Aussen-T/F 1726 17-08-2008 17:47:01 25.4 C 6.12 g/m*3 25.4 C 0 km/h
1727 17-08-2008 17:59:01 25.4 C 6.83 g/m*3 25.4 C 0 km/h
1728 17-08-2008 18:11:02 25.2 C 6.98 g/m*3 25.2 C 0 km/h
1729 17-08-2008 18:23:01 25.2 C 6.52 g/m*3 25.2 C 0 km/h
1730 17-08-2008 18:35:02 24.9 C 6.87 g/m*3 24.9 C 0 km/h
1731 17-08-2008 18:47:02 24.6 C 6.75 g/m*3 24.6 C 0 km/h
1732 17-08-2008 18:59:02 24.6 C 6.98 g/m*3 24.6 C 0 km/h
1733 17-08-2008 19:11:02 25.4 C 7.06 g/m*3 25.4 C 0 km/h
1734 17-08-2008 19:23:02 24.8 C 7.28 g/m*3 24.8 C 0 km/h
1735 17-08-2008 19:35:02 23.9 C 7.79 g/m*3 23.9 C 0 km/h
1736 17-08-2008 19:47:01 23.7 C 7.7 g/m*3 23.7 C 0 km/h
1737 17-08-2008 19:59:01 24.1 C 7.88 g/m*3 24.1 C 0 km/h
1738 17-08-2008 20:11:01 23.3 C 7.95 g/m*3 23.3 C 0 km/h
1739 17-08-2008 20:23:01 22.1 C 7.81 g/m*3 22.1 C 0 km/h
1740 17-08-2008 20:35:02 21.4 C 8.06 g/m*3 21.4 C 0 km/h
1741 17-08-2008 20:47:02 21.1 C 7.92 g/m*3 21.1 C 0 km/h
1742 17-08-2008 20:59:02 20.8 C 8.33 g/m*3 20.8 C 0 km/h
1743 17-08-2008 21:11:02 20.8 C 8.15 g/m*3 20.8 C 0 km/h
1744 17-08-2008 21:23:02 21 C 8.06 g/m*3 21 C 0 km/h
1745 17-08-2008 21:35:02 20.1 C 9.56 g/m*3 20.1 C 0 km/h
1746 17-08-2008 21:47:02 17.7 C 11.32 g/m*3 17.7 C 0 km/h
1747 17-08-2008 21:59:02 17.3 C 11.93 g/m*3 17.3 C 0 km/h
1748 17-08-2008 22:11:01 17.4 C 12.3 g/m*3 17.4 C 0 km/h
1749 17-08-2008 22:23:02 17.6 C 12.6 g/m*3 17.6 C 0 km/h
1750 17-08-2008 22:36:02 17.3 C 12.08 g/m*3 17.3 C 0 km/h
Sensor: Nr:Datum:Temp:Abs-Feuchte:Windchill:Wind:
Aussen-T/F 1751 17-08-2008 22:48:02 17.2 C 11.86 g/m*3 17.2 C 0 km/h
1752 17-08-2008 23:00:02 17 C 11.72 g/m*3 17 C 0 km/h
1753 17-08-2008 23:12:02 16.8 C 11.58 g/m*3 16.8 C 0 km/h
1754 17-08-2008 23:24:02 16.5 C 11.37 g/m*3 16.5 C 0 km/h
1755 17-08-2008 23:36:02 16.3 C 11.38 g/m*3 16.3 C 0 km/h
1756 17-08-2008 23:48:02 16.1 C 11.24 g/m*3 16.1 C 0 km/h
1757 18-08-2008 00:00:02 16.1 C 11.24 g/m*3 16.1 C 0 km/h
1758 18-08-2008 00:12:02 16 C 11.17 g/m*3 16 C 0 km/h
1759 18-08-2008 00:24:02 16.1 C 11.24 g/m*3 16.1 C 0 km/h
1760 18-08-2008 00:36:03 16.1 C 11.24 g/m*3 16.1 C 0 km/h
1761 18-08-2008 00:48:03 16.4 C 11.45 g/m*3 16.4 C 0 km/h
1762 18-08-2008 01:00:03 16.5 C 11.37 g/m*3 16.5 C 0 km/h
1763 18-08-2008 01:12:03 16.5 C 11.37 g/m*3 16.5 C 0 km/h
1764 18-08-2008 01:24:03 16.6 C 11.44 g/m*3 16.6 C 0 km/h
1765 18-08-2008 01:36:03 16.5 C 11.37 g/m*3 16.5 C 0 km/h
1766 18-08-2008 01:48:03 16.6 C 11.44 g/m*3 16.6 C 0 km/h
1767 18-08-2008 02:00:03 16.6 C 11.44 g/m*3 16.6 C 0 km/h
1768 18-08-2008 02:12:03 16.6 C 11.44 g/m*3 16.6 C 0 km/h
1769 18-08-2008 02:24:03 16.6 C 11.44 g/m*3 16.6 C 0 km/h
1770 18-08-2008 02:36:03 16.7 C 11.51 g/m*3 16.7 C 0 km/h
1771 18-08-2008 02:48:03 16.4 C 11.31 g/m*3 16.4 C 0 km/h
1772 18-08-2008 03:00:03 16.3 C 11.38 g/m*3 16.3 C 0 km/h
1773 18-08-2008 03:12:03 16.2 C 11.31 g/m*3 16.2 C 0 km/h
1774 18-08-2008 03:24:03 16 C 11.17 g/m*3 16 C 0 km/h
1775 18-08-2008 03:36:03 15.8 C 11.31 g/m*3 15.8 C 0 km/h
Sensor: Nr:Datum:Temp:Abs-Feuchte:Windchill:Wind:
Aussen-T/F 1776 18-08-2008 03:48:03 15.5 C 11.1 g/m*3 15.5 C 0 km/h
1777 18-08-2008 04:00:03 15.4 C 11.04 g/m*3 15.4 C 0 km/h
1778 18-08-2008 04:12:03 15.4 C 11.17 g/m*3 15.4 C 0 km/h
1779 18-08-2008 04:24:03 15.4 C 11.17 g/m*3 15.4 C 0 km/h
1780 18-08-2008 04:36:03 15.4 C 11.17 g/m*3 15.4 C 0 km/h
1781 18-08-2008 04:48:04 15.5 C 11.24 g/m*3 15.5 C 0 km/h
1782 18-08-2008 05:00:04 15.5 C 11.24 g/m*3 15.5 C 0 km/h
1783 18-08-2008 05:12:04 15.7 C 11.51 g/m*3 15.7 C 0 km/h
1784 18-08-2008 05:24:04 15.8 C 11.44 g/m*3 15.8 C 0 km/h
1785 18-08-2008 05:36:04 15.7 C 11.24 g/m*3 15.7 C 0 km/h
1786 18-08-2008 05:48:04 15.8 C 11.44 g/m*3 15.8 C 0 km/h
1787 18-08-2008 06:00:04 15.9 C 11.38 g/m*3 15.9 C 0 km/h
1788 18-08-2008 06:12:04 15.9 C 11.38 g/m*3 15.9 C 0 km/h
1789 18-08-2008 06:24:04 15.5 C 11.1 g/m*3 15.5 C 0 km/h
1790 18-08-2008 06:36:04 15.3 C 10.97 g/m*3 15.3 C 0 km/h
1791 18-08-2008 06:48:02 15.2 C 11.03 g/m*3 15.2 C 0 km/h
1792 18-08-2008 07:00:03 15.2 C 11.03 g/m*3 15.2 C 0 km/h
1793 18-08-2008 07:12:02 15.2 C 11.16 g/m*3 15.2 C 0 km/h
1794 18-08-2008 07:24:02 15.2 C 11.16 g/m*3 15.2 C 0 km/h
1795 18-08-2008 07:36:02 15.2 C 11.29 g/m*3 15.2 C 0 km/h
1796 18-08-2008 07:48:02 15.3 C 11.36 g/m*3 15.3 C 0 km/h
1797 18-08-2008 08:00:02 15.5 C 11.5 g/m*3 15.5 C 0 km/h
1798 18-08-2008 08:12:01 15.9 C 11.65 g/m*3 15.9 C 0 km/h
1799 18-08-2008 08:24:02 16.4 C 11.72 g/m*3 16.4 C 0 km/h
1800 18-08-2008 08:36:01 16.8 C 11.72 g/m*3 16.8 C 0 km/h
Sensor: Nr:Datum:Temp:Abs-Feuchte:Windchill:Wind:
Aussen-T/F 1801 18-08-2008 08:48:02 17.1 C 11.5 g/m*3 17.1 C 0 km/h
1802 18-08-2008 09:00:02 17.9 C 11.76 g/m*3 17.9 C 0 km/h
1803 18-08-2008 09:12:01 18.3 C 11.57 g/m*3 18.3 C 0 km/h
1804 18-08-2008 09:24:01 18.8 C 11.76 g/m*3 18.8 C 0 km/h
1805 18-08-2008 09:36:01 19.6 C 11.65 g/m*3 19.6 C 0 km/h
1806 18-08-2008 09:48:02 20 C 10.89 g/m*3 20 C 0 km/h
1807 18-08-2008 10:00:02 20.1 C 10.95 g/m*3 20.1 C 0 km/h
1808 18-08-2008 10:12:02 20.4 C 10.79 g/m*3 20.4 C 0 km/h
1809 18-08-2008 10:24:02 20.6 C 11.1 g/m*3 20.6 C 0 km/h
1810 18-08-2008 10:36:02 21 C 10.62 g/m*3 21 C 0 km/h
1811 18-08-2008 10:48:02 21.3 C 10.44 g/m*3 21.3 C 0 km/h
1812 18-08-2008 11:00:02 21.6 C 10.24 g/m*3 21.6 C 0 km/h
1813 18-08-2008 11:12:02 22 C 10.48 g/m*3 22 C 0 km/h
1814 18-08-2008 11:24:03 22.5 C 10.39 g/m*3 22.5 C 0 km/h
1815 18-08-2008 11:36:02 22.7 C 9.7 g/m*3 22.7 C 0 km/h
1816 18-08-2008 11:48:02 23.2 C 9.77 g/m*3 23.2 C 0 km/h
1817 18-08-2008 12:00:02 23.8 C 9.46 g/m*3 23.8 C 0 km/h
1818 18-08-2008 12:12:02 23.9 C 9.52 g/m*3 23.9 C 0 km/h
1819 18-08-2008 12:24:02 23.5 C 9.52 g/m*3 23.5 C 0 km/h
1820 18-08-2008 12:36:02 23.6 C 9.36 g/m*3 23.6 C 0 km/h
1821 18-08-2008 12:48:01 23.5 C 9.31 g/m*3 23.5 C 0 km/h
1822 18-08-2008 13:00:01 23.7 C 9.41 g/m*3 23.7 C 0 km/h
1823 18-08-2008 13:12:02 24.1 C 9.41 g/m*3 24.1 C 0 km/h
1824 18-08-2008 13:24:01 24.8 C 9.1 g/m*3 24.8 C 0 km/h
1825 18-08-2008 13:36:02 25.5 C 9 g/m*3 25.5 C 0 km/h
Sensor: Nr:Datum:Temp:Abs-Feuchte:Windchill:Wind:
Aussen-T/F 1826 18-08-2008 13:48:02 25.9 C 8.72 g/m*3 25.9 C 0 km/h
1827 18-08-2008 14:00:02 24.7 C 8.6 g/m*3 24.7 C 0 km/h
1828 18-08-2008 14:12:02 24.6 C 8.78 g/m*3 24.6 C 0 km/h
1829 18-08-2008 14:24:02 23.9 C 9.3 g/m*3 23.9 C 0 km/h
1830 18-08-2008 14:36:02 24.7 C 9.05 g/m*3 24.7 C 0 km/h
1831 18-08-2008 14:48:01 25.3 C 8.66 g/m*3 25.3 C 0 km/h
1832 18-08-2008 15:00:01 25.4 C 8.48 g/m*3 25.4 C 0 km/h
1833 18-08-2008 15:12:01 25.5 C 8.29 g/m*3 25.5 C 0 km/h
1834 18-08-2008 15:24:01 25.3 C 8.19 g/m*3 25.3 C 0 km/h
1835 18-08-2008 15:36:02 25.2 C 8.15 g/m*3 25.2 C 0 km/h
1836 18-08-2008 15:48:02 25.1 C 8.1 g/m*3 25.1 C 0 km/h
1837 18-08-2008 16:00:02 25.4 C 8.71 g/m*3 25.4 C 0 km/h
1838 18-08-2008 16:12:02 25.7 C 9.1 g/m*3 25.7 C 0 km/h
1839 18-08-2008 16:24:02 26.2 C 8.62 g/m*3 26.2 C 0 km/h
1840 18-08-2008 16:36:02 26.4 C 8.46 g/m*3 26.4 C 0 km/h
1841 18-08-2008 16:48:02 27.9 C 8.11 g/m*3 27.9 C 0 km/h
1842 18-08-2008 17:00:02 29 C 7.76 g/m*3 29 C 0 km/h
1843 18-08-2008 17:12:02 29.8 C 7.2 g/m*3 29.8 C 0 km/h
1844 18-08-2008 17:24:02 29.4 C 7.34 g/m*3 29.4 C 0 km/h
1845 18-08-2008 17:36:02 28.6 C 7.03 g/m*3 28.6 C 0 km/h
1846 18-08-2008 17:48:02 29.7 C 6.86 g/m*3 29.7 C 0 km/h
1847 18-08-2008 18:00:02 30 C 6.97 g/m*3 30 C 0 km/h
1848 18-08-2008 18:12:03 29.6 C 6.83 g/m*3 29.6 C 0 km/h
1849 18-08-2008 18:24:02 28.5 C 6.99 g/m*3 28.5 C 0 km/h
1850 18-08-2008 18:36:03 28.9 C 7.14 g/m*3 28.9 C 0 km/h
Sensor: Nr:Datum:Temp:Abs-Feuchte:Windchill:Wind:
Aussen-T/F 1851 18-08-2008 18:48:02 28 C 7.07 g/m*3 28 C 0 km/h
1852 18-08-2008 19:00:03 28 C 7.34 g/m*3 28 C 0 km/h
1853 18-08-2008 19:12:01 28 C 7.34 g/m*3 28 C 0 km/h
1854 18-08-2008 19:24:02 27.5 C 7.67 g/m*3 27.5 C 0 km/h
1855 18-08-2008 19:36:01 27.6 C 7.71 g/m*3 27.6 C 0 km/h
1856 18-08-2008 19:48:02 28.2 C 8.25 g/m*3 28.2 C 0 km/h
1857 18-08-2008 20:00:02 27.5 C 8.2 g/m*3 27.5 C 0 km/h
1858 18-08-2008 20:12:01 26.3 C 8.66 g/m*3 26.3 C 0 km/h
1859 18-08-2008 20:24:02 25.3 C 8.9 g/m*3 25.3 C 0 km/h
1860 18-08-2008 20:36:01 24.6 C 9.23 g/m*3 24.6 C 0 km/h
1861 18-08-2008 20:48:03 24.1 C 9.19 g/m*3 24.1 C 0 km/h
1862 18-08-2008 21:00:03 23.7 C 9.63 g/m*3 23.7 C 0 km/h
1863 18-08-2008 21:12:02 23.4 C 9.25 g/m*3 23.4 C 0 km/h
1864 18-08-2008 21:24:03 23 C 9.45 g/m*3 23 C 0 km/h
1865 18-08-2008 21:36:02 22.8 C 9.35 g/m*3 22.8 C 0 km/h
1866 18-08-2008 21:48:02 22.6 C 9.64 g/m*3 22.6 C 0 km/h
1867 18-08-2008 22:00:02 22.4 C 9.33 g/m*3 22.4 C 0 km/h
1868 18-08-2008 22:13:01 22.4 C 9.33 g/m*3 22.4 C 0 km/h
1869 18-08-2008 22:25:01 22.3 C 9.48 g/m*3 22.3 C 0 km/h
1870 18-08-2008 22:37:01 22.1 C 9.56 g/m*3 22.1 C 0 km/h
1871 18-08-2008 22:49:01 22 C 9.32 g/m*3 22 C 0 km/h
1872 18-08-2008 23:01:01 21.9 C 9.46 g/m*3 21.9 C 0 km/h
1873 18-08-2008 23:13:01 22 C 9.12 g/m*3 22 C 0 km/h
1874 18-08-2008 23:25:01 21.8 C 9.78 g/m*3 21.8 C 0 km/h
1875 18-08-2008 23:37:01 21.7 C 9.92 g/m*3 21.7 C 0 km/h
Sensor: Nr:Datum:Temp:Abs-Feuchte:Windchill:Wind:
Aussen-T/F 1876 18-08-2008 23:49:01 21.6 C 9.86 g/m*3 21.6 C 0 km/h
1877 19-08-2008 00:01:01 21.8 C 9.98 g/m*3 21.8 C 0 km/h
1878 19-08-2008 00:13:01 22 C 10.29 g/m*3 22 C 0 km/h
1879 19-08-2008 00:25:02 20.7 C 11.34 g/m*3 20.7 C 0 km/h
1880 19-08-2008 00:37:02 20.5 C 11.74 g/m*3 20.5 C 0 km/h
1881 19-08-2008 00:49:02 20.5 C 11.92 g/m*3 20.5 C 0 km/h
1882 19-08-2008 01:01:02 20.6 C 12.17 g/m*3 20.6 C 0 km/h
1883 19-08-2008 01:13:02 20.2 C 11.89 g/m*3 20.2 C 0 km/h
1884 19-08-2008 01:25:02 19.8 C 11.79 g/m*3 19.8 C 0 km/h
1885 19-08-2008 01:37:02 19.7 C 11.72 g/m*3 19.7 C 0 km/h
1886 19-08-2008 01:49:02 19.5 C 11.75 g/m*3 19.5 C 0 km/h
1887 19-08-2008 02:01:02 19.5 C 11.75 g/m*3 19.5 C 0 km/h
1888 19-08-2008 02:13:02 19.2 C 11.54 g/m*3 19.2 C 0 km/h
1889 19-08-2008 02:25:02 19.3 C 11.78 g/m*3 19.3 C 0 km/h
1890 19-08-2008 02:37:02 19.1 C 11.64 g/m*3 19.1 C 0 km/h
1891 19-08-2008 02:49:02 18.9 C 11.83 g/m*3 18.9 C 0 km/h
1892 19-08-2008 03:01:02 18.7 C 11.69 g/m*3 18.7 C 0 km/h
1893 19-08-2008 03:13:02 18.8 C 11.92 g/m*3 18.8 C 0 km/h
1894 19-08-2008 03:25:02 19 C 11.9 g/m*3 19 C 0 km/h
1895 19-08-2008 03:37:02 18.9 C 11.83 g/m*3 18.9 C 0 km/h
1896 19-08-2008 03:49:02 18.7 C 11.69 g/m*3 18.7 C 0 km/h
1897 19-08-2008 04:01:02 18.6 C 11.78 g/m*3 18.6 C 0 km/h
1898 19-08-2008 04:13:02 18.5 C 11.71 g/m*3 18.5 C 0 km/h
1899 19-08-2008 04:25:03 18.5 C 11.71 g/m*3 18.5 C 0 km/h
1900 19-08-2008 04:37:03 18.9 C 11.34 g/m*3 18.9 C 0 km/h
Sensor: Nr:Datum:Temp:Abs-Feuchte:Windchill:Wind:
Aussen-T/F 1901 19-08-2008 04:49:03 19.1 C 10.66 g/m*3 19.1 C 0 km/h
1902 19-08-2008 05:01:03 19.2 C 10.72 g/m*3 19.2 C 0 km/h
1903 19-08-2008 05:13:03 19 C 10.59 g/m*3 19 C 0 km/h
1904 19-08-2008 05:25:03 18.8 C 10.79 g/m*3 18.8 C 0 km/h
1905 19-08-2008 05:37:03 18.6 C 10.82 g/m*3 18.6 C 0 km/h
1906 19-08-2008 05:49:03 18.3 C 10.79 g/m*3 18.3 C 0 km/h
1907 19-08-2008 06:01:03 18.3 C 10.79 g/m*3 18.3 C 0 km/h
1908 19-08-2008 06:13:03 18.3 C 10.32 g/m*3 18.3 C 0 km/h
1909 19-08-2008 06:25:03 18.5 C 9.97 g/m*3 18.5 C 0 km/h
1910 19-08-2008 06:37:03 18.7 C 9.77 g/m*3 18.7 C 0 km/h
1911 19-08-2008 06:49:03 18.5 C 9.65 g/m*3 18.5 C 0 km/h
1912 19-08-2008 07:01:02 18.5 C 9.49 g/m*3 18.5 C 0 km/h
1913 19-08-2008 07:13:02 18.4 C 9.59 g/m*3 18.4 C 0 km/h
1914 19-08-2008 07:25:02 18.2 C 9.64 g/m*3 18.2 C 0 km/h
1915 19-08-2008 07:37:02 18 C 9.68 g/m*3 18 C 0 km/h
1916 19-08-2008 07:49:02 18.5 C 9.49 g/m*3 18.5 C 0 km/h
1917 19-08-2008 08:01:03 19 C 9.29 g/m*3 19 C 0 km/h
1918 19-08-2008 08:13:03 19.4 C 8.84 g/m*3 19.4 C 0 km/h
1919 19-08-2008 08:25:02 19.5 C 8.89 g/m*3 19.5 C 0 km/h
1920 19-08-2008 08:37:02 19.7 C 8.83 g/m*3 19.7 C 0 km/h
1921 19-08-2008 08:49:02 19.9 C 8.59 g/m*3 19.9 C 0 km/h
1922 19-08-2008 09:01:02 20 C 8.47 g/m*3 20 C 0 km/h
1923 19-08-2008 09:13:02 20.2 C 8.57 g/m*3 20.2 C 0 km/h
1924 19-08-2008 09:25:02 20.1 C 8.52 g/m*3 20.1 C 0 km/h
1925 19-08-2008 09:37:02 20 C 8.47 g/m*3 20 C 0 km/h
Sensor: Nr:Datum:Temp:Abs-Feuchte:Windchill:Wind:
Aussen-T/F 1926 19-08-2008 09:49:02 20.2 C 8.74 g/m*3 20.2 C 0 km/h
1927 19-08-2008 10:01:02 20.3 C 8.62 g/m*3 20.3 C 0 km/h
1928 19-08-2008 10:13:02 20.7 C 8.82 g/m*3 20.7 C 0 km/h
1929 19-08-2008 10:25:02 21 C 8.61 g/m*3 21 C 0 km/h
1930 19-08-2008 10:37:02 20.8 C 8.87 g/m*3 20.8 C 0 km/h
1931 19-08-2008 10:49:02 21.2 C 8.9 g/m*3 21.2 C 0 km/h
1932 19-08-2008 11:01:02 21.3 C 8.95 g/m*3 21.3 C 0 km/h
1933 19-08-2008 11:13:02 21.6 C 8.91 g/m*3 21.6 C 0 km/h
1934 19-08-2008 11:25:02 21.5 C 8.86 g/m*3 21.5 C 0 km/h
1935 19-08-2008 11:37:02 22.2 C 8.83 g/m*3 22.2 C 0 km/h
1936 19-08-2008 11:49:02 21.9 C 8.68 g/m*3 21.9 C 0 km/h
1937 19-08-2008 12:01:03 22.6 C 8.84 g/m*3 22.6 C 0 km/h
1938 19-08-2008 12:13:03 22.7 C 8.49 g/m*3 22.7 C 0 km/h
1939 19-08-2008 12:25:02 22.5 C 8.39 g/m*3 22.5 C 0 km/h
1940 19-08-2008 12:37:03 22.7 C 8.28 g/m*3 22.7 C 0 km/h
1941 19-08-2008 12:49:02 22.8 C 8.13 g/m*3 22.8 C 0 km/h
1942 19-08-2008 13:01:01 23 C 8.02 g/m*3 23 C 0 km/h
1943 19-08-2008 13:13:01 23.5 C 8.04 g/m*3 23.5 C 0 km/h
1944 19-08-2008 13:25:02 23.9 C 8.22 g/m*3 23.9 C 0 km/h
1945 19-08-2008 13:37:01 23.7 C 7.91 g/m*3 23.7 C 0 km/h
1946 19-08-2008 13:49:02 23.7 C 8.13 g/m*3 23.7 C 0 km/h
1947 19-08-2008 14:01:01 24.3 C 7.97 g/m*3 24.3 C 0 km/h
1948 19-08-2008 14:13:01 24.5 C 7.83 g/m*3 24.5 C 0 km/h
1949 19-08-2008 14:25:02 24.2 C 7.7 g/m*3 24.2 C 0 km/h
1950 19-08-2008 14:37:01 23.6 C 7.87 g/m*3 23.6 C 0 km/h
Sensor: Nr:Datum:Temp:Abs-Feuchte:Windchill:Wind:
Aussen-T/F 1951 19-08-2008 14:49:02 23.1 C 7.86 g/m*3 23.1 C 0 km/h
1952 19-08-2008 15:01:01 23.1 C 7.86 g/m*3 23.1 C 0 km/h
1953 19-08-2008 15:13:01 23.9 C 8.22 g/m*3 23.9 C 0 km/h
1954 19-08-2008 15:25:02 24.1 C 7.88 g/m*3 24.1 C 0 km/h
1955 19-08-2008 15:37:01 24.5 C 8.06 g/m*3 24.5 C 0 km/h
1956 19-08-2008 15:49:01 24.4 C 8.01 g/m*3 24.4 C 0 km/h
1957 19-08-2008 16:01:01 23.6 C 8.08 g/m*3 23.6 C 0 km/h
1958 19-08-2008 16:13:01 23.5 C 8.25 g/m*3 23.5 C 0 km/h
1959 19-08-2008 16:25:02 23.6 C 8.08 g/m*3 23.6 C 0 km/h
1960 19-08-2008 16:37:01 24 C 7.83 g/m*3 24 C 0 km/h
1961 19-08-2008 16:49:01 24.1 C 7.88 g/m*3 24.1 C 0 km/h
1962 19-08-2008 17:01:01 23.9 C 8 g/m*3 23.9 C 0 km/h
1963 19-08-2008 17:13:01 23.6 C 8.08 g/m*3 23.6 C 0 km/h
1964 19-08-2008 17:25:01 23.5 C 8.25 g/m*3 23.5 C 0 km/h
1965 19-08-2008 17:37:01 23.2 C 8.32 g/m*3 23.2 C 0 km/h
1966 19-08-2008 17:49:01 22.8 C 8.33 g/m*3 22.8 C 0 km/h
1967 19-08-2008 18:01:02 22.9 C 8.79 g/m*3 22.9 C 0 km/h
1968 19-08-2008 18:13:02 22.8 C 8.53 g/m*3 22.8 C 0 km/h
1969 19-08-2008 18:25:01 22.6 C 8.44 g/m*3 22.6 C 0 km/h
1970 19-08-2008 18:37:02 22.5 C 8.59 g/m*3 22.5 C 0 km/h
1971 19-08-2008 18:49:02 22.3 C 8.49 g/m*3 22.3 C 0 km/h
1972 19-08-2008 19:01:02 22.2 C 8.64 g/m*3 22.2 C 0 km/h
1973 19-08-2008 19:13:02 21.8 C 8.83 g/m*3 21.8 C 0 km/h
1974 19-08-2008 19:25:02 21.5 C 8.86 g/m*3 21.5 C 0 km/h
1975 19-08-2008 19:37:02 21.4 C 9.19 g/m*3 21.4 C 0 km/h
Sensor: Nr:Datum:Temp:Abs-Feuchte:Windchill:Wind:
Aussen-T/F 1976 19-08-2008 19:49:01 21.3 C 9.32 g/m*3 21.3 C 0 km/h
1977 19-08-2008 20:01:01 21.3 C 9.32 g/m*3 21.3 C 0 km/h
1978 19-08-2008 20:13:01 21.5 C 9.24 g/m*3 21.5 C 0 km/h
1979 19-08-2008 20:25:01 21.2 C 9.27 g/m*3 21.2 C 0 km/h
1980 19-08-2008 20:37:02 20.8 C 9.42 g/m*3 20.8 C 0 km/h
1981 19-08-2008 20:49:02 20.4 C 9.38 g/m*3 20.4 C 0 km/h
1982 19-08-2008 21:01:02 20 C 9.33 g/m*3 20 C 0 km/h
1983 19-08-2008 21:13:02 19.8 C 9.39 g/m*3 19.8 C 0 km/h
1984 19-08-2008 21:25:02 19.5 C 9.4 g/m*3 19.5 C 0 km/h
1985 19-08-2008 21:37:02 19.4 C 9.51 g/m*3 19.4 C 0 km/h
1986 19-08-2008 21:50:02 19.2 C 9.56 g/m*3 19.2 C 0 km/h
1987 19-08-2008 22:02:02 19.1 C 9.51 g/m*3 19.1 C 0 km/h
1988 19-08-2008 22:14:02 19 C 9.61 g/m*3 19 C 0 km/h
1989 19-08-2008 22:26:02 18.9 C 9.72 g/m*3 18.9 C 0 km/h
1990 19-08-2008 22:38:02 18.9 C 9.72 g/m*3 18.9 C 0 km/h
1991 19-08-2008 22:50:02 18.9 C 9.72 g/m*3 18.9 C 0 km/h
1992 19-08-2008 23:02:02 18.8 C 9.82 g/m*3 18.8 C 0 km/h
1993 19-08-2008 23:14:02 18.5 C 9.81 g/m*3 18.5 C 0 km/h
1994 19-08-2008 23:26:02 18.6 C 9.87 g/m*3 18.6 C 0 km/h
1995 19-08-2008 23:38:03 18.3 C 10.01 g/m*3 18.3 C 0 km/h
1996 19-08-2008 23:50:03 17.8 C 10.47 g/m*3 17.8 C 0 km/h
1997 20-08-2008 00:02:03 17.7 C 10.41 g/m*3 17.7 C 0 km/h
1998 20-08-2008 00:14:03 18.1 C 10.2 g/m*3 18.1 C 0 km/h
1999 20-08-2008 00:26:03 18.2 C 10.1 g/m*3 18.2 C 0 km/h
2000 20-08-2008 00:38:03 18.1 C 10.2 g/m*3 18.1 C 0 km/h
Sensor: Nr:Datum:Temp:Abs-Feuchte:Windchill:Wind:
Aussen-T/F 2001 20-08-2008 00:50:03 17.9 C 10.69 g/m*3 17.9 C 0 km/h
2002 20-08-2008 01:02:03 17.8 C 10.62 g/m*3 17.8 C 0 km/h
2003 20-08-2008 01:14:03 18.1 C 10.35 g/m*3 18.1 C 0 km/h
2004 20-08-2008 01:26:03 17 C 11.29 g/m*3 17 C 0 km/h
2005 20-08-2008 01:38:03 16.7 C 11.65 g/m*3 16.7 C 0 km/h
2006 20-08-2008 01:50:03 16.6 C 11.72 g/m*3 16.6 C 0 km/h
2007 20-08-2008 02:02:03 16.8 C 11.72 g/m*3 16.8 C 0 km/h
2008 20-08-2008 02:14:03 16.8 C 11.44 g/m*3 16.8 C 0 km/h
2009 20-08-2008 02:26:03 16.9 C 11.36 g/m*3 16.9 C 0 km/h
2010 20-08-2008 02:38:03 16.7 C 11.23 g/m*3 16.7 C 0 km/h
2011 20-08-2008 02:50:03 16.7 C 11.08 g/m*3 16.7 C 0 km/h
2012 20-08-2008 03:02:03 16.7 C 10.94 g/m*3 16.7 C 0 km/h
2013 20-08-2008 03:14:03 16.6 C 10.74 g/m*3 16.6 C 0 km/h
2014 20-08-2008 03:26:04 16.5 C 10.67 g/m*3 16.5 C 0 km/h
2015 20-08-2008 03:38:04 16.4 C 10.75 g/m*3 16.4 C 0 km/h
2016 20-08-2008 03:50:04 16.3 C 10.82 g/m*3 16.3 C 0 km/h
2017 20-08-2008 04:02:04 16.5 C 10.81 g/m*3 16.5 C 0 km/h
2018 20-08-2008 04:14:04 16.6 C 10.74 g/m*3 16.6 C 0 km/h
2019 20-08-2008 04:26:04 16.5 C 10.67 g/m*3 16.5 C 0 km/h
2020 20-08-2008 04:38:04 16.4 C 10.61 g/m*3 16.4 C 0 km/h
2021 20-08-2008 04:50:04 16.3 C 10.54 g/m*3 16.3 C 0 km/h
2022 20-08-2008 05:02:04 16.4 C 10.61 g/m*3 16.4 C 0 km/h
2023 20-08-2008 05:14:04 16.4 C 10.61 g/m*3 16.4 C 0 km/h
2024 20-08-2008 05:26:04 16.2 C 10.48 g/m*3 16.2 C 0 km/h
2025 20-08-2008 05:38:04 16.2 C 10.48 g/m*3 16.2 C 0 km/h
Sensor: Nr:Datum:Temp:Abs-Feuchte:Windchill:Wind:
Aussen-T/F 2026 20-08-2008 05:50:04 16.1 C 10.28 g/m*3 16.1 C 0 km/h
2027 20-08-2008 06:02:04 16 C 10.22 g/m*3 16 C 0 km/h
2028 20-08-2008 06:14:04 16.1 C 10.42 g/m*3 16.1 C 0 km/h
2029 20-08-2008 06:26:04 16 C 10.35 g/m*3 16 C 0 km/h
2030 20-08-2008 06:38:04 15.8 C 10.36 g/m*3 15.8 C 0 km/h
2031 20-08-2008 06:50:04 15.8 C 10.36 g/m*3 15.8 C 0 km/h
2032 20-08-2008 07:02:02 15.8 C 10.36 g/m*3 15.8 C 0 km/h
2033 20-08-2008 07:14:02 16 C 10.22 g/m*3 16 C 0 km/h
2034 20-08-2008 07:26:02 16.2 C 10.2 g/m*3 16.2 C 0 km/h
2035 20-08-2008 07:38:02 16.2 C 10.07 g/m*3 16.2 C 0 km/h
2036 20-08-2008 07:50:02 16.2 C 9.79 g/m*3 16.2 C 0 km/h
2037 20-08-2008 08:02:03 16.2 C 9.93 g/m*3 16.2 C 0 km/h
2038 20-08-2008 08:14:03 16.3 C 9.85 g/m*3 16.3 C 0 km/h
2039 20-08-2008 08:26:02 16.5 C 9.69 g/m*3 16.5 C 0 km/h
2040 20-08-2008 08:38:02 16.6 C 9.61 g/m*3 16.6 C 0 km/h
2041 20-08-2008 08:50:02 16.7 C 9.52 g/m*3 16.7 C 0 km/h
2042 20-08-2008 09:02:02 16.9 C 9.35 g/m*3 16.9 C 0 km/h
2043 20-08-2008 09:14:02 17 C 8.97 g/m*3 17 C 0 km/h
2044 20-08-2008 09:26:02 17.5 C 9.24 g/m*3 17.5 C 0 km/h
2045 20-08-2008 09:38:02 18 C 9.22 g/m*3 18 C 0 km/h
2046 20-08-2008 09:50:02 18.2 C 9.01 g/m*3 18.2 C 0 km/h
2047 20-08-2008 10:02:03 18.9 C 9.23 g/m*3 18.9 C 0 km/h
2048 20-08-2008 10:14:03 18.8 C 9.18 g/m*3 18.8 C 0 km/h
2049 20-08-2008 10:26:02 18.7 C 9.13 g/m*3 18.7 C 0 km/h
2050 20-08-2008 10:38:02 19.4 C 9.01 g/m*3 19.4 C 0 km/h
Sensor: Nr:Datum:Temp:Abs-Feuchte:Windchill:Wind:
Aussen-T/F 2051 20-08-2008 10:50:02 19.4 C 9.01 g/m*3 19.4 C 0 km/h
2052 20-08-2008 11:02:02 19.7 C 9 g/m*3 19.7 C 0 km/h
2053 20-08-2008 11:14:02 19.5 C 8.73 g/m*3 19.5 C 0 km/h
2054 20-08-2008 11:26:02 19.5 C 9.06 g/m*3 19.5 C 0 km/h
2055 20-08-2008 11:38:02 20.4 C 8.67 g/m*3 20.4 C 0 km/h
2056 20-08-2008 11:50:02 19.8 C 8.37 g/m*3 19.8 C 0 km/h
2057 20-08-2008 12:02:02 20.2 C 8.57 g/m*3 20.2 C 0 km/h
2058 20-08-2008 12:14:02 21.1 C 8.48 g/m*3 21.1 C 0 km/h
2059 20-08-2008 12:26:02 21.1 C 8.11 g/m*3 21.1 C 0 km/h
2060 20-08-2008 12:38:02 20.8 C 8.33 g/m*3 20.8 C 0 km/h
2061 20-08-2008 12:50:02 20.9 C 8.2 g/m*3 20.9 C 0 km/h
2062 20-08-2008 13:02:02 20.9 C 8.38 g/m*3 20.9 C 0 km/h
2063 20-08-2008 13:14:03 20.3 C 8.44 g/m*3 20.3 C 0 km/h
2064 20-08-2008 13:26:02 20.5 C 8.54 g/m*3 20.5 C 0 km/h
2065 20-08-2008 13:38:02 21.1 C 8.29 g/m*3 21.1 C 0 km/h
2066 20-08-2008 13:50:01 21.1 C 8.29 g/m*3 21.1 C 0 km/h
2067 20-08-2008 14:02:02 21.2 C 8.34 g/m*3 21.2 C 0 km/h
2068 20-08-2008 14:14:02 22 C 7.96 g/m*3 22 C 0 km/h
2069 20-08-2008 14:26:01 22.1 C 7.61 g/m*3 22.1 C 0 km/h
2070 20-08-2008 14:38:02 22.5 C 7.99 g/m*3 22.5 C 0 km/h
2071 20-08-2008 14:50:02 22.5 C 7.99 g/m*3 22.5 C 0 km/h
2072 20-08-2008 15:02:02 22.4 C 8.14 g/m*3 22.4 C 0 km/h
2073 20-08-2008 15:14:02 21.7 C 7.82 g/m*3 21.7 C 0 km/h
2074 20-08-2008 15:26:02 22.5 C 7.99 g/m*3 22.5 C 0 km/h
2075 20-08-2008 15:38:01 23 C 7.4 g/m*3 23 C 0 km/h
Sensor: Nr:Datum:Temp:Abs-Feuchte:Windchill:Wind:
Aussen-T/F 2076 20-08-2008 15:50:02 21.9 C 7.53 g/m*3 21.9 C 0 km/h
2077 20-08-2008 16:02:01 22.2 C 7.66 g/m*3 22.2 C 0 km/h
2078 20-08-2008 16:14:01 22.5 C 7.79 g/m*3 22.5 C 0 km/h
2079 20-08-2008 16:26:02 20.3 C 8.09 g/m*3 20.3 C 0 km/h
2080 20-08-2008 16:38:01 20.4 C 7.78 g/m*3 20.4 C 0 km/h
2081 20-08-2008 16:50:02 20.9 C 7.83 g/m*3 20.9 C 0 km/h
2082 20-08-2008 17:02:01 22.7 C 7.68 g/m*3 22.7 C 0 km/h
2083 20-08-2008 17:14:01 22.9 C 7.56 g/m*3 22.9 C 0 km/h
2084 20-08-2008 17:26:02 23.2 C 7.48 g/m*3 23.2 C 0 km/h
2085 20-08-2008 17:38:01 23.4 C 7.57 g/m*3 23.4 C 0 km/h
2086 20-08-2008 17:50:01 24.1 C 7.66 g/m*3 24.1 C 0 km/h
2087 20-08-2008 18:02:02 22.7 C 7.27 g/m*3 22.7 C 0 km/h
2088 20-08-2008 18:14:03 22.2 C 7.07 g/m*3 22.2 C 0 km/h
2089 20-08-2008 18:26:01 21.6 C 7.21 g/m*3 21.6 C 0 km/h
2090 20-08-2008 18:38:02 21.3 C 7.46 g/m*3 21.3 C 0 km/h
2091 20-08-2008 18:50:02 20.6 C 7.16 g/m*3 20.6 C 0 km/h
2092 20-08-2008 19:02:02 20.6 C 7.34 g/m*3 20.6 C 0 km/h
2093 20-08-2008 19:14:02 20.5 C 7.47 g/m*3 20.5 C 0 km/h
2094 20-08-2008 19:26:02 20.3 C 7.56 g/m*3 20.3 C 0 km/h
2095 20-08-2008 19:38:02 20.1 C 7.65 g/m*3 20.1 C 0 km/h
2096 20-08-2008 19:50:02 20 C 7.78 g/m*3 20 C 0 km/h
2097 20-08-2008 20:02:03 19.8 C 7.69 g/m*3 19.8 C 0 km/h
2098 20-08-2008 20:14:03 19.7 C 7.81 g/m*3 19.7 C 0 km/h
2099 20-08-2008 20:26:02 19.4 C 7.84 g/m*3 19.4 C 0 km/h
2100 20-08-2008 20:38:03 19.2 C 7.91 g/m*3 19.2 C 0 km/h
Sensor: Nr:Datum:Temp:Abs-Feuchte:Windchill:Wind:
Aussen-T/F 2101 20-08-2008 20:50:02 18.9 C 8.42 g/m*3 18.9 C 0 km/h
2102 20-08-2008 21:02:01 18.6 C 8.59 g/m*3 18.6 C 0 km/h
2103 20-08-2008 21:14:01 18.6 C 8.59 g/m*3 18.6 C 0 km/h
2104 20-08-2008 21:26:02 18.4 C 8.65 g/m*3 18.4 C 0 km/h
2105 20-08-2008 21:38:02 18.2 C 8.86 g/m*3 18.2 C 0 km/h
2106 20-08-2008 21:50:02 17.9 C 9.01 g/m*3 17.9 C 0 km/h
2107 20-08-2008 22:02:01 17.7 C 9.05 g/m*3 17.7 C 0 km/h
2108 20-08-2008 22:14:01 17.7 C 9.05 g/m*3 17.7 C 0 km/h
2109 20-08-2008 22:26:02 17.8 C 9.11 g/m*3 17.8 C 0 km/h
2110 20-08-2008 22:38:01 17.8 C 8.95 g/m*3 17.8 C 0 km/h
2111 20-08-2008 22:51:01 17.8 C 8.95 g/m*3 17.8 C 0 km/h
2112 20-08-2008 23:03:01 17.8 C 8.95 g/m*3 17.8 C 0 km/h
2113 20-08-2008 23:15:01 17.7 C 9.05 g/m*3 17.7 C 0 km/h
2114 20-08-2008 23:27:01 17.7 C 9.05 g/m*3 17.7 C 0 km/h
2115 20-08-2008 23:39:01 17.6 C 9 g/m*3 17.6 C 0 km/h
2116 20-08-2008 23:51:01 17.5 C 9.09 g/m*3 17.5 C 0 km/h
2117 21-08-2008 00:03:01 17.4 C 9.04 g/m*3 17.4 C 0 km/h
2118 21-08-2008 00:15:01 17.5 C 9.24 g/m*3 17.5 C 0 km/h
2119 21-08-2008 00:27:02 17.3 C 9.13 g/m*3 17.3 C 0 km/h
2120 21-08-2008 00:39:02 17.2 C 8.93 g/m*3 17.2 C 0 km/h
2121 21-08-2008 00:51:02 17.1 C 8.88 g/m*3 17.1 C 0 km/h
2122 21-08-2008 01:03:02 17 C 8.97 g/m*3 17 C 0 km/h
2123 21-08-2008 01:15:02 16.8 C 9.01 g/m*3 16.8 C 0 km/h
2124 21-08-2008 01:27:02 16.7 C 8.95 g/m*3 16.7 C 0 km/h
2125 21-08-2008 01:39:02 16.4 C 8.93 g/m*3 16.4 C 0 km/h
Sensor: Nr:Datum:Temp:Abs-Feuchte:Windchill:Wind:
Aussen-T/F 2126 21-08-2008 01:51:02 16.2 C 8.96 g/m*3 16.2 C 0 km/h
2127 21-08-2008 02:03:02 16 C 8.99 g/m*3 16 C 0 km/h
2128 21-08-2008 02:15:02 15.9 C 9.07 g/m*3 15.9 C 0 km/h
2129 21-08-2008 02:27:02 15.6 C 9.04 g/m*3 15.6 C 0 km/h
2130 21-08-2008 02:39:02 15.3 C 9.01 g/m*3 15.3 C 0 km/h
2131 21-08-2008 02:51:02 14.9 C 9.05 g/m*3 14.9 C 0 km/h
2132 21-08-2008 03:03:02 14.8 C 9.12 g/m*3 14.8 C 0 km/h
2133 21-08-2008 03:15:02 14.4 C 9.02 g/m*3 14.4 C 0 km/h
2134 21-08-2008 03:27:02 14.4 C 9.15 g/m*3 14.4 C 0 km/h
2135 21-08-2008 03:39:02 14.3 C 9.09 g/m*3 14.3 C 0 km/h
2136 21-08-2008 03:51:02 14.1 C 9.1 g/m*3 14.1 C 0 km/h
2137 21-08-2008 04:03:02 13.9 C 9.11 g/m*3 13.9 C 0 km/h
2138 21-08-2008 04:15:03 13.7 C 9 g/m*3 13.7 C 0 km/h
2139 21-08-2008 04:27:03 13.5 C 9.01 g/m*3 13.5 C 0 km/h
2140 21-08-2008 04:39:03 13.5 C 9.01 g/m*3 13.5 C 0 km/h
2141 21-08-2008 04:51:03 13.3 C 9.01 g/m*3 13.3 C 0 km/h
2142 21-08-2008 05:03:03 13.2 C 9.07 g/m*3 13.2 C 0 km/h
2143 21-08-2008 05:15:03 13.1 C 9.01 g/m*3 13.1 C 0 km/h
2144 21-08-2008 05:27:03 13.1 C 9.13 g/m*3 13.1 C 0 km/h
2145 21-08-2008 05:39:03 13.1 C 9.01 g/m*3 13.1 C 0 km/h
2146 21-08-2008 05:51:03 13.1 C 9.01 g/m*3 13.1 C 0 km/h
2147 21-08-2008 06:03:03 13 C 8.96 g/m*3 13 C 0 km/h
2148 21-08-2008 06:15:03 12.9 C 9.02 g/m*3 12.9 C 0 km/h
2149 21-08-2008 06:27:03 12.9 C 9.13 g/m*3 12.9 C 0 km/h
2150 21-08-2008 06:39:02 13.2 C 9.19 g/m*3 13.2 C 0 km/h
Sensor: Nr:Datum:Temp:Abs-Feuchte:Windchill:Wind:
Aussen-T/F 2151 21-08-2008 06:51:02 13.4 C 9.3 g/m*3 13.4 C 0 km/h
2152 21-08-2008 07:03:02 13.6 C 9.3 g/m*3 13.6 C 0 km/h
2153 21-08-2008 07:15:02 13.7 C 9.35 g/m*3 13.7 C 0 km/h
2154 21-08-2008 07:27:02 14 C 9.41 g/m*3 14 C 0 km/h
2155 21-08-2008 07:39:02 14.2 C 9.4 g/m*3 14.2 C 0 km/h
2156 21-08-2008 07:51:02 14.6 C 9.51 g/m*3 14.6 C 0 km/h
2157 21-08-2008 08:03:02 14.6 C 9.26 g/m*3 14.6 C 0 km/h
2158 21-08-2008 08:15:02 14.5 C 9.33 g/m*3 14.5 C 0 km/h
2159 21-08-2008 08:27:02 14.8 C 9.5 g/m*3 14.8 C 0 km/h
2160 21-08-2008 08:39:02 15.4 C 9.2 g/m*3 15.4 C 0 km/h
2161 21-08-2008 08:51:02 16 C 9.13 g/m*3 16 C 0 km/h
2162 21-08-2008 09:03:02 15.9 C 9.07 g/m*3 15.9 C 0 km/h
2163 21-08-2008 09:15:02 15.8 C 9.15 g/m*3 15.8 C 0 km/h
2164 21-08-2008 09:27:02 15.9 C 9.21 g/m*3 15.9 C 0 km/h
2165 21-08-2008 09:39:02 16.3 C 9.43 g/m*3 16.3 C 0 km/h
2166 21-08-2008 09:51:02 16.8 C 9.58 g/m*3 16.8 C 0 km/h
2167 21-08-2008 10:03:01 17.3 C 9.43 g/m*3 17.3 C 0 km/h
2168 21-08-2008 10:15:02 17.8 C 9.26 g/m*3 17.8 C 0 km/h
2169 21-08-2008 10:27:02 18.4 C 9.28 g/m*3 18.4 C 0 km/h
2170 21-08-2008 10:39:01 19.1 C 9.02 g/m*3 19.1 C 0 km/h
2171 21-08-2008 10:51:02 20.6 C 8.59 g/m*3 20.6 C 0 km/h
2172 21-08-2008 11:03:01 20.3 C 8.27 g/m*3 20.3 C 0 km/h
2173 21-08-2008 11:15:02 20.8 C 8.15 g/m*3 20.8 C 0 km/h
2174 21-08-2008 11:27:02 20.7 C 8.28 g/m*3 20.7 C 0 km/h
2175 21-08-2008 11:39:01 21.3 C 7.83 g/m*3 21.3 C 0 km/h
Sensor: Nr:Datum:Temp:Abs-Feuchte:Windchill:Wind:
Aussen-T/F 2176 21-08-2008 11:51:01 21.5 C 8.11 g/m*3 21.5 C 0 km/h
2177 21-08-2008 12:03:01 21.5 C 8.3 g/m*3 21.5 C 0 km/h
2178 21-08-2008 12:15:02 22.7 C 7.88 g/m*3 22.7 C 0 km/h
2179 21-08-2008 12:27:02 22.5 C 7.99 g/m*3 22.5 C 0 km/h
2180 21-08-2008 12:39:01 23.5 C 7.82 g/m*3 23.5 C 0 km/h
2181 21-08-2008 12:51:01 23.3 C 7.32 g/m*3 23.3 C 0 km/h
2182 21-08-2008 13:03:02 23.4 C 7.36 g/m*3 23.4 C 0 km/h
2183 21-08-2008 13:15:01 24.2 C 7.26 g/m*3 24.2 C 0 km/h
2184 21-08-2008 13:27:01 24.6 C 6.98 g/m*3 24.6 C 0 km/h
2185 21-08-2008 13:39:02 24.7 C 7.24 g/m*3 24.7 C 0 km/h
2186 21-08-2008 13:51:02 24.5 C 7.16 g/m*3 24.5 C 0 km/h
2187 21-08-2008 14:03:02 25.1 C 6.94 g/m*3 25.1 C 0 km/h
2188 21-08-2008 14:15:02 25.1 C 6.94 g/m*3 25.1 C 0 km/h
2189 21-08-2008 14:27:02 25.1 C 6.94 g/m*3 25.1 C 0 km/h
2190 21-08-2008 14:39:02 25.6 C 6.67 g/m*3 25.6 C 0 km/h
2191 21-08-2008 14:51:02 25.6 C 6.9 g/m*3 25.6 C 0 km/h
2192 21-08-2008 15:03:03 25.5 C 6.87 g/m*3 25.5 C 0 km/h
2193 21-08-2008 15:15:02 25.8 C 6.98 g/m*3 25.8 C 0 km/h
2194 21-08-2008 15:27:02 25.8 C 6.74 g/m*3 25.8 C 0 km/h
2195 21-08-2008 15:39:02 25.9 C 7.02 g/m*3 25.9 C 0 km/h
2196 21-08-2008 15:51:02 25.7 C 7.18 g/m*3 25.7 C 0 km/h
2197 21-08-2008 16:03:01 25.4 C 7.06 g/m*3 25.4 C 0 km/h
2198 21-08-2008 16:15:02 25.5 C 7.34 g/m*3 25.5 C 0 km/h
2199 21-08-2008 16:27:02 25.3 C 7.26 g/m*3 25.3 C 0 km/h
2200 21-08-2008 16:39:02 25.9 C 7.26 g/m*3 25.9 C 0 km/h
Sensor: Nr:Datum:Temp:Abs-Feuchte:Windchill:Wind:
Aussen-T/F 2201 21-08-2008 16:51:02 25.7 C 7.42 g/m*3 25.7 C 0 km/h
2202 21-08-2008 17:03:01 25.4 C 7.53 g/m*3 25.4 C 0 km/h
2203 21-08-2008 17:15:01 25 C 7.37 g/m*3 25 C 0 km/h
2204 21-08-2008 17:27:01 25.4 C 7.3 g/m*3 25.4 C 0 km/h
2205 21-08-2008 17:39:01 25.3 C 7.26 g/m*3 25.3 C 0 km/h
2206 21-08-2008 17:51:03 26.1 C 7.34 g/m*3 26.1 C 0 km/h
2207 21-08-2008 18:03:02 25.8 C 7.46 g/m*3 25.8 C 0 km/h
2208 21-08-2008 18:15:02 25.4 C 7.53 g/m*3 25.4 C 0 km/h
2209 21-08-2008 18:27:02 25.4 C 7.53 g/m*3 25.4 C 0 km/h
2210 21-08-2008 18:39:02 24.5 C 7.83 g/m*3 24.5 C 0 km/h
2211 21-08-2008 18:51:02 24.1 C 7.88 g/m*3 24.1 C 0 km/h
2212 21-08-2008 19:03:02 23.7 C 7.91 g/m*3 23.7 C 0 km/h
2213 21-08-2008 19:15:03 23.3 C 8.15 g/m*3 23.3 C 0 km/h
2214 21-08-2008 19:27:03 22.9 C 8.17 g/m*3 22.9 C 0 km/h
2215 21-08-2008 19:39:02 22.8 C 8.33 g/m*3 22.8 C 0 km/h
2216 21-08-2008 19:51:01 22.9 C 8.38 g/m*3 22.9 C 0 km/h
2217 21-08-2008 20:03:01 22.8 C 8.53 g/m*3 22.8 C 0 km/h
2218 21-08-2008 20:15:01 22.6 C 8.44 g/m*3 22.6 C 0 km/h
2219 21-08-2008 20:27:01 22.5 C 8.59 g/m*3 22.5 C 0 km/h
2220 21-08-2008 20:39:01 22.3 C 8.49 g/m*3 22.3 C 0 km/h
2221 21-08-2008 20:51:01 22.2 C 8.44 g/m*3 22.2 C 0 km/h
2222 21-08-2008 21:03:02 22 C 8.54 g/m*3 22 C 0 km/h
2223 21-08-2008 21:15:01 21.9 C 8.68 g/m*3 21.9 C 0 km/h
2224 21-08-2008 21:27:01 21.9 C 8.68 g/m*3 21.9 C 0 km/h
2225 21-08-2008 21:39:02 21.7 C 8.77 g/m*3 21.7 C 0 km/h
Sensor: Nr:Datum:Temp:Abs-Feuchte:Windchill:Wind:
Aussen-T/F 2226 21-08-2008 21:51:02 21.6 C 8.72 g/m*3 21.6 C 0 km/h
2227 21-08-2008 22:04:03 21.3 C 8.76 g/m*3 21.3 C 0 km/h
2228 21-08-2008 22:16:03 21.1 C 8.66 g/m*3 21.1 C 0 km/h
2229 21-08-2008 22:28:03 21 C 8.79 g/m*3 21 C 0 km/h
2230 21-08-2008 22:40:03 20.7 C 9 g/m*3 20.7 C 0 km/h
2231 21-08-2008 22:52:03 20.7 C 9 g/m*3 20.7 C 0 km/h
2232 21-08-2008 23:04:03 20.6 C 9.13 g/m*3 20.6 C 0 km/h
2233 21-08-2008 23:16:04 20.6 C 9.13 g/m*3 20.6 C 0 km/h
2234 21-08-2008 23:28:04 20.4 C 9.2 g/m*3 20.4 C 0 km/h
2235 21-08-2008 23:40:04 20.4 C 9.2 g/m*3 20.4 C 0 km/h
2236 21-08-2008 23:52:04 20.2 C 9.27 g/m*3 20.2 C 0 km/h
2237 22-08-2008 00:04:04 20.1 C 9.21 g/m*3 20.1 C 0 km/h
2238 22-08-2008 00:16:04 20 C 9.33 g/m*3 20 C 0 km/h
2239 22-08-2008 00:28:04 20.1 C 9.21 g/m*3 20.1 C 0 km/h
2240 22-08-2008 00:40:04 20 C 9.33 g/m*3 20 C 0 km/h
2241 22-08-2008 00:52:04 19.9 C 9.28 g/m*3 19.9 C 0 km/h
2242 22-08-2008 01:04:04 20 C 9.33 g/m*3 20 C 0 km/h
2243 22-08-2008 01:16:04 20.3 C 9.67 g/m*3 20.3 C 0 km/h
2244 22-08-2008 01:28:04 19.6 C 9.62 g/m*3 19.6 C 0 km/h
2245 22-08-2008 01:40:04 19.5 C 9.57 g/m*3 19.5 C 0 km/h
2246 22-08-2008 01:52:04 19.3 C 9.45 g/m*3 19.3 C 0 km/h
2247 22-08-2008 02:04:04 19.1 C 9.51 g/m*3 19.1 C 0 km/h
2248 22-08-2008 02:16:04 18.9 C 9.56 g/m*3 18.9 C 0 km/h
2249 22-08-2008 02:28:04 18.7 C 9.45 g/m*3 18.7 C 0 km/h
2250 22-08-2008 02:40:04 18.5 C 9.33 g/m*3 18.5 C 0 km/h
Sensor: Nr:Datum:Temp:Abs-Feuchte:Windchill:Wind:
Aussen-T/F 2251 22-08-2008 02:52:04 18.4 C 9.44 g/m*3 18.4 C 0 km/h
2252 22-08-2008 03:04:05 18.5 C 9.33 g/m*3 18.5 C 0 km/h
2253 22-08-2008 03:16:05 18.5 C 9.49 g/m*3 18.5 C 0 km/h
2254 22-08-2008 03:28:05 18.4 C 9.44 g/m*3 18.4 C 0 km/h
2255 22-08-2008 03:40:05 18.5 C 9.49 g/m*3 18.5 C 0 km/h
2256 22-08-2008 03:52:05 18.5 C 9.49 g/m*3 18.5 C 0 km/h
2257 22-08-2008 04:04:05 18.5 C 9.49 g/m*3 18.5 C 0 km/h
2258 22-08-2008 04:16:05 18.4 C 9.44 g/m*3 18.4 C 0 km/h
2259 22-08-2008 04:28:05 18.4 C 9.59 g/m*3 18.4 C 0 km/h
2260 22-08-2008 04:40:05 18.3 C 9.54 g/m*3 18.3 C 0 km/h
2261 22-08-2008 04:52:05 18.2 C 9.64 g/m*3 18.2 C 0 km/h
2262 22-08-2008 05:04:05 18.2 C 9.64 g/m*3 18.2 C 0 km/h
2263 22-08-2008 05:16:05 18.1 C 9.58 g/m*3 18.1 C 0 km/h
2264 22-08-2008 05:28:05 18.2 C 9.64 g/m*3 18.2 C 0 km/h
2265 22-08-2008 05:40:05 18.1 C 9.73 g/m*3 18.1 C 0 km/h
2266 22-08-2008 05:52:05 18 C 9.68 g/m*3 18 C 0 km/h
2267 22-08-2008 06:04:05 17.9 C 9.77 g/m*3 17.9 C 0 km/h
2268 22-08-2008 06:16:05 17.5 C 9.69 g/m*3 17.5 C 0 km/h
2269 22-08-2008 06:28:05 17.3 C 9.72 g/m*3 17.3 C 0 km/h
2270 22-08-2008 06:40:05 17 C 9.69 g/m*3 17 C 0 km/h
2271 22-08-2008 06:52:06 16.8 C 9.87 g/m*3 16.8 C 0 km/h
2272 22-08-2008 07:04:06 16.9 C 9.92 g/m*3 16.9 C 0 km/h
2273 22-08-2008 07:16:02 16.8 C 10.01 g/m*3 16.8 C 0 km/h
2274 22-08-2008 07:28:02 17 C 10.13 g/m*3 17 C 0 km/h
2275 22-08-2008 07:40:03 17.2 C 10.1 g/m*3 17.2 C 0 km/h
Sensor: Nr:Datum:Temp:Abs-Feuchte:Windchill:Wind:
Aussen-T/F 2276 22-08-2008 07:52:01 17.6 C 10.35 g/m*3 17.6 C 0 km/h
2277 22-08-2008 08:04:01 17.7 C 10.26 g/m*3 17.7 C 0 km/h
2278 22-08-2008 08:16:01 17.8 C 10.32 g/m*3 17.8 C 0 km/h
2279 22-08-2008 08:28:01 18 C 9.98 g/m*3 18 C 0 km/h
2280 22-08-2008 08:40:01 17.9 C 9.92 g/m*3 17.9 C 0 km/h
2281 22-08-2008 08:52:02 17.7 C 9.96 g/m*3 17.7 C 0 km/h
2282 22-08-2008 09:04:02 17.8 C 10.02 g/m*3 17.8 C 0 km/h
2283 22-08-2008 09:16:02 18.1 C 9.89 g/m*3 18.1 C 0 km/h
2284 22-08-2008 09:28:02 18.7 C 10.09 g/m*3 18.7 C 0 km/h
2285 22-08-2008 09:40:02 19.3 C 10.12 g/m*3 19.3 C 0 km/h
2286 22-08-2008 09:52:02 20 C 10.02 g/m*3 20 C 0 km/h
2287 22-08-2008 10:04:02 20.6 C 10.02 g/m*3 20.6 C 0 km/h
2288 22-08-2008 10:16:02 21.2 C 9.82 g/m*3 21.2 C 0 km/h
2289 22-08-2008 10:28:02 22.2 C 9.82 g/m*3 22.2 C 0 km/h
2290 22-08-2008 10:40:02 22.9 C 9.61 g/m*3 22.9 C 0 km/h
2291 22-08-2008 10:52:02 23.3 C 9.41 g/m*3 23.3 C 0 km/h
2292 22-08-2008 11:04:02 23.6 C 9.36 g/m*3 23.6 C 0 km/h
2293 22-08-2008 11:16:02 24.4 C 9.12 g/m*3 24.4 C 0 km/h
2294 22-08-2008 11:28:02 24.9 C 8.93 g/m*3 24.9 C 0 km/h
2295 22-08-2008 11:40:02 24.5 C 9.4 g/m*3 24.5 C 0 km/h
2296 22-08-2008 11:52:02 24.9 C 9.16 g/m*3 24.9 C 0 km/h
2297 22-08-2008 12:04:02 24.8 C 8.88 g/m*3 24.8 C 0 km/h
2298 22-08-2008 12:16:02 24.8 C 9.1 g/m*3 24.8 C 0 km/h
2299 22-08-2008 12:28:02 24.8 C 8.88 g/m*3 24.8 C 0 km/h
2300 22-08-2008 12:40:02 24.5 C 8.95 g/m*3 24.5 C 0 km/h
Sensor: Nr:Datum:Temp:Abs-Feuchte:Windchill:Wind:
Aussen-T/F 2301 22-08-2008 12:52:02 24.5 C 9.18 g/m*3 24.5 C 0 km/h
2302 22-08-2008 13:04:02 24.3 C 9.07 g/m*3 24.3 C 0 km/h
2303 22-08-2008 13:16:02 24.2 C 9.24 g/m*3 24.2 C 0 km/h
2304 22-08-2008 13:28:02 23.4 C 9.88 g/m*3 23.4 C 0 km/h
2305 22-08-2008 13:40:02 22.9 C 10.22 g/m*3 22.9 C 0 km/h
2306 22-08-2008 13:52:02 21.5 C 10.94 g/m*3 21.5 C 0 km/h
2307 22-08-2008 14:04:01 19.1 C 11.31 g/m*3 19.1 C 0 km/h
2308 22-08-2008 14:16:02 18.1 C 12.05 g/m*3 18.1 C 0 km/h
2309 22-08-2008 14:28:02 17.9 C 12.67 g/m*3 17.9 C 0 km/h
2310 22-08-2008 14:40:01 18.2 C 12.9 g/m*3 18.2 C 0 km/h
2311 22-08-2008 14:52:02 18.1 C 12.82 g/m*3 18.1 C 0 km/h
2312 22-08-2008 15:04:01 18.4 C 13.21 g/m*3 18.4 C 0 km/h
2313 22-08-2008 15:16:02 18.5 C 13.29 g/m*3 18.5 C 0 km/h
2314 22-08-2008 15:28:02 18 C 13.21 g/m*3 18 C 0 km/h
2315 22-08-2008 15:40:01 17.9 C 13.44 g/m*3 17.9 C 0 km/h
2316 22-08-2008 15:52:03 18.3 C 13.76 g/m*3 18.3 C 0 km/h
2317 22-08-2008 16:04:02 18.5 C 13.92 g/m*3 18.5 C 0 km/h
2318 22-08-2008 16:16:03 18.3 C 13.76 g/m*3 18.3 C 0 km/h
2319 22-08-2008 16:28:03 18.5 C 13.92 g/m*3 18.5 C 0 km/h
2320 22-08-2008 16:40:03 18.2 C 13.68 g/m*3 18.2 C 0 km/h
2321 22-08-2008 16:52:02 17.9 C 13.59 g/m*3 17.9 C 0 km/h
2322 22-08-2008 17:04:02 17.8 C 13.36 g/m*3 17.8 C 0 km/h
2323 22-08-2008 17:16:01 17.8 C 13.36 g/m*3 17.8 C 0 km/h
2324 22-08-2008 17:28:01 17.7 C 13.28 g/m*3 17.7 C 0 km/h
2325 22-08-2008 17:40:02 17.5 C 13.12 g/m*3 17.5 C 0 km/h
Sensor: Nr:Datum:Temp:Abs-Feuchte:Windchill:Wind:
Aussen-T/F 2326 22-08-2008 17:52:02 17.5 C 13.12 g/m*3 17.5 C 0 km/h
2327 22-08-2008 18:04:02 17.5 C 13.12 g/m*3 17.5 C 0 km/h
2328 22-08-2008 18:16:02 16.1 C 11.79 g/m*3 16.1 C 0 km/h
2329 22-08-2008 18:28:02 15.7 C 11.51 g/m*3 15.7 C 0 km/h
2330 22-08-2008 18:40:02 15.5 C 11.5 g/m*3 15.5 C 0 km/h
2331 22-08-2008 18:52:02 15.6 C 11.84 g/m*3 15.6 C 0 km/h
2332 22-08-2008 19:04:02 15.4 C 11.69 g/m*3 15.4 C 0 km/h
2333 22-08-2008 19:16:02 15.2 C 11.68 g/m*3 15.2 C 0 km/h
2334 22-08-2008 19:28:02 15.2 C 11.81 g/m*3 15.2 C 0 km/h
2335 22-08-2008 19:40:02 15.4 C 11.96 g/m*3 15.4 C 0 km/h
2336 22-08-2008 19:52:02 15.4 C 12.09 g/m*3 15.4 C 0 km/h
2337 22-08-2008 20:04:01 15.4 C 12.09 g/m*3 15.4 C 0 km/h
2338 22-08-2008 20:16:02 15.3 C 12.01 g/m*3 15.3 C 0 km/h
2339 22-08-2008 20:28:02 15.3 C 12.01 g/m*3 15.3 C 0 km/h
2340 22-08-2008 20:40:01 15.4 C 12.22 g/m*3 15.4 C 0 km/h
2341 22-08-2008 20:52:02 15.4 C 12.22 g/m*3 15.4 C 0 km/h
2342 22-08-2008 21:04:01 15.4 C 12.22 g/m*3 15.4 C 0 km/h
2343 22-08-2008 21:16:02 15.5 C 12.29 g/m*3 15.5 C 0 km/h
2344 22-08-2008 21:28:02 15.3 C 12.14 g/m*3 15.3 C 0 km/h
2345 22-08-2008 21:40:01 15.1 C 12 g/m*3 15.1 C 0 km/h
2346 22-08-2008 21:52:03 14.9 C 11.98 g/m*3 14.9 C 0 km/h
2347 22-08-2008 22:04:02 14.8 C 11.91 g/m*3 14.8 C 0 km/h
2348 22-08-2008 22:16:03 14.8 C 11.91 g/m*3 14.8 C 0 km/h
2349 22-08-2008 22:28:03 14.8 C 11.91 g/m*3 14.8 C 0 km/h
2350 22-08-2008 22:40:02 15 C 12.05 g/m*3 15 C 0 km/h
Sensor: Nr:Datum:Temp:Abs-Feuchte:Windchill:Wind:
Aussen-T/F 2351 22-08-2008 22:52:01 15 C 12.05 g/m*3 15 C 0 km/h
2352 22-08-2008 23:05:02 14.7 C 11.83 g/m*3 14.7 C 0 km/h
2353 22-08-2008 23:17:02 14.6 C 11.76 g/m*3 14.6 C 0 km/h
2354 22-08-2008 23:29:02 14.7 C 11.83 g/m*3 14.7 C 0 km/h
2355 22-08-2008 23:41:02 14.8 C 12.03 g/m*3 14.8 C 0 km/h
2356 22-08-2008 23:53:02 14.6 C 11.76 g/m*3 14.6 C 0 km/h
2357 23-08-2008 00:05:02 14.5 C 11.69 g/m*3 14.5 C 0 km/h
2358 23-08-2008 00:17:02 14.3 C 11.55 g/m*3 14.3 C 0 km/h
2359 23-08-2008 00:29:02 14.1 C 11.53 g/m*3 14.1 C 0 km/h
2360 23-08-2008 00:41:02 14 C 11.34 g/m*3 14 C 0 km/h
2361 23-08-2008 00:53:02 14 C 11.34 g/m*3 14 C 0 km/h
2362 23-08-2008 01:05:02 14 C 11.34 g/m*3 14 C 0 km/h
2363 23-08-2008 01:17:02 13.8 C 11.32 g/m*3 13.8 C 0 km/h
2364 23-08-2008 01:29:02 13.8 C 11.32 g/m*3 13.8 C 0 km/h
2365 23-08-2008 01:41:03 13.7 C 11.13 g/m*3 13.7 C 0 km/h
2366 23-08-2008 01:53:03 13.8 C 11.2 g/m*3 13.8 C 0 km/h
2367 23-08-2008 02:05:03 13.8 C 11.2 g/m*3 13.8 C 0 km/h
2368 23-08-2008 02:17:03 13.7 C 11.13 g/m*3 13.7 C 0 km/h
2369 23-08-2008 02:29:03 13.7 C 11.01 g/m*3 13.7 C 0 km/h
2370 23-08-2008 02:41:03 13.7 C 11.01 g/m*3 13.7 C 0 km/h
2371 23-08-2008 02:53:03 13.6 C 10.95 g/m*3 13.6 C 0 km/h
2372 23-08-2008 03:05:03 13.6 C 10.95 g/m*3 13.6 C 0 km/h
2373 23-08-2008 03:17:03 13.3 C 10.4 g/m*3 13.3 C 0 km/h
2374 23-08-2008 03:29:03 13 C 9.75 g/m*3 13 C 0 km/h
2375 23-08-2008 03:41:03 12.6 C 9.4 g/m*3 12.6 C 0 km/h
Sensor: Nr:Datum:Temp:Abs-Feuchte:Windchill:Wind:
Aussen-T/F 2376 23-08-2008 03:53:03 12.2 C 9.28 g/m*3 12.2 C 0 km/h
2377 23-08-2008 04:05:03 11.9 C 9.32 g/m*3 11.9 C 0 km/h
2378 23-08-2008 04:17:03 11.7 C 9.31 g/m*3 11.7 C 0 km/h
2379 23-08-2008 04:29:03 11.5 C 9.3 g/m*3 11.5 C 0 km/h
2380 23-08-2008 04:41:03 11.4 C 9.34 g/m*3 11.4 C 0 km/h
2381 23-08-2008 04:53:03 11.2 C 9.22 g/m*3 11.2 C 0 km/h
2382 23-08-2008 05:05:03 11.1 C 9.17 g/m*3 11.1 C 0 km/h
2383 23-08-2008 05:17:03 10.9 C 9.15 g/m*3 10.9 C 0 km/h
2384 23-08-2008 05:29:04 10.8 C 9.09 g/m*3 10.8 C 0 km/h
2385 23-08-2008 05:41:04 10.8 C 9.09 g/m*3 10.8 C 0 km/h
2386 23-08-2008 05:53:04 11 C 9.21 g/m*3 11 C 0 km/h
2387 23-08-2008 06:05:04 11.2 C 9.43 g/m*3 11.2 C 0 km/h
2388 23-08-2008 06:17:04 11 C 9.21 g/m*3 11 C 0 km/h
2389 23-08-2008 06:29:04 10.9 C 9.25 g/m*3 10.9 C 0 km/h
2390 23-08-2008 06:41:04 10.8 C 9.19 g/m*3 10.8 C 0 km/h
2391 23-08-2008 06:53:04 10.7 C 9.13 g/m*3 10.7 C 0 km/h
2392 23-08-2008 07:05:04 10.7 C 9.13 g/m*3 10.7 C 0 km/h
2393 23-08-2008 07:17:04 10.7 C 9.13 g/m*3 10.7 C 0 km/h
2394 23-08-2008 07:29:04 10.8 C 9.19 g/m*3 10.8 C 0 km/h
2395 23-08-2008 07:41:04 11.1 C 9.27 g/m*3 11.1 C 0 km/h
2396 23-08-2008 07:53:01 11.6 C 9.56 g/m*3 11.6 C 0 km/h
2397 23-08-2008 08:05:02 12 C 9.7 g/m*3 12 C 0 km/h
2398 23-08-2008 08:17:02 12.1 C 9.65 g/m*3 12.1 C 0 km/h
2399 23-08-2008 08:29:02 12.7 C 9.8 g/m*3 12.7 C 0 km/h
2400 23-08-2008 08:41:01 12.5 C 9.24 g/m*3 12.5 C 0 km/h
Sensor: Nr:Datum:Temp:Abs-Feuchte:Windchill:Wind:
Aussen-T/F 2401 23-08-2008 08:53:01 12.6 C 9.07 g/m*3 12.6 C 0 km/h
2402 23-08-2008 09:05:02 12.8 C 8.96 g/m*3 12.8 C 0 km/h
2403 23-08-2008 09:17:01 13.2 C 8.96 g/m*3 13.2 C 0 km/h
2404 23-08-2008 09:29:01 13.3 C 8.78 g/m*3 13.3 C 0 km/h
2405 23-08-2008 09:41:01 13.4 C 9.07 g/m*3 13.4 C 0 km/h
2406 23-08-2008 09:53:02 14.5 C 9.58 g/m*3 14.5 C 0 km/h
2407 23-08-2008 10:05:01 14.4 C 8.78 g/m*3 14.4 C 0 km/h
2408 23-08-2008 10:17:02 14.8 C 8.99 g/m*3 14.8 C 0 km/h
2409 23-08-2008 10:29:02 15.1 C 8.9 g/m*3 15.1 C 0 km/h
2410 23-08-2008 10:41:01 15.7 C 8.7 g/m*3 15.7 C 0 km/h
2411 23-08-2008 10:53:02 16 C 8.72 g/m*3 16 C 0 km/h
2412 23-08-2008 11:05:02 16.3 C 8.6 g/m*3 16.3 C 0 km/h
2413 23-08-2008 11:17:03 16.6 C 8.62 g/m*3 16.6 C 0 km/h
2414 23-08-2008 11:29:03 17.1 C 8.44 g/m*3 17.1 C 0 km/h
2415 23-08-2008 11:41:02 17.4 C 8.3 g/m*3 17.4 C 0 km/h
2416 23-08-2008 11:53:01 17.7 C 8.3 g/m*3 17.7 C 0 km/h
2417 23-08-2008 12:05:02 17.9 C 8.4 g/m*3 17.9 C 0 km/h
2418 23-08-2008 12:17:01 18.5 C 7.59 g/m*3 18.5 C 0 km/h
2419 23-08-2008 12:29:01 17.5 C 7.6 g/m*3 17.5 C 0 km/h
2420 23-08-2008 12:41:02 17.5 C 7.6 g/m*3 17.5 C 0 km/h
2421 23-08-2008 12:53:02 17.7 C 7.85 g/m*3 17.7 C 0 km/h
2422 23-08-2008 13:05:02 18.2 C 7.62 g/m*3 18.2 C 0 km/h
2423 23-08-2008 13:17:02 18 C 7.68 g/m*3 18 C 0 km/h
2424 23-08-2008 13:29:02 17.5 C 7.6 g/m*3 17.5 C 0 km/h
2425 23-08-2008 13:41:02 17.5 C 7.6 g/m*3 17.5 C 0 km/h
Sensor: Nr:Datum:Temp:Abs-Feuchte:Windchill:Wind:
Aussen-T/F 2426 23-08-2008 13:53:02 18.4 C 7.24 g/m*3 18.4 C 0 km/h
2427 23-08-2008 14:05:03 17.9 C 7.79 g/m*3 17.9 C 0 km/h
2428 23-08-2008 14:17:02 17.7 C 6.49 g/m*3 17.7 C 0 km/h
2429 23-08-2008 14:29:02 17.9 C 6.11 g/m*3 17.9 C 0 km/h
2430 23-08-2008 14:41:03 17.7 C 5.88 g/m*3 17.7 C 0 km/h
2431 23-08-2008 14:53:02 17.5 C 6.11 g/m*3 17.5 C 0 km/h
2432 23-08-2008 15:05:02 17.2 C 6.15 g/m*3 17.2 C 0 km/h
2433 23-08-2008 15:17:02 17.1 C 6.26 g/m*3 17.1 C 0 km/h
2434 23-08-2008 15:29:02 17.1 C 6.4 g/m*3 17.1 C 0 km/h
2435 23-08-2008 15:41:02 17 C 6.8 g/m*3 17 C 0 km/h
2436 23-08-2008 15:53:01 17.3 C 6.78 g/m*3 17.3 C 0 km/h
2437 23-08-2008 16:05:02 16.6 C 7.2 g/m*3 16.6 C 0 km/h
2438 23-08-2008 16:17:02 17.4 C 7.41 g/m*3 17.4 C 0 km/h
2439 23-08-2008 16:29:02 18.6 C 7.16 g/m*3 18.6 C 0 km/h
2440 23-08-2008 16:41:02 18.1 C 7.26 g/m*3 18.1 C 0 km/h
2441 23-08-2008 16:53:02 18.5 C 7.91 g/m*3 18.5 C 0 km/h
2442 23-08-2008 17:05:02 19.7 C 7.64 g/m*3 19.7 C 0 km/h
2443 23-08-2008 17:17:02 19.6 C 7.6 g/m*3 19.6 C 0 km/h
2444 23-08-2008 17:29:02 19.7 C 7.64 g/m*3 19.7 C 0 km/h
2445 23-08-2008 17:41:02 19.1 C 7.21 g/m*3 19.1 C 0 km/h
2446 23-08-2008 17:53:02 19.5 C 7.55 g/m*3 19.5 C 0 km/h
2447 23-08-2008 18:05:03 18.9 C 6.97 g/m*3 18.9 C 0 km/h
2448 23-08-2008 18:17:02 18.8 C 7.09 g/m*3 18.8 C 0 km/h
2449 23-08-2008 18:29:02 18.7 C 6.88 g/m*3 18.7 C 0 km/h
2450 23-08-2008 18:41:03 18.6 C 6.84 g/m*3 18.6 C 0 km/h
Sensor: Nr:Datum:Temp:Abs-Feuchte:Windchill:Wind:
Aussen-T/F 2451 23-08-2008 18:53:02 18.4 C 6.92 g/m*3 18.4 C 0 km/h
2452 23-08-2008 19:05:02 18.2 C 7.15 g/m*3 18.2 C 0 km/h
2453 23-08-2008 19:17:02 17 C 8.39 g/m*3 17 C 0 km/h
2454 23-08-2008 19:29:03 16.8 C 9.29 g/m*3 16.8 C 0 km/h
2455 23-08-2008 19:41:02 16 C 9.4 g/m*3 16 C 0 km/h
2456 23-08-2008 19:53:02 15.9 C 9.89 g/m*3 15.9 C 0 km/h
2457 23-08-2008 20:05:02 15.8 C 9.69 g/m*3 15.8 C 0 km/h
2458 23-08-2008 20:17:02 16 C 8.58 g/m*3 16 C 0 km/h
2459 23-08-2008 20:29:02 16.3 C 8.19 g/m*3 16.3 C 0 km/h
2460 23-08-2008 20:41:02 15.8 C 8.48 g/m*3 15.8 C 0 km/h
2461 23-08-2008 20:53:01 14.9 C 9.18 g/m*3 14.9 C 0 km/h
2462 23-08-2008 21:05:02 14.5 C 9.58 g/m*3 14.5 C 0 km/h
2463 23-08-2008 21:17:02 14.2 C 9.89 g/m*3 14.2 C 0 km/h
2464 23-08-2008 21:29:02 14 C 10.01 g/m*3 14 C 0 km/h
2465 23-08-2008 21:41:02 14.2 C 10.14 g/m*3 14.2 C 0 km/h
2466 23-08-2008 21:53:02 14.1 C 9.95 g/m*3 14.1 C 0 km/h
2467 23-08-2008 22:06:01 14.3 C 9.95 g/m*3 14.3 C 0 km/h
2468 23-08-2008 22:18:01 14.4 C 9.77 g/m*3 14.4 C 0 km/h
2469 23-08-2008 22:30:01 14.6 C 9.76 g/m*3 14.6 C 0 km/h
2470 23-08-2008 22:42:01 14.4 C 9.52 g/m*3 14.4 C 0 km/h
2471 23-08-2008 22:54:01 14.1 C 9.47 g/m*3 14.1 C 0 km/h
2472 23-08-2008 23:06:01 14 C 9.41 g/m*3 14 C 0 km/h
2473 23-08-2008 23:18:01 13.9 C 9.47 g/m*3 13.9 C 0 km/h
2474 23-08-2008 23:30:01 13.9 C 9.35 g/m*3 13.9 C 0 km/h
2475 23-08-2008 23:42:01 14.1 C 9.1 g/m*3 14.1 C 0 km/h
Sensor: Nr:Datum:Temp:Abs-Feuchte:Windchill:Wind:
Aussen-T/F 2476 23-08-2008 23:54:02 14.2 C 9.16 g/m*3 14.2 C 0 km/h
2477 24-08-2008 00:06:02 13.9 C 9.11 g/m*3 13.9 C 0 km/h
2478 24-08-2008 00:18:02 13.8 C 9.17 g/m*3 13.8 C 0 km/h
2479 24-08-2008 00:30:02 13.6 C 9.06 g/m*3 13.6 C 0 km/h
2480 24-08-2008 00:42:02 13.6 C 9.06 g/m*3 13.6 C 0 km/h
2481 24-08-2008 00:54:02 13.5 C 9.01 g/m*3 13.5 C 0 km/h
2482 24-08-2008 01:06:02 13.5 C 9.01 g/m*3 13.5 C 0 km/h
2483 24-08-2008 01:18:02 13.4 C 8.95 g/m*3 13.4 C 0 km/h
2484 24-08-2008 01:30:02 13.5 C 8.89 g/m*3 13.5 C 0 km/h
2485 24-08-2008 01:42:02 13.2 C 8.84 g/m*3 13.2 C 0 km/h
2486 24-08-2008 01:54:02 12.9 C 8.9 g/m*3 12.9 C 0 km/h
2487 24-08-2008 02:06:02 13 C 8.96 g/m*3 13 C 0 km/h
2488 24-08-2008 02:18:02 13.1 C 8.9 g/m*3 13.1 C 0 km/h
2489 24-08-2008 02:30:02 12.8 C 8.85 g/m*3 12.8 C 0 km/h
2490 24-08-2008 02:42:02 12.6 C 8.96 g/m*3 12.6 C 0 km/h
2491 24-08-2008 02:54:02 12.5 C 8.91 g/m*3 12.5 C 0 km/h
2492 24-08-2008 03:06:02 12.3 C 8.9 g/m*3 12.3 C 0 km/h
2493 24-08-2008 03:18:02 12.4 C 8.96 g/m*3 12.4 C 0 km/h
2494 24-08-2008 03:30:02 12.5 C 8.91 g/m*3 12.5 C 0 km/h
2495 24-08-2008 03:42:03 12.4 C 8.85 g/m*3 12.4 C 0 km/h
2496 24-08-2008 03:54:03 12.1 C 8.9 g/m*3 12.1 C 0 km/h
2497 24-08-2008 04:06:03 12.1 C 8.79 g/m*3 12.1 C 0 km/h
2498 24-08-2008 04:18:03 12 C 8.85 g/m*3 12 C 0 km/h
2499 24-08-2008 04:30:03 12 C 8.85 g/m*3 12 C 0 km/h
2500 24-08-2008 04:42:03 11.8 C 8.84 g/m*3 11.8 C 0 km/h
Sensor: Nr:Datum:Temp:Abs-Feuchte:Windchill:Wind:
Aussen-T/F 2501 24-08-2008 04:54:03 11.7 C 8.79 g/m*3 11.7 C 0 km/h
2502 24-08-2008 05:06:03 11.4 C 8.72 g/m*3 11.4 C 0 km/h
2503 24-08-2008 05:18:03 11.2 C 8.72 g/m*3 11.2 C 0 km/h
2504 24-08-2008 05:30:03 11.2 C 8.82 g/m*3 11.2 C 0 km/h
2505 24-08-2008 05:42:03 11.1 C 8.76 g/m*3 11.1 C 0 km/h
2506 24-08-2008 05:54:03 11.2 C 8.82 g/m*3 11.2 C 0 km/h
2507 24-08-2008 06:06:03 11.2 C 8.82 g/m*3 11.2 C 0 km/h
2508 24-08-2008 06:18:03 11.5 C 8.99 g/m*3 11.5 C 0 km/h
2509 24-08-2008 06:30:03 11.7 C 8.99 g/m*3 11.7 C 0 km/h
2510 24-08-2008 06:42:03 11.8 C 8.95 g/m*3 11.8 C 0 km/h
2511 24-08-2008 06:54:03 11.7 C 8.89 g/m*3 11.7 C 0 km/h
2512 24-08-2008 07:06:03 11.8 C 8.95 g/m*3 11.8 C 0 km/h
2513 24-08-2008 07:18:03 11.8 C 8.95 g/m*3 11.8 C 0 km/h
2514 24-08-2008 07:30:03 11.6 C 8.83 g/m*3 11.6 C 0 km/h
2515 24-08-2008 07:42:04 11.6 C 8.83 g/m*3 11.6 C 0 km/h
2516 24-08-2008 07:54:04 11.7 C 8.89 g/m*3 11.7 C 0 km/h
2517 24-08-2008 08:06:04 11.6 C 8.94 g/m*3 11.6 C 0 km/h
2518 24-08-2008 08:18:04 11.8 C 9.05 g/m*3 11.8 C 0 km/h
2519 24-08-2008 08:30:04 11.9 C 9 g/m*3 11.9 C 0 km/h
2520 24-08-2008 08:42:04 12.1 C 9.01 g/m*3 12.1 C 0 km/h
2521 24-08-2008 08:54:04 12.3 C 9.12 g/m*3 12.3 C 0 km/h
2522 24-08-2008 09:06:02 12.5 C 9.24 g/m*3 12.5 C 0 km/h
2523 24-08-2008 09:18:02 12.8 C 9.3 g/m*3 12.8 C 0 km/h
2524 24-08-2008 09:30:02 13.5 C 9.36 g/m*3 13.5 C 0 km/h
2525 24-08-2008 09:42:02 14 C 9.17 g/m*3 14 C 0 km/h
Sensor: Nr:Datum:Temp:Abs-Feuchte:Windchill:Wind:
Aussen-T/F 2526 24-08-2008 09:54:02 14.2 C 9.28 g/m*3 14.2 C 0 km/h
2527 24-08-2008 10:06:02 15.2 C 9.48 g/m*3 15.2 C 0 km/h
2528 24-08-2008 10:18:02 15.5 C 9.25 g/m*3 15.5 C 0 km/h
2529 24-08-2008 10:30:03 15.8 C 9.29 g/m*3 15.8 C 0 km/h
2530 24-08-2008 10:42:02 16.2 C 8.96 g/m*3 16.2 C 0 km/h
2531 24-08-2008 10:54:02 16.4 C 8.93 g/m*3 16.4 C 0 km/h
2532 24-08-2008 11:06:02 16.6 C 8.9 g/m*3 16.6 C 0 km/h
2533 24-08-2008 11:18:02 17 C 8.68 g/m*3 17 C 0 km/h
2534 24-08-2008 11:30:02 17.4 C 8.6 g/m*3 17.4 C 0 km/h
2535 24-08-2008 11:42:02 18.4 C 8.34 g/m*3 18.4 C 0 km/h
2536 24-08-2008 11:54:02 19.1 C 7.7 g/m*3 19.1 C 0 km/h
2537 24-08-2008 12:06:02 19.1 C 7.38 g/m*3 19.1 C 0 km/h
2538 24-08-2008 12:18:02 19.2 C 7.59 g/m*3 19.2 C 0 km/h
2539 24-08-2008 12:30:02 19.7 C 7.47 g/m*3 19.7 C 0 km/h
2540 24-08-2008 12:42:02 19.5 C 6.88 g/m*3 19.5 C 0 km/h
2541 24-08-2008 12:54:02 19.6 C 6.92 g/m*3 19.6 C 0 km/h
2542 24-08-2008 13:06:02 19.6 C 6.75 g/m*3 19.6 C 0 km/h
2543 24-08-2008 13:18:01 20.5 C 6.94 g/m*3 20.5 C 0 km/h
2544 24-08-2008 13:30:01 21.1 C 6.82 g/m*3 21.1 C 0 km/h
2545 24-08-2008 13:42:02 21.6 C 6.45 g/m*3 21.6 C 0 km/h
2546 24-08-2008 13:54:02 21.9 C 6.56 g/m*3 21.9 C 0 km/h
2547 24-08-2008 14:06:03 21.3 C 6.34 g/m*3 21.3 C 0 km/h
2548 24-08-2008 14:18:02 21.5 C 6.22 g/m*3 21.5 C 0 km/h
2549 24-08-2008 14:30:02 21.6 C 6.07 g/m*3 21.6 C 0 km/h
2550 24-08-2008 14:42:03 22.5 C 5.99 g/m*3 22.5 C 0 km/h
Sensor: Nr:Datum:Temp:Abs-Feuchte:Windchill:Wind:
Aussen-T/F 2551 24-08-2008 14:54:02 22 C 6.02 g/m*3 22 C 0 km/h
2552 24-08-2008 15:06:01 22.1 C 6.05 g/m*3 22.1 C 0 km/h
2553 24-08-2008 15:18:02 22.9 C 6.34 g/m*3 22.9 C 0 km/h
2554 24-08-2008 15:30:03 22.9 C 6.13 g/m*3 22.9 C 0 km/h
2555 24-08-2008 15:42:01 22.7 C 6.26 g/m*3 22.7 C 0 km/h
2556 24-08-2008 15:54:02 22.4 C 5.96 g/m*3 22.4 C 0 km/h
2557 24-08-2008 16:06:02 22.7 C 6.06 g/m*3 22.7 C 0 km/h
2558 24-08-2008 16:18:02 22.7 C 6.26 g/m*3 22.7 C 0 km/h
2559 24-08-2008 16:30:02 22.6 C 6.23 g/m*3 22.6 C 0 km/h
2560 24-08-2008 16:42:02 22.4 C 6.16 g/m*3 22.4 C 0 km/h
2561 24-08-2008 16:54:01 22.7 C 6.06 g/m*3 22.7 C 0 km/h
2562 24-08-2008 17:06:02 22.5 C 5.99 g/m*3 22.5 C 0 km/h
2563 24-08-2008 17:18:02 22.4 C 6.36 g/m*3 22.4 C 0 km/h
2564 24-08-2008 17:30:02 23.5 C 5.71 g/m*3 23.5 C 0 km/h
2565 24-08-2008 17:42:02 23.4 C 5.89 g/m*3 23.4 C 0 km/h
2566 24-08-2008 17:54:01 22.1 C 6.25 g/m*3 22.1 C 0 km/h
2567 24-08-2008 18:06:01 21.8 C 6.91 g/m*3 21.8 C 0 km/h
2568 24-08-2008 18:18:02 21.9 C 6.95 g/m*3 21.9 C 0 km/h
2569 24-08-2008 18:30:03 21.6 C 7.59 g/m*3 21.6 C 0 km/h
2570 24-08-2008 18:42:01 21.2 C 7.41 g/m*3 21.2 C 0 km/h
2571 24-08-2008 18:54:03 21.1 C 7 g/m*3 21.1 C 0 km/h
2572 24-08-2008 19:06:02 21 C 7.33 g/m*3 21 C 0 km/h
2573 24-08-2008 19:18:03 20.7 C 7.56 g/m*3 20.7 C 0 km/h
2574 24-08-2008 19:30:03 20.3 C 7.74 g/m*3 20.3 C 0 km/h
2575 24-08-2008 19:42:02 19.9 C 7.73 g/m*3 19.9 C 0 km/h
Sensor: Nr:Datum:Temp:Abs-Feuchte:Windchill:Wind:
Aussen-T/F 2576 24-08-2008 19:54:01 19.5 C 7.89 g/m*3 19.5 C 0 km/h
2577 24-08-2008 20:06:01 19 C 7.66 g/m*3 19 C 0 km/h
2578 24-08-2008 20:18:01 18.8 C 7.89 g/m*3 18.8 C 0 km/h
2579 24-08-2008 20:30:01 18.6 C 8.12 g/m*3 18.6 C 0 km/h
2580 24-08-2008 20:42:01 18.3 C 8.13 g/m*3 18.3 C 0 km/h
2581 24-08-2008 20:54:01 18.2 C 8.24 g/m*3 18.2 C 0 km/h
2582 24-08-2008 21:06:02 17.9 C 8.24 g/m*3 17.9 C 0 km/h
2583 24-08-2008 21:18:01 17.9 C 8.24 g/m*3 17.9 C 0 km/h
2584 24-08-2008 21:30:01 17.9 C 8.4 g/m*3 17.9 C 0 km/h
2585 24-08-2008 21:42:02 17.9 C 8.09 g/m*3 17.9 C 0 km/h
2586 24-08-2008 21:55:03 17.9 C 8.24 g/m*3 17.9 C 0 km/h
2587 24-08-2008 22:07:03 17.9 C 8.09 g/m*3 17.9 C 0 km/h
2588 24-08-2008 22:19:03 17.8 C 8.2 g/m*3 17.8 C 0 km/h
2589 24-08-2008 22:31:03 17.3 C 8.54 g/m*3 17.3 C 0 km/h
2590 24-08-2008 22:43:03 16.4 C 9.07 g/m*3 16.4 C 0 km/h
2591 24-08-2008 22:55:03 16.2 C 9.38 g/m*3 16.2 C 0 km/h
2592 24-08-2008 23:07:03 15.9 C 9.89 g/m*3 15.9 C 0 km/h
2593 24-08-2008 23:19:03 15.6 C 10.24 g/m*3 15.6 C 0 km/h
2594 24-08-2008 23:31:03 15.4 C 10.38 g/m*3 15.4 C 0 km/h
2595 24-08-2008 23:43:03 15 C 10.51 g/m*3 15 C 0 km/h
2596 24-08-2008 23:55:03 14.6 C 10.64 g/m*3 14.6 C 0 km/h
2597 25-08-2008 00:07:03 14.5 C 10.7 g/m*3 14.5 C 0 km/h
2598 25-08-2008 00:19:03 14.4 C 10.88 g/m*3 14.4 C 0 km/h
2599 25-08-2008 00:31:03 14.5 C 11.07 g/m*3 14.5 C 0 km/h
2600 25-08-2008 00:43:03 14.5 C 11.07 g/m*3 14.5 C 0 km/h
Sensor: Nr:Datum:Temp:Abs-Feuchte:Windchill:Wind:
Aussen-T/F 2601 25-08-2008 00:55:03 14.4 C 11.13 g/m*3 14.4 C 0 km/h
2602 25-08-2008 01:07:03 14.5 C 11.19 g/m*3 14.5 C 0 km/h
2603 25-08-2008 01:19:03 14.4 C 11.13 g/m*3 14.4 C 0 km/h
2604 25-08-2008 01:31:04 14.4 C 11.13 g/m*3 14.4 C 0 km/h
2605 25-08-2008 01:43:04 14.4 C 11.13 g/m*3 14.4 C 0 km/h
2606 25-08-2008 01:55:04 14.5 C 11.19 g/m*3 14.5 C 0 km/h
2607 25-08-2008 02:07:04 14.7 C 11.46 g/m*3 14.7 C 0 km/h
2608 25-08-2008 02:19:04 14.7 C 11.33 g/m*3 14.7 C 0 km/h
2609 25-08-2008 02:31:04 14.6 C 11.26 g/m*3 14.6 C 0 km/h
2610 25-08-2008 02:43:04 14.7 C 11.33 g/m*3 14.7 C 0 km/h
2611 25-08-2008 02:55:04 14.6 C 11.26 g/m*3 14.6 C 0 km/h
2612 25-08-2008 03:07:04 14.5 C 11.19 g/m*3 14.5 C 0 km/h
2613 25-08-2008 03:19:04 14.5 C 11.07 g/m*3 14.5 C 0 km/h
2614 25-08-2008 03:31:04 14.4 C 11 g/m*3 14.4 C 0 km/h
2615 25-08-2008 03:43:04 14.4 C 11 g/m*3 14.4 C 0 km/h
2616 25-08-2008 03:55:04 14.4 C 11.13 g/m*3 14.4 C 0 km/h
2617 25-08-2008 04:07:04 14.4 C 11.13 g/m*3 14.4 C 0 km/h
2618 25-08-2008 04:19:04 14.3 C 10.93 g/m*3 14.3 C 0 km/h
2619 25-08-2008 04:31:04 14.3 C 11.06 g/m*3 14.3 C 0 km/h
2620 25-08-2008 04:43:04 14.3 C 11.06 g/m*3 14.3 C 0 km/h
2621 25-08-2008 04:55:04 14.2 C 10.99 g/m*3 14.2 C 0 km/h
2622 25-08-2008 05:07:04 14.2 C 10.99 g/m*3 14.2 C 0 km/h
2623 25-08-2008 05:19:04 14.2 C 11.11 g/m*3 14.2 C 0 km/h
2624 25-08-2008 05:31:05 14.2 C 11.11 g/m*3 14.2 C 0 km/h
2625 25-08-2008 05:43:05 14.3 C 11.18 g/m*3 14.3 C 0 km/h
Sensor: Nr:Datum:Temp:Abs-Feuchte:Windchill:Wind:
Aussen-T/F 2626 25-08-2008 05:55:05 14.2 C 11.11 g/m*3 14.2 C 0 km/h
2627 25-08-2008 06:07:05 14.3 C 11.06 g/m*3 14.3 C 0 km/h
2628 25-08-2008 06:19:05 14.4 C 11 g/m*3 14.4 C 0 km/h
2629 25-08-2008 06:31:05 14.5 C 10.94 g/m*3 14.5 C 0 km/h
2630 25-08-2008 06:43:05 14.6 C 10.89 g/m*3 14.6 C 0 km/h
2631 25-08-2008 06:55:05 14.6 C 10.89 g/m*3 14.6 C 0 km/h
2632 25-08-2008 07:07:05 14.7 C 10.95 g/m*3 14.7 C 0 km/h
2633 25-08-2008 07:19:05 14.8 C 11.02 g/m*3 14.8 C 0 km/h
2634 25-08-2008 07:31:03 14.7 C 11.08 g/m*3 14.7 C 0 km/h
2635 25-08-2008 07:43:03 14.7 C 11.08 g/m*3 14.7 C 0 km/h
2636 25-08-2008 07:55:02 14.7 C 11.08 g/m*3 14.7 C 0 km/h
2637 25-08-2008 08:07:01 14.8 C 11.15 g/m*3 14.8 C 0 km/h
2638 25-08-2008 08:19:01 14.8 C 11.15 g/m*3 14.8 C 0 km/h
2639 25-08-2008 08:31:02 14.9 C 11.09 g/m*3 14.9 C 0 km/h
2640 25-08-2008 08:43:02 15.1 C 11.22 g/m*3 15.1 C 0 km/h
2641 25-08-2008 08:55:02 15.2 C 11.29 g/m*3 15.2 C 0 km/h
2642 25-08-2008 09:07:02 15.5 C 11.5 g/m*3 15.5 C 0 km/h
2643 25-08-2008 09:19:03 15.6 C 11.44 g/m*3 15.6 C 0 km/h
2644 25-08-2008 09:31:02 15.6 C 11.57 g/m*3 15.6 C 0 km/h
2645 25-08-2008 09:43:02 15.9 C 11.78 g/m*3 15.9 C 0 km/h
2646 25-08-2008 09:55:02 16 C 11.58 g/m*3 16 C 0 km/h
2647 25-08-2008 10:07:01 16.5 C 11.8 g/m*3 16.5 C 0 km/h
2648 25-08-2008 10:19:02 16.8 C 11.87 g/m*3 16.8 C 0 km/h
2649 25-08-2008 10:31:01 17 C 11.87 g/m*3 17 C 0 km/h
2650 25-08-2008 10:43:01 17 C 11.58 g/m*3 17 C 0 km/h
Sensor: Nr:Datum:Temp:Abs-Feuchte:Windchill:Wind:
Aussen-T/F 2651 25-08-2008 10:55:02 17.1 C 11.35 g/m*3 17.1 C 0 km/h
2652 25-08-2008 11:07:01 17.2 C 11.42 g/m*3 17.2 C 0 km/h
2653 25-08-2008 11:19:02 17.5 C 11.48 g/m*3 17.5 C 0 km/h
2654 25-08-2008 11:31:01 17.7 C 11.47 g/m*3 17.7 C 0 km/h
2655 25-08-2008 11:43:01 17.9 C 11.45 g/m*3 17.9 C 0 km/h
2656 25-08-2008 11:55:02 18.7 C 11.37 g/m*3 18.7 C 0 km/h
2657 25-08-2008 12:07:02 18.9 C 11.18 g/m*3 18.9 C 0 km/h
2658 25-08-2008 12:19:02 19.5 C 10.74 g/m*3 19.5 C 0 km/h
2659 25-08-2008 12:31:02 19.6 C 10.8 g/m*3 19.6 C 0 km/h
2660 25-08-2008 12:43:02 20 C 10.71 g/m*3 20 C 0 km/h
2661 25-08-2008 12:55:02 20.5 C 10.5 g/m*3 20.5 C 0 km/h
2662 25-08-2008 13:07:03 20 C 10.37 g/m*3 20 C 0 km/h
2663 25-08-2008 13:19:02 19.4 C 10.34 g/m*3 19.4 C 0 km/h
2664 25-08-2008 13:31:03 20 C 10.54 g/m*3 20 C 0 km/h
2665 25-08-2008 13:43:03 20.5 C 10.32 g/m*3 20.5 C 0 km/h
2666 25-08-2008 13:55:02 19.7 C 10.36 g/m*3 19.7 C 0 km/h
2667 25-08-2008 14:07:01 20 C 10.37 g/m*3 20 C 0 km/h
2668 25-08-2008 14:19:02 20.5 C 10.32 g/m*3 20.5 C 0 km/h
2669 25-08-2008 14:31:01 20.8 C 10.32 g/m*3 20.8 C 0 km/h
2670 25-08-2008 14:43:01 20.9 C 10.2 g/m*3 20.9 C 0 km/h
2671 25-08-2008 14:55:02 21.2 C 10.01 g/m*3 21.2 C 0 km/h
2672 25-08-2008 15:07:01 20.4 C 10.26 g/m*3 20.4 C 0 km/h
2673 25-08-2008 15:19:02 20.7 C 10.62 g/m*3 20.7 C 0 km/h
2674 25-08-2008 15:31:01 21.4 C 10.31 g/m*3 21.4 C 0 km/h
2675 25-08-2008 15:43:01 21.4 C 10.31 g/m*3 21.4 C 0 km/h
Sensor: Nr:Datum:Temp:Abs-Feuchte:Windchill:Wind:
Aussen-T/F 2676 25-08-2008 15:55:02 22.2 C 9.82 g/m*3 22.2 C 0 km/h
2677 25-08-2008 16:07:01 22.4 C 9.93 g/m*3 22.4 C 0 km/h
2678 25-08-2008 16:19:02 22.4 C 10.13 g/m*3 22.4 C 0 km/h
2679 25-08-2008 16:31:01 22.5 C 9.79 g/m*3 22.5 C 0 km/h
2680 25-08-2008 16:43:01 22.4 C 10.13 g/m*3 22.4 C 0 km/h
2681 25-08-2008 16:55:01 23.5 C 9.73 g/m*3 23.5 C 0 km/h
2682 25-08-2008 17:07:02 23.8 C 9.9 g/m*3 23.8 C 0 km/h
2683 25-08-2008 17:19:01 23.9 C 9.74 g/m*3 23.9 C 0 km/h
2684 25-08-2008 17:31:02 23.8 C 9.68 g/m*3 23.8 C 0 km/h
2685 25-08-2008 17:43:02 22.6 C 9.84 g/m*3 22.6 C 0 km/h
2686 25-08-2008 17:55:02 21.9 C 10.03 g/m*3 21.9 C 0 km/h
2687 25-08-2008 18:07:02 21.9 C 10.23 g/m*3 21.9 C 0 km/h
2688 25-08-2008 18:19:02 21.4 C 10.12 g/m*3 21.4 C 0 km/h
2689 25-08-2008 18:31:02 21 C 10.08 g/m*3 21 C 0 km/h
2690 25-08-2008 18:43:02 21 C 10.62 g/m*3 21 C 0 km/h
2691 25-08-2008 18:55:02 20.9 C 10.75 g/m*3 20.9 C 0 km/h
2692 25-08-2008 19:07:03 20.9 C 10.75 g/m*3 20.9 C 0 km/h
2693 25-08-2008 19:19:02 20.5 C 10.85 g/m*3 20.5 C 0 km/h
2694 25-08-2008 19:31:03 20.3 C 10.9 g/m*3 20.3 C 0 km/h
2695 25-08-2008 19:43:03 21 C 10.62 g/m*3 21 C 0 km/h
2696 25-08-2008 19:55:02 20.9 C 9.29 g/m*3 20.9 C 0 km/h
2697 25-08-2008 20:07:02 20 C 9.33 g/m*3 20 C 0 km/h
2698 25-08-2008 20:19:02 19.3 C 9.79 g/m*3 19.3 C 0 km/h
2699 25-08-2008 20:31:01 18.8 C 9.82 g/m*3 18.8 C 0 km/h
2700 25-08-2008 20:43:01 18.3 C 9.85 g/m*3 18.3 C 0 km/h
Sensor: Nr:Datum:Temp:Abs-Feuchte:Windchill:Wind:
Aussen-T/F 2701 25-08-2008 20:55:02 17.9 C 9.92 g/m*3 17.9 C 0 km/h
2702 25-08-2008 21:07:02 17.6 C 10.05 g/m*3 17.6 C 0 km/h
2703 25-08-2008 21:19:02 17.4 C 9.93 g/m*3 17.4 C 0 km/h
2704 25-08-2008 21:31:01 17.2 C 9.96 g/m*3 17.2 C 0 km/h
2705 25-08-2008 21:43:01 17 C 9.98 g/m*3 17 C 0 km/h
2706 25-08-2008 21:56:02 17 C 9.98 g/m*3 17 C 0 km/h
2707 25-08-2008 22:08:02 16.8 C 10.01 g/m*3 16.8 C 0 km/h
2708 25-08-2008 22:20:02 16.6 C 9.89 g/m*3 16.6 C 0 km/h
2709 25-08-2008 22:32:02 16.6 C 9.75 g/m*3 16.6 C 0 km/h
2710 25-08-2008 22:44:02 16.3 C 9.71 g/m*3 16.3 C 0 km/h
2711 25-08-2008 22:56:02 16.1 C 9.73 g/m*3 16.1 C 0 km/h
2712 25-08-2008 23:08:02 15.8 C 9.83 g/m*3 15.8 C 0 km/h
2713 25-08-2008 23:20:02 15.7 C 9.9 g/m*3 15.7 C 0 km/h
2714 25-08-2008 23:32:02 15.5 C 9.91 g/m*3 15.5 C 0 km/h
2715 25-08-2008 23:44:02 15.3 C 9.92 g/m*3 15.3 C 0 km/h
2716 25-08-2008 23:56:02 15.1 C 10.06 g/m*3 15.1 C 0 km/h
2717 26-08-2008 00:08:02 14.9 C 10.2 g/m*3 14.9 C 0 km/h
2718 26-08-2008 00:20:02 14.7 C 10.2 g/m*3 14.7 C 0 km/h
2719 26-08-2008 00:32:03 14.5 C 10.07 g/m*3 14.5 C 0 km/h
2720 26-08-2008 00:44:03 14.4 C 10.14 g/m*3 14.4 C 0 km/h
2721 26-08-2008 00:56:03 14.3 C 10.07 g/m*3 14.3 C 0 km/h
2722 26-08-2008 01:08:03 14.2 C 10.01 g/m*3 14.2 C 0 km/h
2723 26-08-2008 01:20:03 14.1 C 9.95 g/m*3 14.1 C 0 km/h
2724 26-08-2008 01:32:03 13.9 C 9.95 g/m*3 13.9 C 0 km/h
2725 26-08-2008 01:44:03 13.8 C 9.89 g/m*3 13.8 C 0 km/h
Sensor: Nr:Datum:Temp:Abs-Feuchte:Windchill:Wind:
Aussen-T/F 2726 26-08-2008 01:56:03 13.7 C 9.83 g/m*3 13.7 C 0 km/h
2727 26-08-2008 02:08:03 13.6 C 9.77 g/m*3 13.6 C 0 km/h
2728 26-08-2008 02:20:03 13.8 C 10.01 g/m*3 13.8 C 0 km/h
2729 26-08-2008 02:32:03 13.9 C 10.07 g/m*3 13.9 C 0 km/h
2730 26-08-2008 02:44:03 14.1 C 10.07 g/m*3 14.1 C 0 km/h
2731 26-08-2008 02:56:03 14.2 C 10.01 g/m*3 14.2 C 0 km/h
2732 26-08-2008 03:08:03 14.2 C 10.01 g/m*3 14.2 C 0 km/h
2733 26-08-2008 03:20:03 14.2 C 10.01 g/m*3 14.2 C 0 km/h
2734 26-08-2008 03:32:03 14 C 9.77 g/m*3 14 C 0 km/h
2735 26-08-2008 03:44:03 14 C 9.77 g/m*3 14 C 0 km/h
2736 26-08-2008 03:56:03 14 C 9.77 g/m*3 14 C 0 km/h
2737 26-08-2008 04:08:03 14.1 C 9.95 g/m*3 14.1 C 0 km/h
2738 26-08-2008 04:20:03 14.1 C 9.83 g/m*3 14.1 C 0 km/h
2739 26-08-2008 04:32:04 14.1 C 9.95 g/m*3 14.1 C 0 km/h
2740 26-08-2008 04:44:04 14.3 C 10.07 g/m*3 14.3 C 0 km/h
2741 26-08-2008 04:56:04 14.4 C 10.01 g/m*3 14.4 C 0 km/h
2742 26-08-2008 05:08:04 14.5 C 10.07 g/m*3 14.5 C 0 km/h
2743 26-08-2008 05:20:04 14.6 C 10.14 g/m*3 14.6 C 0 km/h
2744 26-08-2008 05:32:04 14.6 C 10.01 g/m*3 14.6 C 0 km/h
2745 26-08-2008 05:44:04 14.6 C 10.14 g/m*3 14.6 C 0 km/h
2746 26-08-2008 05:56:04 14.7 C 9.95 g/m*3 14.7 C 0 km/h
2747 26-08-2008 06:08:04 14.7 C 9.95 g/m*3 14.7 C 0 km/h
2748 26-08-2008 06:20:04 14.7 C 9.82 g/m*3 14.7 C 0 km/h
2749 26-08-2008 06:32:04 15 C 9.87 g/m*3 15 C 0 km/h
2750 26-08-2008 06:44:04 14.7 C 9.82 g/m*3 14.7 C 0 km/h
Sensor: Nr:Datum:Temp:Abs-Feuchte:Windchill:Wind:
Aussen-T/F 2751 26-08-2008 06:56:02 14.8 C 9.75 g/m*3 14.8 C 0 km/h
2752 26-08-2008 07:08:02 14.9 C 9.81 g/m*3 14.9 C 0 km/h
2753 26-08-2008 07:20:02 15 C 9.62 g/m*3 15 C 0 km/h
2754 26-08-2008 07:32:02 15.2 C 9.73 g/m*3 15.2 C 0 km/h
2755 26-08-2008 07:44:02 15.3 C 9.79 g/m*3 15.3 C 0 km/h
2756 26-08-2008 07:56:01 15.4 C 9.72 g/m*3 15.4 C 0 km/h
2757 26-08-2008 08:08:02 15.6 C 9.84 g/m*3 15.6 C 0 km/h
2758 26-08-2008 08:20:01 15.6 C 9.71 g/m*3 15.6 C 0 km/h
2759 26-08-2008 08:32:02 15.8 C 9.83 g/m*3 15.8 C 0 km/h
2760 26-08-2008 08:44:02 15.9 C 9.75 g/m*3 15.9 C 0 km/h
2761 26-08-2008 08:56:02 16.2 C 9.79 g/m*3 16.2 C 0 km/h
2762 26-08-2008 09:08:02 16.4 C 9.77 g/m*3 16.4 C 0 km/h
2763 26-08-2008 09:20:02 16.7 C 9.66 g/m*3 16.7 C 0 km/h
2764 26-08-2008 09:32:01 16.8 C 9.72 g/m*3 16.8 C 0 km/h
2765 26-08-2008 09:44:01 17 C 9.55 g/m*3 17 C 0 km/h
2766 26-08-2008 09:56:01 17.2 C 9.52 g/m*3 17.2 C 0 km/h
2767 26-08-2008 10:08:02 17.5 C 9.54 g/m*3 17.5 C 0 km/h
2768 26-08-2008 10:20:02 17.7 C 9.66 g/m*3 17.7 C 0 km/h
2769 26-08-2008 10:32:02 18.2 C 9.48 g/m*3 18.2 C 0 km/h
2770 26-08-2008 10:44:02 18.6 C 9.39 g/m*3 18.6 C 0 km/h
2771 26-08-2008 10:56:01 19.1 C 9.51 g/m*3 19.1 C 0 km/h
2772 26-08-2008 11:08:02 19.7 C 9.51 g/m*3 19.7 C 0 km/h
2773 26-08-2008 11:20:01 20.1 C 9.21 g/m*3 20.1 C 0 km/h
2774 26-08-2008 11:32:02 20.6 C 9.31 g/m*3 20.6 C 0 km/h
2775 26-08-2008 11:44:02 21 C 8.98 g/m*3 21 C 0 km/h
Sensor: Nr:Datum:Temp:Abs-Feuchte:Windchill:Wind:
Aussen-T/F 2776 26-08-2008 11:56:02 21.4 C 9.19 g/m*3 21.4 C 0 km/h
2777 26-08-2008 12:08:02 22.2 C 9.03 g/m*3 22.2 C 0 km/h
2778 26-08-2008 12:20:02 22.5 C 8.79 g/m*3 22.5 C 0 km/h
2779 26-08-2008 12:32:02 22.9 C 8.79 g/m*3 22.9 C 0 km/h
2780 26-08-2008 12:44:02 22.9 C 8.79 g/m*3 22.9 C 0 km/h
2781 26-08-2008 12:56:02 22.9 C 8.99 g/m*3 22.9 C 0 km/h
2782 26-08-2008 13:08:02 22.7 C 9.09 g/m*3 22.7 C 0 km/h
2783 26-08-2008 13:20:01 23.1 C 9.3 g/m*3 23.1 C 0 km/h
2784 26-08-2008 13:32:02 23.6 C 9.15 g/m*3 23.6 C 0 km/h
2785 26-08-2008 13:44:02 24.3 C 8.85 g/m*3 24.3 C 0 km/h
2786 26-08-2008 13:56:02 23.9 C 9.09 g/m*3 23.9 C 0 km/h
2787 26-08-2008 14:08:02 23.4 C 8.83 g/m*3 23.4 C 0 km/h
2788 26-08-2008 14:20:02 23.8 C 8.82 g/m*3 23.8 C 0 km/h
2789 26-08-2008 14:32:02 23.6 C 8.93 g/m*3 23.6 C 0 km/h
2790 26-08-2008 14:44:02 23.6 C 9.15 g/m*3 23.6 C 0 km/h
2791 26-08-2008 14:56:02 24.5 C 8.95 g/m*3 24.5 C 0 km/h
2792 26-08-2008 15:08:02 24.8 C 8.88 g/m*3 24.8 C 0 km/h
2793 26-08-2008 15:20:02 24.6 C 8.78 g/m*3 24.6 C 0 km/h
2794 26-08-2008 15:32:02 24.9 C 8.93 g/m*3 24.9 C 0 km/h
2795 26-08-2008 15:44:02 24.6 C 8.78 g/m*3 24.6 C 0 km/h
2796 26-08-2008 15:56:02 25.2 C 8.61 g/m*3 25.2 C 0 km/h
2797 26-08-2008 16:08:02 25.4 C 8.71 g/m*3 25.4 C 0 km/h
2798 26-08-2008 16:20:02 25.9 C 8.72 g/m*3 25.9 C 0 km/h
2799 26-08-2008 16:32:02 25.7 C 8.62 g/m*3 25.7 C 0 km/h
2800 26-08-2008 16:44:02 26 C 8.76 g/m*3 26 C 0 km/h
Sensor: Nr:Datum:Temp:Abs-Feuchte:Windchill:Wind:
Aussen-T/F 2801 26-08-2008 16:56:02 25.9 C 8.72 g/m*3 25.9 C 0 km/h
2802 26-08-2008 17:08:02 26 C 8.28 g/m*3 26 C 0 km/h
2803 26-08-2008 17:20:01 26.3 C 8.42 g/m*3 26.3 C 0 km/h
2804 26-08-2008 17:32:02 25.8 C 8.67 g/m*3 25.8 C 0 km/h
2805 26-08-2008 17:44:02 27.3 C 8.63 g/m*3 27.3 C 0 km/h
2806 26-08-2008 17:56:02 26.4 C 8.46 g/m*3 26.4 C 0 km/h
2807 26-08-2008 18:08:02 26.8 C 8.91 g/m*3 26.8 C 0 km/h
2808 26-08-2008 18:20:02 25.8 C 8.91 g/m*3 25.8 C 0 km/h
2809 26-08-2008 18:32:02 26 C 8.76 g/m*3 26 C 0 km/h
2810 26-08-2008 18:44:02 25.7 C 8.86 g/m*3 25.7 C 0 km/h
2811 26-08-2008 18:56:02 24.9 C 9.16 g/m*3 24.9 C 0 km/h
2812 26-08-2008 19:08:02 24.6 C 9.23 g/m*3 24.6 C 0 km/h
2813 26-08-2008 19:20:02 24.3 C 9.52 g/m*3 24.3 C 0 km/h
2814 26-08-2008 19:32:02 23.8 C 9.68 g/m*3 23.8 C 0 km/h
2815 26-08-2008 19:44:02 23.8 C 9.68 g/m*3 23.8 C 0 km/h
2816 26-08-2008 19:56:03 23.7 C 9.63 g/m*3 23.7 C 0 km/h
2817 26-08-2008 20:08:02 23.2 C 9.56 g/m*3 23.2 C 0 km/h
2818 26-08-2008 20:20:02 22.6 C 9.84 g/m*3 22.6 C 0 km/h
2819 26-08-2008 20:32:02 22 C 9.9 g/m*3 22 C 0 km/h
2820 26-08-2008 20:44:02 21.4 C 10.31 g/m*3 21.4 C 0 km/h
2821 26-08-2008 20:56:02 21 C 10.26 g/m*3 21 C 0 km/h
2822 26-08-2008 21:08:02 20.8 C 10.32 g/m*3 20.8 C 0 km/h
2823 26-08-2008 21:20:02 20.7 C 10.44 g/m*3 20.7 C 0 km/h
2824 26-08-2008 21:32:02 20.6 C 10.56 g/m*3 20.6 C 0 km/h
2825 26-08-2008 21:44:02 20.3 C 10.55 g/m*3 20.3 C 0 km/h
Sensor: Nr:Datum:Temp:Abs-Feuchte:Windchill:Wind:
Aussen-T/F 2826 26-08-2008 21:57:03 19.9 C 10.65 g/m*3 19.9 C 0 km/h
2827 26-08-2008 22:09:03 19.4 C 10.68 g/m*3 19.4 C 0 km/h
2828 26-08-2008 22:21:03 18.9 C 11.02 g/m*3 18.9 C 0 km/h
2829 26-08-2008 22:33:03 18.8 C 11.11 g/m*3 18.8 C 0 km/h
2830 26-08-2008 22:45:03 18.6 C 11.14 g/m*3 18.6 C 0 km/h
2831 26-08-2008 22:57:03 18.4 C 11.01 g/m*3 18.4 C 0 km/h
2832 26-08-2008 23:09:03 18.2 C 11.04 g/m*3 18.2 C 0 km/h
2833 26-08-2008 23:21:03 17.8 C 11.08 g/m*3 17.8 C 0 km/h
2834 26-08-2008 23:33:03 17.7 C 11.16 g/m*3 17.7 C 0 km/h
2835 26-08-2008 23:45:03 17.6 C 11.4 g/m*3 17.6 C 0 km/h
2836 26-08-2008 23:57:03 17.4 C 11.26 g/m*3 17.4 C 0 km/h
2837 27-08-2008 00:09:03 17.2 C 11.28 g/m*3 17.2 C 0 km/h
2838 27-08-2008 00:21:03 17 C 11.29 g/m*3 17 C 0 km/h
2839 27-08-2008 00:33:03 16.8 C 11.29 g/m*3 16.8 C 0 km/h
2840 27-08-2008 00:45:03 16.5 C 11.23 g/m*3 16.5 C 0 km/h
2841 27-08-2008 00:57:04 16.5 C 11.23 g/m*3 16.5 C 0 km/h
2842 27-08-2008 01:09:04 16.2 C 11.17 g/m*3 16.2 C 0 km/h
2843 27-08-2008 01:21:04 16.1 C 11.1 g/m*3 16.1 C 0 km/h
2844 27-08-2008 01:33:04 16 C 11.17 g/m*3 16 C 0 km/h
2845 27-08-2008 01:45:04 16.1 C 11.24 g/m*3 16.1 C 0 km/h
2846 27-08-2008 01:57:04 15.9 C 11.24 g/m*3 15.9 C 0 km/h
2847 27-08-2008 02:09:04 15.8 C 11.17 g/m*3 15.8 C 0 km/h
2848 27-08-2008 02:21:04 15.6 C 11.04 g/m*3 15.6 C 0 km/h
2849 27-08-2008 02:33:04 15.6 C 11.17 g/m*3 15.6 C 0 km/h
2850 27-08-2008 02:45:04 15.7 C 11.24 g/m*3 15.7 C 0 km/h
Sensor: Nr:Datum:Temp:Abs-Feuchte:Windchill:Wind:
Aussen-T/F 2851 27-08-2008 02:57:04 15.7 C 11.24 g/m*3 15.7 C 0 km/h
2852 27-08-2008 03:09:04 15.8 C 11.17 g/m*3 15.8 C 0 km/h
2853 27-08-2008 03:21:04 15.8 C 11.17 g/m*3 15.8 C 0 km/h
2854 27-08-2008 03:33:04 15.8 C 11.17 g/m*3 15.8 C 0 km/h
2855 27-08-2008 03:45:04 15.7 C 11.11 g/m*3 15.7 C 0 km/h
2856 27-08-2008 03:57:04 15.6 C 11.04 g/m*3 15.6 C 0 km/h
2857 27-08-2008 04:09:04 15.6 C 11.04 g/m*3 15.6 C 0 km/h
2858 27-08-2008 04:21:04 15.5 C 10.97 g/m*3 15.5 C 0 km/h
2859 27-08-2008 04:33:04 15.4 C 10.9 g/m*3 15.4 C 0 km/h
2860 27-08-2008 04:45:04 15.3 C 10.84 g/m*3 15.3 C 0 km/h
2861 27-08-2008 04:57:04 15 C 10.64 g/m*3 15 C 0 km/h
2862 27-08-2008 05:09:05 14.7 C 10.7 g/m*3 14.7 C 0 km/h
2863 27-08-2008 05:21:05 14.5 C 10.7 g/m*3 14.5 C 0 km/h
2864 27-08-2008 05:33:05 14.3 C 10.57 g/m*3 14.3 C 0 km/h
2865 27-08-2008 05:45:05 14.2 C 10.62 g/m*3 14.2 C 0 km/h
2866 27-08-2008 05:57:05 14 C 10.49 g/m*3 14 C 0 km/h
2867 27-08-2008 06:09:05 14 C 10.61 g/m*3 14 C 0 km/h
2868 27-08-2008 06:21:05 14.2 C 10.87 g/m*3 14.2 C 0 km/h
2869 27-08-2008 06:33:05 14.2 C 10.75 g/m*3 14.2 C 0 km/h
2870 27-08-2008 06:45:05 14.2 C 10.75 g/m*3 14.2 C 0 km/h
2871 27-08-2008 06:57:05 14.2 C 10.75 g/m*3 14.2 C 0 km/h
2872 27-08-2008 07:09:02 14.2 C 10.75 g/m*3 14.2 C 0 km/h
2873 27-08-2008 07:21:02 14.3 C 10.81 g/m*3 14.3 C 0 km/h
2874 27-08-2008 07:33:02 14.4 C 10.88 g/m*3 14.4 C 0 km/h
2875 27-08-2008 07:45:03 14.5 C 10.82 g/m*3 14.5 C 0 km/h
Sensor: Nr:Datum:Temp:Abs-Feuchte:Windchill:Wind:
Aussen-T/F 2876 27-08-2008 07:57:03 14.7 C 10.83 g/m*3 14.7 C 0 km/h
2877 27-08-2008 08:09:02 14.8 C 10.77 g/m*3 14.8 C 0 km/h
2878 27-08-2008 08:21:03 14.8 C 10.64 g/m*3 14.8 C 0 km/h
2879 27-08-2008 08:33:02 14.7 C 10.45 g/m*3 14.7 C 0 km/h
2880 27-08-2008 08:45:02 15 C 10.64 g/m*3 15 C 0 km/h
2881 27-08-2008 08:57:02 15.1 C 10.45 g/m*3 15.1 C 0 km/h
2882 27-08-2008 09:09:02 15.5 C 10.71 g/m*3 15.5 C 0 km/h
2883 27-08-2008 09:21:03 15.8 C 10.63 g/m*3 15.8 C 0 km/h
2884 27-08-2008 09:33:03 16.3 C 10.82 g/m*3 16.3 C 0 km/h
2885 27-08-2008 09:45:02 16.8 C 10.87 g/m*3 16.8 C 0 km/h
2886 27-08-2008 09:57:02 17.1 C 10.63 g/m*3 17.1 C 0 km/h
2887 27-08-2008 10:09:01 17.3 C 10.75 g/m*3 17.3 C 0 km/h
2888 27-08-2008 10:21:02 17.7 C 10.86 g/m*3 17.7 C 0 km/h
2889 27-08-2008 10:33:02 18 C 10.75 g/m*3 18 C 0 km/h
2890 27-08-2008 10:45:02 18.3 C 10.94 g/m*3 18.3 C 0 km/h
2891 27-08-2008 10:57:02 19.3 C 10.62 g/m*3 19.3 C 0 km/h
2892 27-08-2008 11:09:01 19.9 C 9.97 g/m*3 19.9 C 0 km/h
2893 27-08-2008 11:21:02 20.3 C 9.85 g/m*3 20.3 C 0 km/h
2894 27-08-2008 11:33:01 20.7 C 9.54 g/m*3 20.7 C 0 km/h
2895 27-08-2008 11:45:02 21 C 9.34 g/m*3 21 C 0 km/h
2896 27-08-2008 11:57:02 21 C 9.53 g/m*3 21 C 0 km/h
2897 27-08-2008 12:09:01 21.5 C 9.43 g/m*3 21.5 C 0 km/h
2898 27-08-2008 12:21:02 21.5 C 9.43 g/m*3 21.5 C 0 km/h
2899 27-08-2008 12:33:01 21.9 C 9.46 g/m*3 21.9 C 0 km/h
2900 27-08-2008 12:45:01 22 C 9.32 g/m*3 22 C 0 km/h
Sensor: Nr:Datum:Temp:Abs-Feuchte:Windchill:Wind:
Aussen-T/F 2901 27-08-2008 12:57:01 22.3 C 9.28 g/m*3 22.3 C 0 km/h
2902 27-08-2008 13:09:01 22.7 C 9.5 g/m*3 22.7 C 0 km/h
2903 27-08-2008 13:21:01 23.1 C 9.1 g/m*3 23.1 C 0 km/h
2904 27-08-2008 13:33:01 23.7 C 9.41 g/m*3 23.7 C 0 km/h
2905 27-08-2008 13:45:01 23.6 C 9.36 g/m*3 23.6 C 0 km/h
2906 27-08-2008 13:57:01 24 C 8.92 g/m*3 24 C 0 km/h
2907 27-08-2008 14:09:02 24.6 C 9 g/m*3 24.6 C 0 km/h
2908 27-08-2008 14:21:01 24.6 C 8.78 g/m*3 24.6 C 0 km/h
2909 27-08-2008 14:33:02 25.6 C 9.28 g/m*3 25.6 C 0 km/h
2910 27-08-2008 14:45:02 25.8 C 8.91 g/m*3 25.8 C 0 km/h
2911 27-08-2008 14:57:02 26.3 C 8.66 g/m*3 26.3 C 0 km/h
2912 27-08-2008 15:09:02 26.5 C 8.76 g/m*3 26.5 C 0 km/h
2913 27-08-2008 15:21:02 26.6 C 8.81 g/m*3 26.6 C 0 km/h
2914 27-08-2008 15:33:02 27 C 8.49 g/m*3 27 C 0 km/h
2915 27-08-2008 15:45:02 27.4 C 8.95 g/m*3 27.4 C 0 km/h
2916 27-08-2008 15:57:02 28.1 C 8.75 g/m*3 28.1 C 0 km/h
2917 27-08-2008 16:09:03 28.5 C 8.66 g/m*3 28.5 C 0 km/h
2918 27-08-2008 16:21:02 28.9 C 8.86 g/m*3 28.9 C 0 km/h
2919 27-08-2008 16:33:03 29 C 8.62 g/m*3 29 C 0 km/h
2920 27-08-2008 16:45:02 29 C 8.33 g/m*3 29 C 0 km/h
2921 27-08-2008 16:57:02 28.8 C 8.52 g/m*3 28.8 C 0 km/h
2922 27-08-2008 17:09:01 28.5 C 8.66 g/m*3 28.5 C 0 km/h
2923 27-08-2008 17:21:02 27.8 C 8.34 g/m*3 27.8 C 0 km/h
2924 27-08-2008 17:33:02 27.3 C 8.63 g/m*3 27.3 C 0 km/h
2925 27-08-2008 17:45:02 26.8 C 9.16 g/m*3 26.8 C 0 km/h
Sensor: Nr:Datum:Temp:Abs-Feuchte:Windchill:Wind:
Aussen-T/F 2926 27-08-2008 17:57:02 26.6 C 9.31 g/m*3 26.6 C 0 km/h
2927 27-08-2008 18:09:01 26.7 C 8.86 g/m*3 26.7 C 0 km/h
2928 27-08-2008 18:21:02 26.4 C 9.21 g/m*3 26.4 C 0 km/h
2929 27-08-2008 18:33:01 26.5 C 9.26 g/m*3 26.5 C 0 km/h
2930 27-08-2008 18:45:03 25.9 C 9.44 g/m*3 25.9 C 0 km/h
2931 27-08-2008 18:57:03 25 C 9.44 g/m*3 25 C 0 km/h
2932 27-08-2008 19:09:02 24.3 C 9.52 g/m*3 24.3 C 0 km/h
2933 27-08-2008 19:21:03 23.5 C 9.73 g/m*3 23.5 C 0 km/h
2934 27-08-2008 19:33:02 23.3 C 9.62 g/m*3 23.3 C 0 km/h
2935 27-08-2008 19:45:02 23 C 9.66 g/m*3 23 C 0 km/h
2936 27-08-2008 19:57:02 22.7 C 9.9 g/m*3 22.7 C 0 km/h
2937 27-08-2008 20:09:02 22 C 9.7 g/m*3 22 C 0 km/h
2938 27-08-2008 20:21:02 21.8 C 9.78 g/m*3 21.8 C 0 km/h
2939 27-08-2008 20:33:02 21.6 C 9.67 g/m*3 21.6 C 0 km/h
2940 27-08-2008 20:45:01 21.3 C 9.69 g/m*3 21.3 C 0 km/h
2941 27-08-2008 20:57:01 21.1 C 9.58 g/m*3 21.1 C 0 km/h
2942 27-08-2008 21:09:01 20.9 C 9.65 g/m*3 20.9 C 0 km/h
2943 27-08-2008 21:21:01 20.8 C 9.6 g/m*3 20.8 C 0 km/h
2944 27-08-2008 21:33:01 20.8 C 9.6 g/m*3 20.8 C 0 km/h
2945 27-08-2008 21:45:01 20.2 C 9.27 g/m*3 20.2 C 0 km/h
2946 27-08-2008 21:57:01 20.1 C 9.21 g/m*3 20.1 C 0 km/h
2947 27-08-2008 22:09:02 20.1 C 9.21 g/m*3 20.1 C 0 km/h
2948 27-08-2008 22:21:01 20.2 C 9.27 g/m*3 20.2 C 0 km/h
2949 27-08-2008 22:33:02 20 C 9.16 g/m*3 20 C 0 km/h
2950 27-08-2008 22:46:02 19.7 C 9.34 g/m*3 19.7 C 0 km/h
Sensor: Nr:Datum:Temp:Abs-Feuchte:Windchill:Wind:
Aussen-T/F 2951 27-08-2008 22:58:02 19.7 C 9.51 g/m*3 19.7 C 0 km/h
2952 27-08-2008 23:10:02 19.8 C 9.74 g/m*3 19.8 C 0 km/h
2953 27-08-2008 23:22:02 19.6 C 9.45 g/m*3 19.6 C 0 km/h
2954 27-08-2008 23:34:02 19.7 C 9.68 g/m*3 19.7 C 0 km/h
2955 27-08-2008 23:46:02 19.5 C 9.57 g/m*3 19.5 C 0 km/h
2956 27-08-2008 23:58:02 19.4 C 9.51 g/m*3 19.4 C 0 km/h
2957 28-08-2008 00:10:02 19.4 C 9.68 g/m*3 19.4 C 0 km/h
2958 28-08-2008 00:22:02 19.4 C 9.68 g/m*3 19.4 C 0 km/h
2959 28-08-2008 00:34:02 19.2 C 9.56 g/m*3 19.2 C 0 km/h
2960 28-08-2008 00:46:02 19.1 C 9.67 g/m*3 19.1 C 0 km/h
2961 28-08-2008 00:58:02 19.1 C 9.67 g/m*3 19.1 C 0 km/h
2962 28-08-2008 01:10:02 19 C 9.61 g/m*3 19 C 0 km/h
2963 28-08-2008 01:22:02 19.1 C 9.84 g/m*3 19.1 C 0 km/h
2964 28-08-2008 01:34:02 19 C 9.61 g/m*3 19 C 0 km/h
2965 28-08-2008 01:46:02 19 C 9.78 g/m*3 19 C 0 km/h
2966 28-08-2008 01:58:02 18.9 C 9.88 g/m*3 18.9 C 0 km/h
2967 28-08-2008 02:10:02 18.8 C 9.82 g/m*3 18.8 C 0 km/h
2968 28-08-2008 02:22:02 18.9 C 10.04 g/m*3 18.9 C 0 km/h
2969 28-08-2008 02:34:03 18.9 C 10.04 g/m*3 18.9 C 0 km/h
2970 28-08-2008 02:46:03 18.7 C 10.09 g/m*3 18.7 C 0 km/h
2971 28-08-2008 02:58:03 18.6 C 10.03 g/m*3 18.6 C 0 km/h
2972 28-08-2008 03:10:03 18.6 C 10.03 g/m*3 18.6 C 0 km/h
2973 28-08-2008 03:22:03 18.6 C 10.03 g/m*3 18.6 C 0 km/h
2974 28-08-2008 03:34:03 18.5 C 10.13 g/m*3 18.5 C 0 km/h
2975 28-08-2008 03:46:03 18.5 C 10.13 g/m*3 18.5 C 0 km/h
Sensor: Nr:Datum:Temp:Abs-Feuchte:Windchill:Wind:
Aussen-T/F 2976 28-08-2008 03:58:03 18.5 C 10.13 g/m*3 18.5 C 0 km/h
2977 28-08-2008 04:10:03 18.4 C 10.22 g/m*3 18.4 C 0 km/h
2978 28-08-2008 04:22:03 18.4 C 10.22 g/m*3 18.4 C 0 km/h
2979 28-08-2008 04:34:03 18.4 C 10.22 g/m*3 18.4 C 0 km/h
2980 28-08-2008 04:46:03 18.3 C 10.16 g/m*3 18.3 C 0 km/h
2981 28-08-2008 04:58:03 18.3 C 10.32 g/m*3 18.3 C 0 km/h
2982 28-08-2008 05:10:03 18.2 C 10.1 g/m*3 18.2 C 0 km/h
2983 28-08-2008 05:22:03 18.2 C 10.26 g/m*3 18.2 C 0 km/h
2984 28-08-2008 05:34:03 18.2 C 10.26 g/m*3 18.2 C 0 km/h
2985 28-08-2008 05:46:03 18.1 C 10.04 g/m*3 18.1 C 0 km/h
2986 28-08-2008 05:58:03 18 C 10.14 g/m*3 18 C 0 km/h
2987 28-08-2008 06:10:03 18 C 10.14 g/m*3 18 C 0 km/h
2988 28-08-2008 06:22:04 17.9 C 10.23 g/m*3 17.9 C 0 km/h
2989 28-08-2008 06:34:04 17.9 C 10.23 g/m*3 17.9 C 0 km/h
2990 28-08-2008 06:46:04 17.9 C 10.38 g/m*3 17.9 C 0 km/h
2991 28-08-2008 06:58:04 17.8 C 10.32 g/m*3 17.8 C 0 km/h
2992 28-08-2008 07:10:02 17.8 C 10.32 g/m*3 17.8 C 0 km/h
2993 28-08-2008 07:22:02 17.8 C 10.32 g/m*3 17.8 C 0 km/h
2994 28-08-2008 07:34:03 17.8 C 10.32 g/m*3 17.8 C 0 km/h
2995 28-08-2008 07:46:02 17.9 C 10.54 g/m*3 17.9 C 0 km/h
2996 28-08-2008 07:58:02 18.1 C 10.51 g/m*3 18.1 C 0 km/h
2997 28-08-2008 08:10:02 18.1 C 10.51 g/m*3 18.1 C 0 km/h
2998 28-08-2008 08:22:02 18.1 C 10.66 g/m*3 18.1 C 0 km/h
2999 28-08-2008 08:34:02 18.5 C 10.92 g/m*3 18.5 C 0 km/h
3000 28-08-2008 08:46:02 18.6 C 10.66 g/m*3 18.6 C 0 km/h
Sensor: Nr:Datum:Temp:Abs-Feuchte:Windchill:Wind:
Aussen-T/F 3001 28-08-2008 08:58:02 18.7 C 10.73 g/m*3 18.7 C 0 km/h
3002 28-08-2008 09:10:03 18.9 C 10.69 g/m*3 18.9 C 0 km/h
3003 28-08-2008 09:22:02 19.1 C 10.16 g/m*3 19.1 C 0 km/h
3004 28-08-2008 09:34:02 19.2 C 10.06 g/m*3 19.2 C 0 km/h
3005 28-08-2008 09:46:02 19.3 C 9.79 g/m*3 19.3 C 0 km/h
3006 28-08-2008 09:58:02 19.3 C 9.95 g/m*3 19.3 C 0 km/h
3007 28-08-2008 10:10:02 19.4 C 9.84 g/m*3 19.4 C 0 km/h
3008 28-08-2008 10:22:02 19.6 C 9.79 g/m*3 19.6 C 0 km/h
3009 28-08-2008 10:34:02 19.9 C 9.45 g/m*3 19.9 C 0 km/h
3010 28-08-2008 10:46:02 20.2 C 8.92 g/m*3 20.2 C 0 km/h
3011 28-08-2008 10:58:02 20.5 C 9.07 g/m*3 20.5 C 0 km/h
3012 28-08-2008 11:10:02 21 C 8.43 g/m*3 21 C 0 km/h
3013 28-08-2008 11:22:02 21.5 C 8.3 g/m*3 21.5 C 0 km/h
3014 28-08-2008 11:34:02 21.7 C 8.2 g/m*3 21.7 C 0 km/h
3015 28-08-2008 11:46:02 22.1 C 7.81 g/m*3 22.1 C 0 km/h
3016 28-08-2008 11:58:02 22.7 C 7.88 g/m*3 22.7 C 0 km/h
3017 28-08-2008 12:10:02 23 C 7.6 g/m*3 23 C 0 km/h
3018 28-08-2008 12:22:02 22.9 C 7.56 g/m*3 22.9 C 0 km/h
3019 28-08-2008 12:34:02 23.1 C 7.44 g/m*3 23.1 C 0 km/h
3020 28-08-2008 12:46:02 23.3 C 7.32 g/m*3 23.3 C 0 km/h
3021 28-08-2008 12:58:02 23.5 C 7.4 g/m*3 23.5 C 0 km/h
3022 28-08-2008 13:10:02 23.6 C 7.44 g/m*3 23.6 C 0 km/h
3023 28-08-2008 13:22:02 23.9 C 7.57 g/m*3 23.9 C 0 km/h
3024 28-08-2008 13:34:02 23.2 C 7.28 g/m*3 23.2 C 0 km/h
3025 28-08-2008 13:46:02 23.1 C 7.65 g/m*3 23.1 C 0 km/h
Sensor: Nr:Datum:Temp:Abs-Feuchte:Windchill:Wind:
Aussen-T/F 3026 28-08-2008 13:58:02 23.3 C 7.53 g/m*3 23.3 C 0 km/h
3027 28-08-2008 14:10:02 23 C 7.6 g/m*3 23 C 0 km/h
3028 28-08-2008 14:22:02 23.3 C 7.74 g/m*3 23.3 C 0 km/h
3029 28-08-2008 14:34:02 23.7 C 7.7 g/m*3 23.7 C 0 km/h
3030 28-08-2008 14:46:02 23.1 C 7.86 g/m*3 23.1 C 0 km/h
3031 28-08-2008 14:58:02 23.6 C 7.87 g/m*3 23.6 C 0 km/h
3032 28-08-2008 15:10:02 23.7 C 7.7 g/m*3 23.7 C 0 km/h
3033 28-08-2008 15:22:02 24.4 C 7.79 g/m*3 24.4 C 0 km/h
3034 28-08-2008 15:34:02 24.2 C 7.48 g/m*3 24.2 C 0 km/h
3035 28-08-2008 15:46:01 23.6 C 7.87 g/m*3 23.6 C 0 km/h
3036 28-08-2008 15:58:01 23.2 C 7.69 g/m*3 23.2 C 0 km/h
3037 28-08-2008 16:10:02 22.6 C 8.04 g/m*3 22.6 C 0 km/h
3038 28-08-2008 16:22:02 23 C 8.22 g/m*3 23 C 0 km/h
3039 28-08-2008 16:34:02 23.1 C 7.86 g/m*3 23.1 C 0 km/h
3040 28-08-2008 16:46:02 23.3 C 8.15 g/m*3 23.3 C 0 km/h
3041 28-08-2008 16:58:02 23.4 C 7.78 g/m*3 23.4 C 0 km/h
3042 28-08-2008 17:10:02 22.8 C 8.13 g/m*3 22.8 C 0 km/h
3043 28-08-2008 17:22:02 22.9 C 8.17 g/m*3 22.9 C 0 km/h
3044 28-08-2008 17:34:02 22.6 C 8.04 g/m*3 22.6 C 0 km/h
3045 28-08-2008 17:46:02 22 C 7.96 g/m*3 22 C 0 km/h
3046 28-08-2008 17:58:02 22 C 7.96 g/m*3 22 C 0 km/h
3047 28-08-2008 18:10:03 21.8 C 8.25 g/m*3 21.8 C 0 km/h
3048 28-08-2008 18:22:02 22 C 8.15 g/m*3 22 C 0 km/h
3049 28-08-2008 18:34:02 22 C 8.15 g/m*3 22 C 0 km/h
3050 28-08-2008 18:46:02 21.7 C 8.2 g/m*3 21.7 C 0 km/h
Sensor: Nr:Datum:Temp:Abs-Feuchte:Windchill:Wind:
Aussen-T/F 3051 28-08-2008 18:58:02 21.7 C 8.2 g/m*3 21.7 C 0 km/h
3052 28-08-2008 19:10:02 21.6 C 8.35 g/m*3 21.6 C 0 km/h
3053 28-08-2008 19:22:02 21.6 C 8.72 g/m*3 21.6 C 0 km/h
3054 28-08-2008 19:34:02 21.5 C 8.49 g/m*3 21.5 C 0 km/h
3055 28-08-2008 19:46:03 21.3 C 8.57 g/m*3 21.3 C 0 km/h
3056 28-08-2008 19:58:03 21.1 C 8.84 g/m*3 21.1 C 0 km/h
3057 28-08-2008 20:10:02 20.8 C 9.23 g/m*3 20.8 C 0 km/h
3058 28-08-2008 20:22:03 20.6 C 9.13 g/m*3 20.6 C 0 km/h
3059 28-08-2008 20:34:02 20.4 C 9.38 g/m*3 20.4 C 0 km/h
3060 28-08-2008 20:46:03 20.3 C 9.15 g/m*3 20.3 C 0 km/h
3061 28-08-2008 20:58:03 20.2 C 9.09 g/m*3 20.2 C 0 km/h
3062 28-08-2008 21:10:02 20.1 C 9.04 g/m*3 20.1 C 0 km/h
3063 28-08-2008 21:22:02 20 C 9.16 g/m*3 20 C 0 km/h
3064 28-08-2008 21:34:02 20 C 9.33 g/m*3 20 C 0 km/h
3065 28-08-2008 21:46:02 19.8 C 9.57 g/m*3 19.8 C 0 km/h
3066 28-08-2008 21:58:02 19.6 C 9.79 g/m*3 19.6 C 0 km/h
3067 28-08-2008 22:10:03 19.5 C 9.9 g/m*3 19.5 C 0 km/h
3068 28-08-2008 22:22:02 19.4 C 9.68 g/m*3 19.4 C 0 km/h
3069 28-08-2008 22:35:02 19.4 C 9.68 g/m*3 19.4 C 0 km/h
3070 28-08-2008 22:47:02 19.3 C 9.79 g/m*3 19.3 C 0 km/h
3071 28-08-2008 22:59:02 19.1 C 9.67 g/m*3 19.1 C 0 km/h
3072 28-08-2008 23:11:02 19.1 C 9.84 g/m*3 19.1 C 0 km/h
3073 28-08-2008 23:23:02 19.2 C 9.89 g/m*3 19.2 C 0 km/h
3074 28-08-2008 23:35:02 19.2 C 9.89 g/m*3 19.2 C 0 km/h
3075 28-08-2008 23:47:02 19.1 C 9.84 g/m*3 19.1 C 0 km/h
Sensor: Nr:Datum:Temp:Abs-Feuchte:Windchill:Wind:
Aussen-T/F 3076 28-08-2008 23:59:02 19.1 C 10 g/m*3 19.1 C 0 km/h
3077 29-08-2008 00:11:02 19 C 9.94 g/m*3 19 C 0 km/h
3078 29-08-2008 00:23:02 18.9 C 10.04 g/m*3 18.9 C 0 km/h
3079 29-08-2008 00:35:02 18.9 C 10.04 g/m*3 18.9 C 0 km/h
3080 29-08-2008 00:47:02 18.9 C 10.04 g/m*3 18.9 C 0 km/h
3081 29-08-2008 00:59:02 18.8 C 9.99 g/m*3 18.8 C 0 km/h
3082 29-08-2008 01:11:02 18.8 C 9.99 g/m*3 18.8 C 0 km/h
3083 29-08-2008 01:23:02 18.8 C 9.99 g/m*3 18.8 C 0 km/h
3084 29-08-2008 01:35:02 18.7 C 9.93 g/m*3 18.7 C 0 km/h
3085 29-08-2008 01:47:02 18.7 C 9.77 g/m*3 18.7 C 0 km/h
3086 29-08-2008 01:59:02 18.6 C 9.71 g/m*3 18.6 C 0 km/h
3087 29-08-2008 02:11:03 18.6 C 9.71 g/m*3 18.6 C 0 km/h
3088 29-08-2008 02:23:03 18.5 C 9.65 g/m*3 18.5 C 0 km/h
3089 29-08-2008 02:35:03 18.5 C 9.81 g/m*3 18.5 C 0 km/h
3090 29-08-2008 02:47:03 18.5 C 9.49 g/m*3 18.5 C 0 km/h
3091 29-08-2008 02:59:03 18.4 C 9.59 g/m*3 18.4 C 0 km/h
3092 29-08-2008 03:11:03 18.4 C 9.91 g/m*3 18.4 C 0 km/h
3093 29-08-2008 03:23:03 18.3 C 9.69 g/m*3 18.3 C 0 km/h
3094 29-08-2008 03:35:03 18.2 C 9.64 g/m*3 18.2 C 0 km/h
3095 29-08-2008 03:47:03 18.2 C 9.64 g/m*3 18.2 C 0 km/h
3096 29-08-2008 03:59:03 18.1 C 9.58 g/m*3 18.1 C 0 km/h
3097 29-08-2008 04:11:03 18.1 C 9.43 g/m*3 18.1 C 0 km/h
3098 29-08-2008 04:23:03 18.1 C 9.58 g/m*3 18.1 C 0 km/h
3099 29-08-2008 04:35:03 18.1 C 9.43 g/m*3 18.1 C 0 km/h
3100 29-08-2008 04:47:03 18.1 C 9.43 g/m*3 18.1 C 0 km/h
Sensor: Nr:Datum:Temp:Abs-Feuchte:Windchill:Wind:
Aussen-T/F 3101 29-08-2008 04:59:03 18.1 C 9.43 g/m*3 18.1 C 0 km/h
3102 29-08-2008 05:11:03 18 C 9.22 g/m*3 18 C 0 km/h
3103 29-08-2008 05:23:03 18 C 9.22 g/m*3 18 C 0 km/h
3104 29-08-2008 05:35:03 17.9 C 9.31 g/m*3 17.9 C 0 km/h
3105 29-08-2008 05:47:03 17.9 C 9.47 g/m*3 17.9 C 0 km/h
3106 29-08-2008 05:59:04 17.9 C 9.31 g/m*3 17.9 C 0 km/h
3107 29-08-2008 06:11:04 17.8 C 9.41 g/m*3 17.8 C 0 km/h
3108 29-08-2008 06:23:04 17.8 C 9.41 g/m*3 17.8 C 0 km/h
3109 29-08-2008 06:35:04 17.8 C 9.41 g/m*3 17.8 C 0 km/h
3110 29-08-2008 06:47:04 17.8 C 9.41 g/m*3 17.8 C 0 km/h
3111 29-08-2008 06:59:04 17.8 C 9.41 g/m*3 17.8 C 0 km/h
3112 29-08-2008 07:11:04 17.8 C 9.56 g/m*3 17.8 C 0 km/h
3113 29-08-2008 07:23:04 17.8 C 9.56 g/m*3 17.8 C 0 km/h
3114 29-08-2008 07:35:04 17.8 C 9.56 g/m*3 17.8 C 0 km/h
3115 29-08-2008 07:47:04 17.9 C 9.62 g/m*3 17.9 C 0 km/h
3116 29-08-2008 07:59:04 17.9 C 9.47 g/m*3 17.9 C 0 km/h
3117 29-08-2008 08:11:04 17.9 C 9.47 g/m*3 17.9 C 0 km/h
3118 29-08-2008 08:23:02 18.1 C 9.43 g/m*3 18.1 C 0 km/h
3119 29-08-2008 08:35:02 18.1 C 9.43 g/m*3 18.1 C 0 km/h
3120 29-08-2008 08:47:01 18.1 C 9.58 g/m*3 18.1 C 0 km/h
3121 29-08-2008 08:59:01 18.2 C 9.79 g/m*3 18.2 C 0 km/h
3122 29-08-2008 09:11:02 18.3 C 9.85 g/m*3 18.3 C 0 km/h
3123 29-08-2008 09:23:02 18.4 C 9.91 g/m*3 18.4 C 0 km/h
3124 29-08-2008 09:35:02 18.5 C 9.97 g/m*3 18.5 C 0 km/h
3125 29-08-2008 09:47:02 18.6 C 9.55 g/m*3 18.6 C 0 km/h
Sensor: Nr:Datum:Temp:Abs-Feuchte:Windchill:Wind:
Aussen-T/F 3126 29-08-2008 09:59:02 18.9 C 9.72 g/m*3 18.9 C 0 km/h
3127 29-08-2008 10:11:03 19.3 C 9.45 g/m*3 19.3 C 0 km/h
3128 29-08-2008 10:23:02 19.6 C 9.45 g/m*3 19.6 C 0 km/h
3129 29-08-2008 10:35:03 19.8 C 9.39 g/m*3 19.8 C 0 km/h
3130 29-08-2008 10:47:02 20.4 C 9.38 g/m*3 20.4 C 0 km/h
3131 29-08-2008 10:59:02 20.5 C 9.25 g/m*3 20.5 C 0 km/h
3132 29-08-2008 11:11:01 20.7 C 9.36 g/m*3 20.7 C 0 km/h
3133 29-08-2008 11:23:02 20.4 C 9.38 g/m*3 20.4 C 0 km/h
3134 29-08-2008 11:35:02 20.5 C 9.25 g/m*3 20.5 C 0 km/h
3135 29-08-2008 11:47:02 20.8 C 9.42 g/m*3 20.8 C 0 km/h
3136 29-08-2008 11:59:02 21.3 C 9.51 g/m*3 21.3 C 0 km/h
3137 29-08-2008 12:11:01 21 C 9.34 g/m*3 21 C 0 km/h
3138 29-08-2008 12:23:02 21.1 C 9.4 g/m*3 21.1 C 0 km/h
3139 29-08-2008 12:35:01 21.5 C 9.62 g/m*3 21.5 C 0 km/h
3140 29-08-2008 12:47:02 21.8 C 9.59 g/m*3 21.8 C 0 km/h
3141 29-08-2008 12:59:02 22.3 C 9.08 g/m*3 22.3 C 0 km/h
3142 29-08-2008 13:11:01 23.1 C 9.1 g/m*3 23.1 C 0 km/h
3143 29-08-2008 13:23:02 23.2 C 8.94 g/m*3 23.2 C 0 km/h
3144 29-08-2008 13:35:01 23.3 C 8.78 g/m*3 23.3 C 0 km/h
3145 29-08-2008 13:47:01 23.8 C 8.6 g/m*3 23.8 C 0 km/h
3146 29-08-2008 13:59:01 23.4 C 8.83 g/m*3 23.4 C 0 km/h
3147 29-08-2008 14:11:01 23.7 C 8.98 g/m*3 23.7 C 0 km/h
3148 29-08-2008 14:23:01 24.5 C 8.95 g/m*3 24.5 C 0 km/h
3149 29-08-2008 14:35:01 23.9 C 8.87 g/m*3 23.9 C 0 km/h
3150 29-08-2008 14:47:01 24.1 C 8.97 g/m*3 24.1 C 0 km/h
Sensor: Nr:Datum:Temp:Abs-Feuchte:Windchill:Wind:
Aussen-T/F 3151 29-08-2008 14:59:01 24.5 C 8.95 g/m*3 24.5 C 0 km/h
3152 29-08-2008 15:11:02 24.1 C 8.53 g/m*3 24.1 C 0 km/h
3153 29-08-2008 15:23:01 24.1 C 8.75 g/m*3 24.1 C 0 km/h
3154 29-08-2008 15:35:02 24.6 C 8.78 g/m*3 24.6 C 0 km/h
3155 29-08-2008 15:47:02 25.3 C 8.43 g/m*3 25.3 C 0 km/h
3156 29-08-2008 15:59:02 25.7 C 8.62 g/m*3 25.7 C 0 km/h
3157 29-08-2008 16:11:02 25.7 C 8.38 g/m*3 25.7 C 0 km/h
3158 29-08-2008 16:23:02 25.7 C 8.62 g/m*3 25.7 C 0 km/h
3159 29-08-2008 16:35:02 25 C 8.52 g/m*3 25 C 0 km/h
3160 29-08-2008 16:47:01 24.7 C 9.05 g/m*3 24.7 C 0 km/h
3161 29-08-2008 16:59:01 25.4 C 8.95 g/m*3 25.4 C 0 km/h
3162 29-08-2008 17:11:01 26.1 C 8.32 g/m*3 26.1 C 0 km/h
3163 29-08-2008 17:23:01 26 C 8.52 g/m*3 26 C 0 km/h
3164 29-08-2008 17:35:01 27.4 C 8.42 g/m*3 27.4 C 0 km/h
3165 29-08-2008 17:47:03 28.5 C 8.94 g/m*3 28.5 C 0 km/h
3166 29-08-2008 17:59:03 28.1 C 8.75 g/m*3 28.1 C 0 km/h
3167 29-08-2008 18:11:02 27.9 C 8.65 g/m*3 27.9 C 0 km/h
3168 29-08-2008 18:23:03 27.3 C 8.63 g/m*3 27.3 C 0 km/h
3169 29-08-2008 18:35:02 27.6 C 8.78 g/m*3 27.6 C 0 km/h
3170 29-08-2008 18:47:02 28 C 8.7 g/m*3 28 C 0 km/h
3171 29-08-2008 18:59:02 27.9 C 8.38 g/m*3 27.9 C 0 km/h
3172 29-08-2008 19:11:03 26.7 C 8.1 g/m*3 26.7 C 0 km/h
3173 29-08-2008 19:23:02 25.1 C 8.57 g/m*3 25.1 C 0 km/h
3174 29-08-2008 19:35:03 24.9 C 9.16 g/m*3 24.9 C 0 km/h
3175 29-08-2008 19:47:02 24.5 C 9.62 g/m*3 24.5 C 0 km/h
Sensor: Nr:Datum:Temp:Abs-Feuchte:Windchill:Wind:
Aussen-T/F 3176 29-08-2008 19:59:03 23.7 C 9.63 g/m*3 23.7 C 0 km/h
3177 29-08-2008 20:11:01 23.1 C 9.72 g/m*3 23.1 C 0 km/h
3178 29-08-2008 20:23:02 22.3 C 10.07 g/m*3 22.3 C 0 km/h
3179 29-08-2008 20:35:01 21.4 C 9.94 g/m*3 21.4 C 0 km/h
3180 29-08-2008 20:47:02 20.7 C 10.08 g/m*3 20.7 C 0 km/h
3181 29-08-2008 20:59:02 20.1 C 10.08 g/m*3 20.1 C 0 km/h
3182 29-08-2008 21:11:01 19.8 C 10.42 g/m*3 19.8 C 0 km/h
3183 29-08-2008 21:23:02 19.5 C 10.41 g/m*3 19.5 C 0 km/h
3184 29-08-2008 21:35:01 19.3 C 10.45 g/m*3 19.3 C 0 km/h
3185 29-08-2008 21:47:02 19.3 C 10.45 g/m*3 19.3 C 0 km/h
3186 29-08-2008 21:59:02 19 C 10.43 g/m*3 19 C 0 km/h
3187 29-08-2008 22:11:01 18.9 C 10.69 g/m*3 18.9 C 0 km/h
3188 29-08-2008 22:24:01 18.8 C 10.79 g/m*3 18.8 C 0 km/h
3189 29-08-2008 22:36:01 18.6 C 10.82 g/m*3 18.6 C 0 km/h
3190 29-08-2008 22:48:01 18.5 C 10.76 g/m*3 18.5 C 0 km/h
3191 29-08-2008 23:00:01 18.3 C 10.79 g/m*3 18.3 C 0 km/h
3192 29-08-2008 23:12:01 18.1 C 10.82 g/m*3 18.1 C 0 km/h
3193 29-08-2008 23:24:01 17.9 C 10.99 g/m*3 17.9 C 0 km/h
3194 29-08-2008 23:36:02 17.7 C 11.01 g/m*3 17.7 C 0 km/h
3195 29-08-2008 23:48:02 17.4 C 10.97 g/m*3 17.4 C 0 km/h
3196 30-08-2008 00:00:02 17.2 C 10.84 g/m*3 17.2 C 0 km/h
3197 30-08-2008 00:12:02 17.1 C 10.92 g/m*3 17.1 C 0 km/h
3198 30-08-2008 00:24:02 16.9 C 10.93 g/m*3 16.9 C 0 km/h
3199 30-08-2008 00:36:02 16.8 C 11.01 g/m*3 16.8 C 0 km/h
3200 30-08-2008 00:48:02 16.6 C 10.88 g/m*3 16.6 C 0 km/h
Sensor: Nr:Datum:Temp:Abs-Feuchte:Windchill:Wind:
Aussen-T/F 3201 30-08-2008 01:00:02 16.4 C 10.89 g/m*3 16.4 C 0 km/h
3202 30-08-2008 01:12:02 16.3 C 10.82 g/m*3 16.3 C 0 km/h
3203 30-08-2008 01:24:02 16.2 C 10.89 g/m*3 16.2 C 0 km/h
3204 30-08-2008 01:36:02 16.1 C 10.83 g/m*3 16.1 C 0 km/h
3205 30-08-2008 01:48:02 15.9 C 10.83 g/m*3 15.9 C 0 km/h
3206 30-08-2008 02:00:02 15.8 C 10.77 g/m*3 15.8 C 0 km/h
3207 30-08-2008 02:12:02 15.6 C 10.64 g/m*3 15.6 C 0 km/h
3208 30-08-2008 02:24:02 15.5 C 10.71 g/m*3 15.5 C 0 km/h
3209 30-08-2008 02:36:02 15.4 C 10.64 g/m*3 15.4 C 0 km/h
3210 30-08-2008 02:48:02 15.4 C 10.64 g/m*3 15.4 C 0 km/h
3211 30-08-2008 03:00:02 15.2 C 10.51 g/m*3 15.2 C 0 km/h
3212 30-08-2008 03:12:02 15 C 10.39 g/m*3 15 C 0 km/h
3213 30-08-2008 03:24:03 14.9 C 10.45 g/m*3 14.9 C 0 km/h
3214 30-08-2008 03:36:03 14.7 C 10.45 g/m*3 14.7 C 0 km/h
3215 30-08-2008 03:48:03 14.7 C 10.45 g/m*3 14.7 C 0 km/h
3216 30-08-2008 04:00:03 14.7 C 10.45 g/m*3 14.7 C 0 km/h
3217 30-08-2008 04:12:03 14.4 C 10.26 g/m*3 14.4 C 0 km/h
3218 30-08-2008 04:24:03 14.4 C 10.26 g/m*3 14.4 C 0 km/h
3219 30-08-2008 04:36:03 14.3 C 10.2 g/m*3 14.3 C 0 km/h
3220 30-08-2008 04:48:03 14.4 C 10.26 g/m*3 14.4 C 0 km/h
3221 30-08-2008 05:00:03 14.5 C 10.45 g/m*3 14.5 C 0 km/h
3222 30-08-2008 05:12:03 14.5 C 10.45 g/m*3 14.5 C 0 km/h
3223 30-08-2008 05:24:03 14.5 C